<?xml version="1.0" encoding="UTF-8" standalone="no" ?>
<gpx xmlns="http://www.topografix.com/GPX/1/1" xmlns:xsi="http://www.w3.org/2001/XMLSchema-instance" xsi:schemaLocation="http://www.topografix.com/GPX/1/1 http://www.topografix.com/GPX/1/1/gpx.xsd" version="1.1" creator="VisuGPX - https://www.visugpx.com">
  <metadata>
    <name>TRACES &amp;amp; GITES 5m/7pts</name>
  </metadata>
  <wpt lat="44.11547" lon="3.41205">
    <ele>723.6796875</ele>
    <name><![CDATA[AIGUEBONNE Chez Denis]]></name>
    <type><![CDATA[user]]></type>
  </wpt>
  <wpt lat="44.40878" lon="3.41314">
    <ele>934.109375</ele>
    <name><![CDATA[CHAMPERBOUX Les Dolmens]]></name>
    <type><![CDATA[user]]></type>
  </wpt>
  <wpt lat="44.18932" lon="3.20806">
    <ele>426.30078125</ele>
    <name><![CDATA[Forêt]]></name>
    <type><![CDATA[user]]></type>
  </wpt>
  <wpt lat="44.37201" lon="3.5332">
    <ele>520.00390625</ele>
    <name><![CDATA[ISPAGNAC Le Vallon]]></name>
    <desc><![CDATA[Vallon
D907 Bis
Ispagnac, Languedoc-Roussilion, 48320, France
0033-4-66442124]]></desc>
    <cmt><![CDATA[Vallon
D907 Bis
Ispagnac, Languedoc-Roussilion, 48320, France
0033-4-66442124]]></cmt>
    <type><![CDATA[user]]></type>
  </wpt>
  <wpt lat="44.22528" lon="3.51366">
    <ele>1079.17578125</ele>
    <name><![CDATA[L'HOM La ferme]]></name>
    <desc><![CDATA[Chambre D'Hôtes L'Hom
Lieu-Dit L'Hom
Fraissinet-de-Fourques, Languedoc-Roussilion, 48400, France]]></desc>
    <cmt><![CDATA[Chambre D'Hôtes L'Hom
Lieu-Dit L'Hom
Fraissinet-de-Fourques, Languedoc-Roussilion, 48400, France]]></cmt>
    <type><![CDATA[user]]></type>
  </wpt>
  <wpt lat="44.3401" lon="3.47271">
    <ele>525.08984375</ele>
    <name><![CDATA[LE CERET Gite des gorges du Tarn/Les copains d'abord]]></name>
    <type><![CDATA[user]]></type>
  </wpt>
  <wpt lat="44.18913" lon="3.20754">
    <ele>435.7421875</ele>
    <name><![CDATA[LE ROZIER Le gevaudan ou PEYRELEAU Evolution]]></name>
    <type><![CDATA[user]]></type>
  </wpt>
  <wpt lat="44.27777" lon="3.22748">
    <ele>424.09375</ele>
    <name><![CDATA[LES VIGNES Chez Alex]]></name>
    <type><![CDATA[user]]></type>
  </wpt>
  <wpt lat="44.37425" lon="3.77646">
    <ele>1243.0078125</ele>
    <name><![CDATA[VILLENEUVE Ferme de séjour chez Molines J.C.]]></name>
    <type><![CDATA[user]]></type>
  </wpt>
  <trk>
    <name><![CDATA[3 Peyreleau à Aiguebonne par Larzac]]></name>
    <trkseg>
      <trkpt lat="44.18917" lon="3.2075">
        <ele>427</ele>
        <time>2019-11-12T11:38:48Z</time>
      </trkpt>
      <trkpt lat="44.18911" lon="3.20769">
        <ele>426</ele>
        <time>2019-11-12T11:38:51Z</time>
      </trkpt>
      <trkpt lat="44.18905" lon="3.20771">
        <ele>426</ele>
        <time>2019-11-12T11:38:53Z</time>
      </trkpt>
      <trkpt lat="44.18899" lon="3.20766">
        <ele>427</ele>
        <time>2019-11-12T11:38:55Z</time>
      </trkpt>
      <trkpt lat="44.18905" lon="3.20741">
        <ele>428</ele>
        <time>2019-11-12T11:38:59Z</time>
      </trkpt>
      <trkpt lat="44.18901" lon="3.20736">
        <ele>429</ele>
        <time>2019-11-12T11:39:00Z</time>
      </trkpt>
      <trkpt lat="44.18884" lon="3.2073">
        <ele>430</ele>
        <time>2019-11-12T11:39:04Z</time>
      </trkpt>
      <trkpt lat="44.18892" lon="3.20696">
        <ele>431</ele>
        <time>2019-11-12T11:39:10Z</time>
      </trkpt>
      <trkpt lat="44.18888" lon="3.20696">
        <ele>431</ele>
        <time>2019-11-12T11:39:11Z</time>
      </trkpt>
      <trkpt lat="44.18884" lon="3.20687">
        <ele>432</ele>
        <time>2019-11-12T11:39:13Z</time>
      </trkpt>
      <trkpt lat="44.18879" lon="3.20685">
        <ele>432</ele>
        <time>2019-11-12T11:39:14Z</time>
      </trkpt>
      <trkpt lat="44.18875" lon="3.20687">
        <ele>432</ele>
        <time>2019-11-12T11:39:15Z</time>
      </trkpt>
      <trkpt lat="44.18854" lon="3.20672">
        <ele>433</ele>
        <time>2019-11-12T11:39:21Z</time>
      </trkpt>
      <trkpt lat="44.18854" lon="3.207">
        <ele>432</ele>
        <time>2019-11-12T11:39:25Z</time>
      </trkpt>
      <trkpt lat="44.18847" lon="3.20715">
        <ele>432</ele>
        <time>2019-11-12T11:39:28Z</time>
      </trkpt>
      <trkpt lat="44.18836" lon="3.20732">
        <ele>432</ele>
        <time>2019-11-12T11:39:32Z</time>
      </trkpt>
      <trkpt lat="44.18808" lon="3.20758">
        <ele>433</ele>
        <time>2019-11-12T11:39:40Z</time>
      </trkpt>
      <trkpt lat="44.188" lon="3.20775">
        <ele>433</ele>
        <time>2019-11-12T11:39:44Z</time>
      </trkpt>
      <trkpt lat="44.18789" lon="3.20775">
        <ele>434</ele>
        <time>2019-11-12T11:39:46Z</time>
      </trkpt>
      <trkpt lat="44.18787" lon="3.2079">
        <ele>434</ele>
        <time>2019-11-12T11:39:49Z</time>
      </trkpt>
      <trkpt lat="44.18789" lon="3.20814">
        <ele>433</ele>
        <time>2019-11-12T11:39:53Z</time>
      </trkpt>
      <trkpt lat="44.18774" lon="3.20848">
        <ele>432</ele>
        <time>2019-11-12T11:39:59Z</time>
      </trkpt>
      <trkpt lat="44.1877" lon="3.20882">
        <ele>430</ele>
        <time>2019-11-12T11:40:05Z</time>
      </trkpt>
      <trkpt lat="44.18757" lon="3.20942">
        <ele>428</ele>
        <time>2019-11-12T11:40:16Z</time>
      </trkpt>
      <trkpt lat="44.18776" lon="3.21015">
        <ele>426</ele>
        <time>2019-11-12T11:40:29Z</time>
      </trkpt>
      <trkpt lat="44.18776" lon="3.21054">
        <ele>426</ele>
        <time>2019-11-12T11:40:35Z</time>
      </trkpt>
      <trkpt lat="44.18772" lon="3.21065">
        <ele>427</ele>
        <time>2019-11-12T11:40:37Z</time>
      </trkpt>
      <trkpt lat="44.18757" lon="3.21088">
        <ele>429</ele>
        <time>2019-11-12T11:40:42Z</time>
      </trkpt>
      <trkpt lat="44.18714" lon="3.21123">
        <ele>435</ele>
        <time>2019-11-12T11:40:54Z</time>
      </trkpt>
      <trkpt lat="44.18693" lon="3.21136">
        <ele>437</ele>
        <time>2019-11-12T11:40:59Z</time>
      </trkpt>
      <trkpt lat="44.18688" lon="3.21142">
        <ele>437</ele>
        <time>2019-11-12T11:41:01Z</time>
      </trkpt>
      <trkpt lat="44.1868" lon="3.21142">
        <ele>439</ele>
        <time>2019-11-12T11:41:03Z</time>
      </trkpt>
      <trkpt lat="44.18675" lon="3.21138">
        <ele>440</ele>
        <time>2019-11-12T11:41:04Z</time>
      </trkpt>
      <trkpt lat="44.18675" lon="3.21127">
        <ele>442</ele>
        <time>2019-11-12T11:41:06Z</time>
      </trkpt>
      <trkpt lat="44.18686" lon="3.21048">
        <ele>449</ele>
        <time>2019-11-12T11:41:20Z</time>
      </trkpt>
      <trkpt lat="44.18684" lon="3.20994">
        <ele>454</ele>
        <time>2019-11-12T11:41:29Z</time>
      </trkpt>
      <trkpt lat="44.18682" lon="3.20975">
        <ele>455</ele>
        <time>2019-11-12T11:41:32Z</time>
      </trkpt>
      <trkpt lat="44.18665" lon="3.20932">
        <ele>464</ele>
        <time>2019-11-12T11:41:40Z</time>
      </trkpt>
      <trkpt lat="44.18667" lon="3.20937">
        <ele>463</ele>
        <time>2019-11-12T11:41:41Z</time>
      </trkpt>
      <trkpt lat="44.18665" lon="3.20932">
        <ele>464</ele>
        <time>2019-11-12T11:41:42Z</time>
      </trkpt>
      <trkpt lat="44.18671" lon="3.20872">
        <ele>467</ele>
        <time>2019-11-12T11:41:52Z</time>
      </trkpt>
      <trkpt lat="44.18671" lon="3.20824">
        <ele>472</ele>
        <time>2019-11-12T11:42:00Z</time>
      </trkpt>
      <trkpt lat="44.18654" lon="3.20771">
        <ele>484</ele>
        <time>2019-11-12T11:42:10Z</time>
      </trkpt>
      <trkpt lat="44.18658" lon="3.20721">
        <ele>485</ele>
        <time>2019-11-12T11:42:18Z</time>
      </trkpt>
      <trkpt lat="44.18665" lon="3.20702">
        <ele>482</ele>
        <time>2019-11-12T11:42:22Z</time>
      </trkpt>
      <trkpt lat="44.18663" lon="3.20683">
        <ele>484</ele>
        <time>2019-11-12T11:42:25Z</time>
      </trkpt>
      <trkpt lat="44.18645" lon="3.20721">
        <ele>492</ele>
        <time>2019-11-12T11:42:33Z</time>
      </trkpt>
      <trkpt lat="44.18641" lon="3.20736">
        <ele>493</ele>
        <time>2019-11-12T11:42:35Z</time>
      </trkpt>
      <trkpt lat="44.18633" lon="3.20829">
        <ele>492</ele>
        <time>2019-11-12T11:42:51Z</time>
      </trkpt>
      <trkpt lat="44.18626" lon="3.20852">
        <ele>494</ele>
        <time>2019-11-12T11:42:55Z</time>
      </trkpt>
      <trkpt lat="44.18606" lon="3.20889">
        <ele>500</ele>
        <time>2019-11-12T11:43:03Z</time>
      </trkpt>
      <trkpt lat="44.18608" lon="3.20892">
        <ele>499</ele>
        <time>2019-11-12T11:43:04Z</time>
      </trkpt>
      <trkpt lat="44.18606" lon="3.20889">
        <ele>500</ele>
        <time>2019-11-12T11:43:04Z</time>
      </trkpt>
      <trkpt lat="44.18596" lon="3.2091">
        <ele>503</ele>
        <time>2019-11-12T11:43:09Z</time>
      </trkpt>
      <trkpt lat="44.1859" lon="3.20951">
        <ele>500</ele>
        <time>2019-11-12T11:43:16Z</time>
      </trkpt>
      <trkpt lat="44.1856" lon="3.21011">
        <ele>504</ele>
        <time>2019-11-12T11:43:28Z</time>
      </trkpt>
      <trkpt lat="44.18532" lon="3.21039">
        <ele>506</ele>
        <time>2019-11-12T11:43:36Z</time>
      </trkpt>
      <trkpt lat="44.18514" lon="3.21063">
        <ele>504</ele>
        <time>2019-11-12T11:43:42Z</time>
      </trkpt>
      <trkpt lat="44.18502" lon="3.21071">
        <ele>505</ele>
        <time>2019-11-12T11:43:45Z</time>
      </trkpt>
      <trkpt lat="44.1848" lon="3.21078">
        <ele>512</ele>
        <time>2019-11-12T11:43:50Z</time>
      </trkpt>
      <trkpt lat="44.18452" lon="3.21078">
        <ele>525</ele>
        <time>2019-11-12T11:43:57Z</time>
      </trkpt>
      <trkpt lat="44.18431" lon="3.21082">
        <ele>532</ele>
        <time>2019-11-12T11:44:02Z</time>
      </trkpt>
      <trkpt lat="44.1839" lon="3.21093">
        <ele>544</ele>
        <time>2019-11-12T11:44:11Z</time>
      </trkpt>
      <trkpt lat="44.18381" lon="3.21099">
        <ele>545</ele>
        <time>2019-11-12T11:44:14Z</time>
      </trkpt>
      <trkpt lat="44.18364" lon="3.21121">
        <ele>541</ele>
        <time>2019-11-12T11:44:19Z</time>
      </trkpt>
      <trkpt lat="44.18354" lon="3.21142">
        <ele>534</ele>
        <time>2019-11-12T11:44:23Z</time>
      </trkpt>
      <trkpt lat="44.18349" lon="3.21146">
        <ele>535</ele>
        <time>2019-11-12T11:44:25Z</time>
      </trkpt>
      <trkpt lat="44.18345" lon="3.21146">
        <ele>537</ele>
        <time>2019-11-12T11:44:26Z</time>
      </trkpt>
      <trkpt lat="44.18341" lon="3.21138">
        <ele>543</ele>
        <time>2019-11-12T11:44:27Z</time>
      </trkpt>
      <trkpt lat="44.18343" lon="3.21129">
        <ele>547</ele>
        <time>2019-11-12T11:44:29Z</time>
      </trkpt>
      <trkpt lat="44.18354" lon="3.21121">
        <ele>546</ele>
        <time>2019-11-12T11:44:32Z</time>
      </trkpt>
      <trkpt lat="44.18371" lon="3.21103">
        <ele>547</ele>
        <time>2019-11-12T11:44:37Z</time>
      </trkpt>
      <trkpt lat="44.18379" lon="3.21088">
        <ele>552</ele>
        <time>2019-11-12T11:44:40Z</time>
      </trkpt>
      <trkpt lat="44.18388" lon="3.2108">
        <ele>553</ele>
        <time>2019-11-12T11:44:42Z</time>
      </trkpt>
      <trkpt lat="44.18457" lon="3.21054">
        <ele>535</ele>
        <time>2019-11-12T11:44:59Z</time>
      </trkpt>
      <trkpt lat="44.18467" lon="3.21048">
        <ele>532</ele>
        <time>2019-11-12T11:45:01Z</time>
      </trkpt>
      <trkpt lat="44.1848" lon="3.21035">
        <ele>531</ele>
        <time>2019-11-12T11:45:05Z</time>
      </trkpt>
      <trkpt lat="44.18517" lon="3.20957">
        <ele>537</ele>
        <time>2019-11-12T11:45:21Z</time>
      </trkpt>
      <trkpt lat="44.18549" lon="3.20818">
        <ele>543</ele>
        <time>2019-11-12T11:45:45Z</time>
      </trkpt>
      <trkpt lat="44.18547" lon="3.20728">
        <ele>549</ele>
        <time>2019-11-12T11:46:00Z</time>
      </trkpt>
      <trkpt lat="44.18549" lon="3.20683">
        <ele>546</ele>
        <time>2019-11-12T11:46:08Z</time>
      </trkpt>
      <trkpt lat="44.18547" lon="3.20663">
        <ele>546</ele>
        <time>2019-11-12T11:46:11Z</time>
      </trkpt>
      <trkpt lat="44.1854" lon="3.20653">
        <ele>547</ele>
        <time>2019-11-12T11:46:14Z</time>
      </trkpt>
      <trkpt lat="44.18502" lon="3.20631">
        <ele>561</ele>
        <time>2019-11-12T11:46:23Z</time>
      </trkpt>
      <trkpt lat="44.18487" lon="3.20612">
        <ele>564</ele>
        <time>2019-11-12T11:46:28Z</time>
      </trkpt>
      <trkpt lat="44.18431" lon="3.20528">
        <ele>565</ele>
        <time>2019-11-12T11:46:47Z</time>
      </trkpt>
      <trkpt lat="44.18403" lon="3.20498">
        <ele>563</ele>
        <time>2019-11-12T11:46:55Z</time>
      </trkpt>
      <trkpt lat="44.18381" lon="3.20483">
        <ele>564</ele>
        <time>2019-11-12T11:47:01Z</time>
      </trkpt>
      <trkpt lat="44.1836" lon="3.20475">
        <ele>566</ele>
        <time>2019-11-12T11:47:06Z</time>
      </trkpt>
      <trkpt lat="44.18324" lon="3.20475">
        <ele>575</ele>
        <time>2019-11-12T11:47:15Z</time>
      </trkpt>
      <trkpt lat="44.18304" lon="3.20472">
        <ele>577</ele>
        <time>2019-11-12T11:47:19Z</time>
      </trkpt>
      <trkpt lat="44.1827" lon="3.2046">
        <ele>576</ele>
        <time>2019-11-12T11:47:28Z</time>
      </trkpt>
      <trkpt lat="44.18248" lon="3.20455">
        <ele>577</ele>
        <time>2019-11-12T11:47:33Z</time>
      </trkpt>
      <trkpt lat="44.18214" lon="3.20462">
        <ele>587</ele>
        <time>2019-11-12T11:47:41Z</time>
      </trkpt>
      <trkpt lat="44.1818" lon="3.2046">
        <ele>592</ele>
        <time>2019-11-12T11:47:49Z</time>
      </trkpt>
      <trkpt lat="44.18154" lon="3.20449">
        <ele>596</ele>
        <time>2019-11-12T11:47:55Z</time>
      </trkpt>
      <trkpt lat="44.18137" lon="3.20436">
        <ele>598</ele>
        <time>2019-11-12T11:48:00Z</time>
      </trkpt>
      <trkpt lat="44.18118" lon="3.20406">
        <ele>597</ele>
        <time>2019-11-12T11:48:06Z</time>
      </trkpt>
      <trkpt lat="44.18094" lon="3.20361">
        <ele>599</ele>
        <time>2019-11-12T11:48:16Z</time>
      </trkpt>
      <trkpt lat="44.18087" lon="3.20361">
        <ele>602</ele>
        <time>2019-11-12T11:48:17Z</time>
      </trkpt>
      <trkpt lat="44.18083" lon="3.20365">
        <ele>604</ele>
        <time>2019-11-12T11:48:19Z</time>
      </trkpt>
      <trkpt lat="44.18083" lon="3.20376">
        <ele>607</ele>
        <time>2019-11-12T11:48:20Z</time>
      </trkpt>
      <trkpt lat="44.18105" lon="3.20395">
        <ele>601</ele>
        <time>2019-11-12T11:48:26Z</time>
      </trkpt>
      <trkpt lat="44.18118" lon="3.20434">
        <ele>606</ele>
        <time>2019-11-12T11:48:34Z</time>
      </trkpt>
      <trkpt lat="44.18135" lon="3.20462">
        <ele>610</ele>
        <time>2019-11-12T11:48:40Z</time>
      </trkpt>
      <trkpt lat="44.18165" lon="3.20485">
        <ele>607</ele>
        <time>2019-11-12T11:48:48Z</time>
      </trkpt>
      <trkpt lat="44.18195" lon="3.205">
        <ele>609</ele>
        <time>2019-11-12T11:48:55Z</time>
      </trkpt>
      <trkpt lat="44.1824" lon="3.20511">
        <ele>607</ele>
        <time>2019-11-12T11:49:06Z</time>
      </trkpt>
      <trkpt lat="44.18328" lon="3.20554">
        <ele>613</ele>
        <time>2019-11-12T11:49:28Z</time>
      </trkpt>
      <trkpt lat="44.18349" lon="3.20567">
        <ele>613</ele>
        <time>2019-11-12T11:49:33Z</time>
      </trkpt>
      <trkpt lat="44.18334" lon="3.20558">
        <ele>613</ele>
        <time>2019-11-12T11:49:37Z</time>
      </trkpt>
      <trkpt lat="44.18332" lon="3.20566">
        <ele>618</ele>
        <time>2019-11-12T11:49:38Z</time>
      </trkpt>
      <trkpt lat="44.18334" lon="3.20558">
        <ele>613</ele>
        <time>2019-11-12T11:49:40Z</time>
      </trkpt>
      <trkpt lat="44.18349" lon="3.20567">
        <ele>613</ele>
        <time>2019-11-12T11:49:43Z</time>
      </trkpt>
      <trkpt lat="44.18364" lon="3.20586">
        <ele>616</ele>
        <time>2019-11-12T11:49:48Z</time>
      </trkpt>
      <trkpt lat="44.1842" lon="3.20685">
        <ele>624</ele>
        <time>2019-11-12T11:50:09Z</time>
      </trkpt>
      <trkpt lat="44.18435" lon="3.20702">
        <ele>619</ele>
        <time>2019-11-12T11:50:14Z</time>
      </trkpt>
      <trkpt lat="44.1845" lon="3.20741">
        <ele>616</ele>
        <time>2019-11-12T11:50:21Z</time>
      </trkpt>
      <trkpt lat="44.18452" lon="3.20754">
        <ele>616</ele>
        <time>2019-11-12T11:50:23Z</time>
      </trkpt>
      <trkpt lat="44.1845" lon="3.20771">
        <ele>616</ele>
        <time>2019-11-12T11:50:26Z</time>
      </trkpt>
      <trkpt lat="44.18439" lon="3.20801">
        <ele>622</ele>
        <time>2019-11-12T11:50:32Z</time>
      </trkpt>
      <trkpt lat="44.18431" lon="3.20809">
        <ele>628</ele>
        <time>2019-11-12T11:50:34Z</time>
      </trkpt>
      <trkpt lat="44.18427" lon="3.20809">
        <ele>631</ele>
        <time>2019-11-12T11:50:35Z</time>
      </trkpt>
      <trkpt lat="44.18424" lon="3.20799">
        <ele>634</ele>
        <time>2019-11-12T11:50:37Z</time>
      </trkpt>
      <trkpt lat="44.18435" lon="3.20779">
        <ele>627</ele>
        <time>2019-11-12T11:50:41Z</time>
      </trkpt>
      <trkpt lat="44.18439" lon="3.20762">
        <ele>625</ele>
        <time>2019-11-12T11:50:44Z</time>
      </trkpt>
      <trkpt lat="44.18437" lon="3.20743">
        <ele>626</ele>
        <time>2019-11-12T11:50:47Z</time>
      </trkpt>
      <trkpt lat="44.18364" lon="3.20659">
        <ele>647</ele>
        <time>2019-11-12T11:51:10Z</time>
      </trkpt>
      <trkpt lat="44.18336" lon="3.20633">
        <ele>649</ele>
        <time>2019-11-12T11:51:17Z</time>
      </trkpt>
      <trkpt lat="44.18308" lon="3.20616">
        <ele>647</ele>
        <time>2019-11-12T11:51:25Z</time>
      </trkpt>
      <trkpt lat="44.18253" lon="3.20606">
        <ele>654</ele>
        <time>2019-11-12T11:51:38Z</time>
      </trkpt>
      <trkpt lat="44.18205" lon="3.20603">
        <ele>662</ele>
        <time>2019-11-12T11:51:49Z</time>
      </trkpt>
      <trkpt lat="44.18184" lon="3.20599">
        <ele>664</ele>
        <time>2019-11-12T11:51:54Z</time>
      </trkpt>
      <trkpt lat="44.18156" lon="3.20582">
        <ele>662</ele>
        <time>2019-11-12T11:52:01Z</time>
      </trkpt>
      <trkpt lat="44.18122" lon="3.20569">
        <ele>669</ele>
        <time>2019-11-12T11:52:09Z</time>
      </trkpt>
      <trkpt lat="44.1804" lon="3.20524">
        <ele>673</ele>
        <time>2019-11-12T11:52:30Z</time>
      </trkpt>
      <trkpt lat="44.18021" lon="3.2049">
        <ele>665</ele>
        <time>2019-11-12T11:52:37Z</time>
      </trkpt>
      <trkpt lat="44.18012" lon="3.20483">
        <ele>665</ele>
        <time>2019-11-12T11:52:39Z</time>
      </trkpt>
      <trkpt lat="44.18006" lon="3.20485">
        <ele>668</ele>
        <time>2019-11-12T11:52:41Z</time>
      </trkpt>
      <trkpt lat="44.17987" lon="3.20513">
        <ele>679</ele>
        <time>2019-11-12T11:52:47Z</time>
      </trkpt>
      <trkpt lat="44.17957" lon="3.2053">
        <ele>680</ele>
        <time>2019-11-12T11:52:55Z</time>
      </trkpt>
      <trkpt lat="44.17927" lon="3.20556">
        <ele>684</ele>
        <time>2019-11-12T11:53:03Z</time>
      </trkpt>
      <trkpt lat="44.17856" lon="3.20646">
        <ele>689</ele>
        <time>2019-11-12T11:53:25Z</time>
      </trkpt>
      <trkpt lat="44.17847" lon="3.20661">
        <ele>689</ele>
        <time>2019-11-12T11:53:29Z</time>
      </trkpt>
      <trkpt lat="44.17845" lon="3.207">
        <ele>693</ele>
        <time>2019-11-12T11:53:35Z</time>
      </trkpt>
      <trkpt lat="44.1786" lon="3.20726">
        <ele>699</ele>
        <time>2019-11-12T11:53:41Z</time>
      </trkpt>
      <trkpt lat="44.1786" lon="3.20741">
        <ele>701</ele>
        <time>2019-11-12T11:53:43Z</time>
      </trkpt>
      <trkpt lat="44.17851" lon="3.20751">
        <ele>700</ele>
        <time>2019-11-12T11:53:46Z</time>
      </trkpt>
      <trkpt lat="44.17813" lon="3.20769">
        <ele>700</ele>
        <time>2019-11-12T11:53:55Z</time>
      </trkpt>
      <trkpt lat="44.178" lon="3.20779">
        <ele>701</ele>
        <time>2019-11-12T11:53:59Z</time>
      </trkpt>
      <trkpt lat="44.17776" lon="3.2082">
        <ele>706</ele>
        <time>2019-11-12T11:54:08Z</time>
      </trkpt>
      <trkpt lat="44.17763" lon="3.20837">
        <ele>707</ele>
        <time>2019-11-12T11:54:12Z</time>
      </trkpt>
      <trkpt lat="44.1774" lon="3.20854">
        <ele>708</ele>
        <time>2019-11-12T11:54:18Z</time>
      </trkpt>
      <trkpt lat="44.17693" lon="3.20906">
        <ele>714</ele>
        <time>2019-11-12T11:54:32Z</time>
      </trkpt>
      <trkpt lat="44.17675" lon="3.20921">
        <ele>715</ele>
        <time>2019-11-12T11:54:37Z</time>
      </trkpt>
      <trkpt lat="44.17678" lon="3.2092">
        <ele>715</ele>
        <time>2019-11-12T11:54:38Z</time>
      </trkpt>
      <trkpt lat="44.17666" lon="3.20919">
        <ele>714</ele>
        <time>2019-11-12T11:54:40Z</time>
      </trkpt>
      <trkpt lat="44.1765" lon="3.2091">
        <ele>714</ele>
        <time>2019-11-12T11:54:44Z</time>
      </trkpt>
      <trkpt lat="44.17609" lon="3.20869">
        <ele>713</ele>
        <time>2019-11-12T11:54:56Z</time>
      </trkpt>
      <trkpt lat="44.17596" lon="3.20863">
        <ele>713</ele>
        <time>2019-11-12T11:54:59Z</time>
      </trkpt>
      <trkpt lat="44.17559" lon="3.20857">
        <ele>717</ele>
        <time>2019-11-12T11:55:08Z</time>
      </trkpt>
      <trkpt lat="44.17526" lon="3.20834">
        <ele>721</ele>
        <time>2019-11-12T11:55:17Z</time>
      </trkpt>
      <trkpt lat="44.17479" lon="3.20816">
        <ele>725</ele>
        <time>2019-11-12T11:55:28Z</time>
      </trkpt>
      <trkpt lat="44.17429" lon="3.20807">
        <ele>728</ele>
        <time>2019-11-12T11:55:40Z</time>
      </trkpt>
      <trkpt lat="44.17394" lon="3.20808">
        <ele>732</ele>
        <time>2019-11-12T11:55:48Z</time>
      </trkpt>
      <trkpt lat="44.17373" lon="3.20806">
        <ele>734</ele>
        <time>2019-11-12T11:55:53Z</time>
      </trkpt>
      <trkpt lat="44.17365" lon="3.20801">
        <ele>734</ele>
        <time>2019-11-12T11:55:55Z</time>
      </trkpt>
      <trkpt lat="44.17347" lon="3.20783">
        <ele>734</ele>
        <time>2019-11-12T11:56:00Z</time>
      </trkpt>
      <trkpt lat="44.17337" lon="3.20778">
        <ele>734</ele>
        <time>2019-11-12T11:56:03Z</time>
      </trkpt>
      <trkpt lat="44.17329" lon="3.20778">
        <ele>734</ele>
        <time>2019-11-12T11:56:05Z</time>
      </trkpt>
      <trkpt lat="44.17319" lon="3.20695">
        <ele>732</ele>
        <time>2019-11-12T11:56:19Z</time>
      </trkpt>
      <trkpt lat="44.17322" lon="3.2065">
        <ele>733</ele>
        <time>2019-11-12T11:56:26Z</time>
      </trkpt>
      <trkpt lat="44.17342" lon="3.20542">
        <ele>735</ele>
        <time>2019-11-12T11:56:45Z</time>
      </trkpt>
      <trkpt lat="44.17345" lon="3.20514">
        <ele>735</ele>
        <time>2019-11-12T11:56:50Z</time>
      </trkpt>
      <trkpt lat="44.17352" lon="3.20484">
        <ele>736</ele>
        <time>2019-11-12T11:56:55Z</time>
      </trkpt>
      <trkpt lat="44.1735" lon="3.20422">
        <ele>737</ele>
        <time>2019-11-12T11:57:05Z</time>
      </trkpt>
      <trkpt lat="44.17339" lon="3.20366">
        <ele>737</ele>
        <time>2019-11-12T11:57:15Z</time>
      </trkpt>
      <trkpt lat="44.17326" lon="3.20321">
        <ele>739</ele>
        <time>2019-11-12T11:57:23Z</time>
      </trkpt>
      <trkpt lat="44.17306" lon="3.20293">
        <ele>742</ele>
        <time>2019-11-12T11:57:30Z</time>
      </trkpt>
      <trkpt lat="44.17284" lon="3.20283">
        <ele>744</ele>
        <time>2019-11-12T11:57:35Z</time>
      </trkpt>
      <trkpt lat="44.1726" lon="3.20305">
        <ele>744</ele>
        <time>2019-11-12T11:57:42Z</time>
      </trkpt>
      <trkpt lat="44.17237" lon="3.20303">
        <ele>746</ele>
        <time>2019-11-12T11:57:47Z</time>
      </trkpt>
      <trkpt lat="44.17223" lon="3.20282">
        <ele>749</ele>
        <time>2019-11-12T11:57:52Z</time>
      </trkpt>
      <trkpt lat="44.17225" lon="3.20215">
        <ele>752</ele>
        <time>2019-11-12T11:58:03Z</time>
      </trkpt>
      <trkpt lat="44.17213" lon="3.20227">
        <ele>753</ele>
        <time>2019-11-12T11:58:07Z</time>
      </trkpt>
      <trkpt lat="44.17191" lon="3.20229">
        <ele>754</ele>
        <time>2019-11-12T11:58:12Z</time>
      </trkpt>
      <trkpt lat="44.17184" lon="3.20226">
        <ele>755</ele>
        <time>2019-11-12T11:58:14Z</time>
      </trkpt>
      <trkpt lat="44.17156" lon="3.2023">
        <ele>756</ele>
        <time>2019-11-12T11:58:20Z</time>
      </trkpt>
      <trkpt lat="44.17127" lon="3.20197">
        <ele>757</ele>
        <time>2019-11-12T11:58:29Z</time>
      </trkpt>
      <trkpt lat="44.17104" lon="3.20195">
        <ele>758</ele>
        <time>2019-11-12T11:58:34Z</time>
      </trkpt>
      <trkpt lat="44.17093" lon="3.20199">
        <ele>758</ele>
        <time>2019-11-12T11:58:37Z</time>
      </trkpt>
      <trkpt lat="44.17048" lon="3.202">
        <ele>759</ele>
        <time>2019-11-12T11:58:47Z</time>
      </trkpt>
      <trkpt lat="44.1702" lon="3.20213">
        <ele>759</ele>
        <time>2019-11-12T11:58:54Z</time>
      </trkpt>
      <trkpt lat="44.16969" lon="3.20256">
        <ele>759</ele>
        <time>2019-11-12T11:59:08Z</time>
      </trkpt>
      <trkpt lat="44.16954" lon="3.20261">
        <ele>760</ele>
        <time>2019-11-12T11:59:12Z</time>
      </trkpt>
      <trkpt lat="44.16917" lon="3.20296">
        <ele>761</ele>
        <time>2019-11-12T11:59:22Z</time>
      </trkpt>
      <trkpt lat="44.16898" lon="3.2031">
        <ele>762</ele>
        <time>2019-11-12T11:59:27Z</time>
      </trkpt>
      <trkpt lat="44.16884" lon="3.20327">
        <ele>763</ele>
        <time>2019-11-12T11:59:32Z</time>
      </trkpt>
      <trkpt lat="44.16873" lon="3.20361">
        <ele>762</ele>
        <time>2019-11-12T11:59:38Z</time>
      </trkpt>
      <trkpt lat="44.16855" lon="3.20387">
        <ele>762</ele>
        <time>2019-11-12T11:59:44Z</time>
      </trkpt>
      <trkpt lat="44.16833" lon="3.20404">
        <ele>763</ele>
        <time>2019-11-12T11:59:50Z</time>
      </trkpt>
      <trkpt lat="44.16819" lon="3.2042">
        <ele>763</ele>
        <time>2019-11-12T11:59:54Z</time>
      </trkpt>
      <trkpt lat="44.16799" lon="3.20433">
        <ele>763</ele>
        <time>2019-11-12T11:59:59Z</time>
      </trkpt>
      <trkpt lat="44.16771" lon="3.20447">
        <ele>764</ele>
        <time>2019-11-12T12:00:06Z</time>
      </trkpt>
      <trkpt lat="44.16766" lon="3.20448">
        <ele>764</ele>
        <time>2019-11-12T12:00:07Z</time>
      </trkpt>
      <trkpt lat="44.16753" lon="3.20445">
        <ele>765</ele>
        <time>2019-11-12T12:00:10Z</time>
      </trkpt>
      <trkpt lat="44.1674" lon="3.20436">
        <ele>765</ele>
        <time>2019-11-12T12:00:14Z</time>
      </trkpt>
      <trkpt lat="44.16731" lon="3.20423">
        <ele>765</ele>
        <time>2019-11-12T12:00:17Z</time>
      </trkpt>
      <trkpt lat="44.16727" lon="3.2041">
        <ele>765</ele>
        <time>2019-11-12T12:00:19Z</time>
      </trkpt>
      <trkpt lat="44.16731" lon="3.20361">
        <ele>765</ele>
        <time>2019-11-12T12:00:27Z</time>
      </trkpt>
      <trkpt lat="44.16728" lon="3.20336">
        <ele>765</ele>
        <time>2019-11-12T12:00:32Z</time>
      </trkpt>
      <trkpt lat="44.16724" lon="3.20326">
        <ele>764</ele>
        <time>2019-11-12T12:00:34Z</time>
      </trkpt>
      <trkpt lat="44.16716" lon="3.20318">
        <ele>764</ele>
        <time>2019-11-12T12:00:36Z</time>
      </trkpt>
      <trkpt lat="44.16708" lon="3.20294">
        <ele>762</ele>
        <time>2019-11-12T12:00:40Z</time>
      </trkpt>
      <trkpt lat="44.16699" lon="3.20285">
        <ele>761</ele>
        <time>2019-11-12T12:00:43Z</time>
      </trkpt>
      <trkpt lat="44.16691" lon="3.20283">
        <ele>761</ele>
        <time>2019-11-12T12:00:45Z</time>
      </trkpt>
      <trkpt lat="44.1667" lon="3.20285">
        <ele>759</ele>
        <time>2019-11-12T12:00:50Z</time>
      </trkpt>
      <trkpt lat="44.16641" lon="3.20306">
        <ele>761</ele>
        <time>2019-11-12T12:00:57Z</time>
      </trkpt>
      <trkpt lat="44.16604" lon="3.20314">
        <ele>762</ele>
        <time>2019-11-12T12:01:06Z</time>
      </trkpt>
      <trkpt lat="44.16598" lon="3.20312">
        <ele>762</ele>
        <time>2019-11-12T12:01:08Z</time>
      </trkpt>
      <trkpt lat="44.16576" lon="3.20287">
        <ele>761</ele>
        <time>2019-11-12T12:01:14Z</time>
      </trkpt>
      <trkpt lat="44.16564" lon="3.20283">
        <ele>760</ele>
        <time>2019-11-12T12:01:17Z</time>
      </trkpt>
      <trkpt lat="44.16548" lon="3.20286">
        <ele>760</ele>
        <time>2019-11-12T12:01:21Z</time>
      </trkpt>
      <trkpt lat="44.1655" lon="3.20302">
        <ele>760</ele>
        <time>2019-11-12T12:01:24Z</time>
      </trkpt>
      <trkpt lat="44.16548" lon="3.20286">
        <ele>760</ele>
        <time>2019-11-12T12:01:26Z</time>
      </trkpt>
      <trkpt lat="44.16446" lon="3.20326">
        <ele>756</ele>
        <time>2019-11-12T12:01:51Z</time>
      </trkpt>
      <trkpt lat="44.16436" lon="3.20324">
        <ele>755</ele>
        <time>2019-11-12T12:01:53Z</time>
      </trkpt>
      <trkpt lat="44.16393" lon="3.20304">
        <ele>753</ele>
        <time>2019-11-12T12:02:04Z</time>
      </trkpt>
      <trkpt lat="44.16379" lon="3.20308">
        <ele>753</ele>
        <time>2019-11-12T12:02:07Z</time>
      </trkpt>
      <trkpt lat="44.16369" lon="3.20314">
        <ele>753</ele>
        <time>2019-11-12T12:02:10Z</time>
      </trkpt>
      <trkpt lat="44.16311" lon="3.20367">
        <ele>753</ele>
        <time>2019-11-12T12:02:26Z</time>
      </trkpt>
      <trkpt lat="44.16304" lon="3.20386">
        <ele>754</ele>
        <time>2019-11-12T12:02:30Z</time>
      </trkpt>
      <trkpt lat="44.16297" lon="3.20392">
        <ele>754</ele>
        <time>2019-11-12T12:02:32Z</time>
      </trkpt>
      <trkpt lat="44.16287" lon="3.204">
        <ele>754</ele>
        <time>2019-11-12T12:02:34Z</time>
      </trkpt>
      <trkpt lat="44.16223" lon="3.20438">
        <ele>754</ele>
        <time>2019-11-12T12:02:50Z</time>
      </trkpt>
      <trkpt lat="44.16194" lon="3.20462">
        <ele>755</ele>
        <time>2019-11-12T12:02:58Z</time>
      </trkpt>
      <trkpt lat="44.1618" lon="3.20463">
        <ele>755</ele>
        <time>2019-11-12T12:03:02Z</time>
      </trkpt>
      <trkpt lat="44.16165" lon="3.20457">
        <ele>756</ele>
        <time>2019-11-12T12:03:05Z</time>
      </trkpt>
      <trkpt lat="44.16156" lon="3.20449">
        <ele>757</ele>
        <time>2019-11-12T12:03:08Z</time>
      </trkpt>
      <trkpt lat="44.16153" lon="3.20462">
        <ele>757</ele>
        <time>2019-11-12T12:03:10Z</time>
      </trkpt>
      <trkpt lat="44.16153" lon="3.20477">
        <ele>757</ele>
        <time>2019-11-12T12:03:13Z</time>
      </trkpt>
      <trkpt lat="44.16162" lon="3.20526">
        <ele>755</ele>
        <time>2019-11-12T12:03:21Z</time>
      </trkpt>
      <trkpt lat="44.16168" lon="3.2054">
        <ele>754</ele>
        <time>2019-11-12T12:03:24Z</time>
      </trkpt>
      <trkpt lat="44.16198" lon="3.2057">
        <ele>753</ele>
        <time>2019-11-12T12:03:32Z</time>
      </trkpt>
      <trkpt lat="44.16217" lon="3.20619">
        <ele>752</ele>
        <time>2019-11-12T12:03:42Z</time>
      </trkpt>
      <trkpt lat="44.16219" lon="3.20628">
        <ele>752</ele>
        <time>2019-11-12T12:03:43Z</time>
      </trkpt>
      <trkpt lat="44.16215" lon="3.20652">
        <ele>752</ele>
        <time>2019-11-12T12:03:47Z</time>
      </trkpt>
      <trkpt lat="44.16216" lon="3.20668">
        <ele>752</ele>
        <time>2019-11-12T12:03:50Z</time>
      </trkpt>
      <trkpt lat="44.1621" lon="3.20699">
        <ele>751</ele>
        <time>2019-11-12T12:03:56Z</time>
      </trkpt>
      <trkpt lat="44.16213" lon="3.20717">
        <ele>751</ele>
        <time>2019-11-12T12:03:59Z</time>
      </trkpt>
      <trkpt lat="44.16215" lon="3.20725">
        <ele>750</ele>
        <time>2019-11-12T12:04:00Z</time>
      </trkpt>
      <trkpt lat="44.1622" lon="3.20731">
        <ele>750</ele>
        <time>2019-11-12T12:04:02Z</time>
      </trkpt>
      <trkpt lat="44.16248" lon="3.20748">
        <ele>750</ele>
        <time>2019-11-12T12:04:09Z</time>
      </trkpt>
      <trkpt lat="44.16252" lon="3.20756">
        <ele>750</ele>
        <time>2019-11-12T12:04:10Z</time>
      </trkpt>
      <trkpt lat="44.16256" lon="3.208">
        <ele>749</ele>
        <time>2019-11-12T12:04:18Z</time>
      </trkpt>
      <trkpt lat="44.16272" lon="3.20835">
        <ele>748</ele>
        <time>2019-11-12T12:04:25Z</time>
      </trkpt>
      <trkpt lat="44.16274" lon="3.20875">
        <ele>750</ele>
        <time>2019-11-12T12:04:31Z</time>
      </trkpt>
      <trkpt lat="44.16271" lon="3.20893">
        <ele>750</ele>
        <time>2019-11-12T12:04:35Z</time>
      </trkpt>
      <trkpt lat="44.1625" lon="3.20924">
        <ele>749</ele>
        <time>2019-11-12T12:04:42Z</time>
      </trkpt>
      <trkpt lat="44.16232" lon="3.20963">
        <ele>750</ele>
        <time>2019-11-12T12:04:49Z</time>
      </trkpt>
      <trkpt lat="44.16217" lon="3.20986">
        <ele>750</ele>
        <time>2019-11-12T12:04:55Z</time>
      </trkpt>
      <trkpt lat="44.16197" lon="3.21008">
        <ele>750</ele>
        <time>2019-11-12T12:05:01Z</time>
      </trkpt>
      <trkpt lat="44.16198" lon="3.21012">
        <ele>750</ele>
        <time>2019-11-12T12:05:01Z</time>
      </trkpt>
      <trkpt lat="44.16197" lon="3.21008">
        <ele>750</ele>
        <time>2019-11-12T12:05:02Z</time>
      </trkpt>
      <trkpt lat="44.16192" lon="3.21013">
        <ele>750</ele>
        <time>2019-11-12T12:05:03Z</time>
      </trkpt>
      <trkpt lat="44.16178" lon="3.2102">
        <ele>750</ele>
        <time>2019-11-12T12:05:07Z</time>
      </trkpt>
      <trkpt lat="44.16123" lon="3.21035">
        <ele>748</ele>
        <time>2019-11-12T12:05:20Z</time>
      </trkpt>
      <trkpt lat="44.16074" lon="3.21041">
        <ele>746</ele>
        <time>2019-11-12T12:05:32Z</time>
      </trkpt>
      <trkpt lat="44.16052" lon="3.2106">
        <ele>746</ele>
        <time>2019-11-12T12:05:38Z</time>
      </trkpt>
      <trkpt lat="44.16033" lon="3.21095">
        <ele>746</ele>
        <time>2019-11-12T12:05:45Z</time>
      </trkpt>
      <trkpt lat="44.16029" lon="3.21107">
        <ele>746</ele>
        <time>2019-11-12T12:05:47Z</time>
      </trkpt>
      <trkpt lat="44.16025" lon="3.21136">
        <ele>746</ele>
        <time>2019-11-12T12:05:52Z</time>
      </trkpt>
      <trkpt lat="44.16025" lon="3.21148">
        <ele>746</ele>
        <time>2019-11-12T12:05:54Z</time>
      </trkpt>
      <trkpt lat="44.16031" lon="3.21177">
        <ele>747</ele>
        <time>2019-11-12T12:05:59Z</time>
      </trkpt>
      <trkpt lat="44.16045" lon="3.21205">
        <ele>749</ele>
        <time>2019-11-12T12:06:05Z</time>
      </trkpt>
      <trkpt lat="44.16046" lon="3.21212">
        <ele>749</ele>
        <time>2019-11-12T12:06:06Z</time>
      </trkpt>
      <trkpt lat="44.16045" lon="3.21222">
        <ele>749</ele>
        <time>2019-11-12T12:06:08Z</time>
      </trkpt>
      <trkpt lat="44.16033" lon="3.21247">
        <ele>749</ele>
        <time>2019-11-12T12:06:13Z</time>
      </trkpt>
      <trkpt lat="44.16032" lon="3.21256">
        <ele>750</ele>
        <time>2019-11-12T12:06:14Z</time>
      </trkpt>
      <trkpt lat="44.15957" lon="3.21238">
        <ele>745</ele>
        <time>2019-11-12T12:06:32Z</time>
      </trkpt>
      <trkpt lat="44.15944" lon="3.21239">
        <ele>744</ele>
        <time>2019-11-12T12:06:35Z</time>
      </trkpt>
      <trkpt lat="44.15864" lon="3.21259">
        <ele>740</ele>
        <time>2019-11-12T12:06:54Z</time>
      </trkpt>
      <trkpt lat="44.1584" lon="3.21272">
        <ele>738</ele>
        <time>2019-11-12T12:07:00Z</time>
      </trkpt>
      <trkpt lat="44.15823" lon="3.21291">
        <ele>738</ele>
        <time>2019-11-12T12:07:05Z</time>
      </trkpt>
      <trkpt lat="44.15816" lon="3.21314">
        <ele>738</ele>
        <time>2019-11-12T12:07:09Z</time>
      </trkpt>
      <trkpt lat="44.15801" lon="3.21412">
        <ele>740</ele>
        <time>2019-11-12T12:07:26Z</time>
      </trkpt>
      <trkpt lat="44.15791" lon="3.21454">
        <ele>740</ele>
        <time>2019-11-12T12:07:34Z</time>
      </trkpt>
      <trkpt lat="44.15787" lon="3.21464">
        <ele>739</ele>
        <time>2019-11-12T12:07:36Z</time>
      </trkpt>
      <trkpt lat="44.1576" lon="3.21494">
        <ele>736</ele>
        <time>2019-11-12T12:07:44Z</time>
      </trkpt>
      <trkpt lat="44.15749" lon="3.21512">
        <ele>734</ele>
        <time>2019-11-12T12:07:48Z</time>
      </trkpt>
      <trkpt lat="44.15733" lon="3.2155">
        <ele>735</ele>
        <time>2019-11-12T12:07:55Z</time>
      </trkpt>
      <trkpt lat="44.15719" lon="3.216">
        <ele>733</ele>
        <time>2019-11-12T12:08:04Z</time>
      </trkpt>
      <trkpt lat="44.15716" lon="3.2164">
        <ele>730</ele>
        <time>2019-11-12T12:08:11Z</time>
      </trkpt>
      <trkpt lat="44.15727" lon="3.217">
        <ele>722</ele>
        <time>2019-11-12T12:08:21Z</time>
      </trkpt>
      <trkpt lat="44.15728" lon="3.21722">
        <ele>720</ele>
        <time>2019-11-12T12:08:25Z</time>
      </trkpt>
      <trkpt lat="44.15726" lon="3.21728">
        <ele>719</ele>
        <time>2019-11-12T12:08:26Z</time>
      </trkpt>
      <trkpt lat="44.15716" lon="3.21736">
        <ele>717</ele>
        <time>2019-11-12T12:08:29Z</time>
      </trkpt>
      <trkpt lat="44.15671" lon="3.21744">
        <ele>714</ele>
        <time>2019-11-12T12:08:39Z</time>
      </trkpt>
      <trkpt lat="44.15645" lon="3.2176">
        <ele>712</ele>
        <time>2019-11-12T12:08:46Z</time>
      </trkpt>
      <trkpt lat="44.15632" lon="3.21765">
        <ele>711</ele>
        <time>2019-11-12T12:08:49Z</time>
      </trkpt>
      <trkpt lat="44.15641" lon="3.21769">
        <ele>711</ele>
        <time>2019-11-12T12:08:51Z</time>
      </trkpt>
      <trkpt lat="44.15688" lon="3.21762">
        <ele>713</ele>
        <time>2019-11-12T12:09:02Z</time>
      </trkpt>
      <trkpt lat="44.157" lon="3.21765">
        <ele>714</ele>
        <time>2019-11-12T12:09:05Z</time>
      </trkpt>
      <trkpt lat="44.15706" lon="3.2177">
        <ele>715</ele>
        <time>2019-11-12T12:09:07Z</time>
      </trkpt>
      <trkpt lat="44.15709" lon="3.21777">
        <ele>715</ele>
        <time>2019-11-12T12:09:08Z</time>
      </trkpt>
      <trkpt lat="44.15708" lon="3.21785">
        <ele>715</ele>
        <time>2019-11-12T12:09:09Z</time>
      </trkpt>
      <trkpt lat="44.15706" lon="3.21792">
        <ele>714</ele>
        <time>2019-11-12T12:09:11Z</time>
      </trkpt>
      <trkpt lat="44.15689" lon="3.21818">
        <ele>712</ele>
        <time>2019-11-12T12:09:17Z</time>
      </trkpt>
      <trkpt lat="44.1569" lon="3.21834">
        <ele>712</ele>
        <time>2019-11-12T12:09:19Z</time>
      </trkpt>
      <trkpt lat="44.15701" lon="3.21866">
        <ele>718</ele>
        <time>2019-11-12T12:09:25Z</time>
      </trkpt>
      <trkpt lat="44.15712" lon="3.21885">
        <ele>720</ele>
        <time>2019-11-12T12:09:29Z</time>
      </trkpt>
      <trkpt lat="44.1575" lon="3.21926">
        <ele>721</ele>
        <time>2019-11-12T12:09:40Z</time>
      </trkpt>
      <trkpt lat="44.15759" lon="3.21955">
        <ele>725</ele>
        <time>2019-11-12T12:09:46Z</time>
      </trkpt>
      <trkpt lat="44.15753" lon="3.21958">
        <ele>725</ele>
        <time>2019-11-12T12:09:47Z</time>
      </trkpt>
      <trkpt lat="44.15737" lon="3.21937">
        <ele>724</ele>
        <time>2019-11-12T12:09:52Z</time>
      </trkpt>
      <trkpt lat="44.15689" lon="3.21904">
        <ele>724</ele>
        <time>2019-11-12T12:10:05Z</time>
      </trkpt>
      <trkpt lat="44.15661" lon="3.21874">
        <ele>719</ele>
        <time>2019-11-12T12:10:13Z</time>
      </trkpt>
      <trkpt lat="44.1565" lon="3.21874">
        <ele>719</ele>
        <time>2019-11-12T12:10:16Z</time>
      </trkpt>
      <trkpt lat="44.15606" lon="3.21889">
        <ele>725</ele>
        <time>2019-11-12T12:10:26Z</time>
      </trkpt>
      <trkpt lat="44.15547" lon="3.21899">
        <ele>731</ele>
        <time>2019-11-12T12:10:40Z</time>
      </trkpt>
      <trkpt lat="44.15528" lon="3.21899">
        <ele>732</ele>
        <time>2019-11-12T12:10:45Z</time>
      </trkpt>
      <trkpt lat="44.15469" lon="3.21892">
        <ele>732</ele>
        <time>2019-11-12T12:10:58Z</time>
      </trkpt>
      <trkpt lat="44.15455" lon="3.21898">
        <ele>734</ele>
        <time>2019-11-12T12:11:02Z</time>
      </trkpt>
      <trkpt lat="44.15396" lon="3.21936">
        <ele>740</ele>
        <time>2019-11-12T12:11:17Z</time>
      </trkpt>
      <trkpt lat="44.15369" lon="3.21983">
        <ele>744</ele>
        <time>2019-11-12T12:11:27Z</time>
      </trkpt>
      <trkpt lat="44.1534" lon="3.22012">
        <ele>743</ele>
        <time>2019-11-12T12:11:35Z</time>
      </trkpt>
      <trkpt lat="44.15334" lon="3.22021">
        <ele>742</ele>
        <time>2019-11-12T12:11:37Z</time>
      </trkpt>
      <trkpt lat="44.15329" lon="3.22036">
        <ele>742</ele>
        <time>2019-11-12T12:11:40Z</time>
      </trkpt>
      <trkpt lat="44.15322" lon="3.22067">
        <ele>742</ele>
        <time>2019-11-12T12:11:46Z</time>
      </trkpt>
      <trkpt lat="44.15318" lon="3.22115">
        <ele>746</ele>
        <time>2019-11-12T12:11:54Z</time>
      </trkpt>
      <trkpt lat="44.15307" lon="3.22154">
        <ele>746</ele>
        <time>2019-11-12T12:12:01Z</time>
      </trkpt>
      <trkpt lat="44.15303" lon="3.22188">
        <ele>745</ele>
        <time>2019-11-12T12:12:07Z</time>
      </trkpt>
      <trkpt lat="44.15305" lon="3.22205">
        <ele>745</ele>
        <time>2019-11-12T12:12:09Z</time>
      </trkpt>
      <trkpt lat="44.15309" lon="3.22214">
        <ele>746</ele>
        <time>2019-11-12T12:12:11Z</time>
      </trkpt>
      <trkpt lat="44.15318" lon="3.22226">
        <ele>748</ele>
        <time>2019-11-12T12:12:14Z</time>
      </trkpt>
      <trkpt lat="44.15389" lon="3.22274">
        <ele>758</ele>
        <time>2019-11-12T12:12:33Z</time>
      </trkpt>
      <trkpt lat="44.154" lon="3.22289">
        <ele>758</ele>
        <time>2019-11-12T12:12:36Z</time>
      </trkpt>
      <trkpt lat="44.15408" lon="3.22306">
        <ele>757</ele>
        <time>2019-11-12T12:12:40Z</time>
      </trkpt>
      <trkpt lat="44.15429" lon="3.22328">
        <ele>759</ele>
        <time>2019-11-12T12:12:46Z</time>
      </trkpt>
      <trkpt lat="44.15463" lon="3.22352">
        <ele>762</ele>
        <time>2019-11-12T12:12:55Z</time>
      </trkpt>
      <trkpt lat="44.15507" lon="3.22373">
        <ele>769</ele>
        <time>2019-11-12T12:13:05Z</time>
      </trkpt>
      <trkpt lat="44.15521" lon="3.2239">
        <ele>771</ele>
        <time>2019-11-12T12:13:10Z</time>
      </trkpt>
      <trkpt lat="44.15572" lon="3.22459">
        <ele>778</ele>
        <time>2019-11-12T12:13:26Z</time>
      </trkpt>
      <trkpt lat="44.15592" lon="3.22505">
        <ele>779</ele>
        <time>2019-11-12T12:13:35Z</time>
      </trkpt>
      <trkpt lat="44.15635" lon="3.22572">
        <ele>781</ele>
        <time>2019-11-12T12:13:50Z</time>
      </trkpt>
      <trkpt lat="44.15646" lon="3.2258">
        <ele>783</ele>
        <time>2019-11-12T12:13:53Z</time>
      </trkpt>
      <trkpt lat="44.15666" lon="3.22648">
        <ele>783</ele>
        <time>2019-11-12T12:14:06Z</time>
      </trkpt>
      <trkpt lat="44.15668" lon="3.22672">
        <ele>781</ele>
        <time>2019-11-12T12:14:10Z</time>
      </trkpt>
      <trkpt lat="44.15666" lon="3.22681">
        <ele>781</ele>
        <time>2019-11-12T12:14:11Z</time>
      </trkpt>
      <trkpt lat="44.15636" lon="3.22726">
        <ele>774</ele>
        <time>2019-11-12T12:14:22Z</time>
      </trkpt>
      <trkpt lat="44.15616" lon="3.22804">
        <ele>770</ele>
        <time>2019-11-12T12:14:36Z</time>
      </trkpt>
      <trkpt lat="44.15595" lon="3.22854">
        <ele>766</ele>
        <time>2019-11-12T12:14:45Z</time>
      </trkpt>
      <trkpt lat="44.15588" lon="3.22881">
        <ele>765</ele>
        <time>2019-11-12T12:14:50Z</time>
      </trkpt>
      <trkpt lat="44.15587" lon="3.22895">
        <ele>765</ele>
        <time>2019-11-12T12:14:52Z</time>
      </trkpt>
      <trkpt lat="44.15597" lon="3.22941">
        <ele>766</ele>
        <time>2019-11-12T12:15:00Z</time>
      </trkpt>
      <trkpt lat="44.15596" lon="3.2298">
        <ele>766</ele>
        <time>2019-11-12T12:15:07Z</time>
      </trkpt>
      <trkpt lat="44.15587" lon="3.23">
        <ele>766</ele>
        <time>2019-11-12T12:15:11Z</time>
      </trkpt>
      <trkpt lat="44.15572" lon="3.23023">
        <ele>767</ele>
        <time>2019-11-12T12:15:16Z</time>
      </trkpt>
      <trkpt lat="44.15562" lon="3.23049">
        <ele>768</ele>
        <time>2019-11-12T12:15:21Z</time>
      </trkpt>
      <trkpt lat="44.15557" lon="3.23055">
        <ele>768</ele>
        <time>2019-11-12T12:15:23Z</time>
      </trkpt>
      <trkpt lat="44.15551" lon="3.23059">
        <ele>768</ele>
        <time>2019-11-12T12:15:24Z</time>
      </trkpt>
      <trkpt lat="44.15539" lon="3.23062">
        <ele>769</ele>
        <time>2019-11-12T12:15:27Z</time>
      </trkpt>
      <trkpt lat="44.15473" lon="3.23058">
        <ele>770</ele>
        <time>2019-11-12T12:15:42Z</time>
      </trkpt>
      <trkpt lat="44.15462" lon="3.23059">
        <ele>770</ele>
        <time>2019-11-12T12:15:45Z</time>
      </trkpt>
      <trkpt lat="44.15433" lon="3.23068">
        <ele>770</ele>
        <time>2019-11-12T12:15:52Z</time>
      </trkpt>
      <trkpt lat="44.15404" lon="3.23068">
        <ele>769</ele>
        <time>2019-11-12T12:15:59Z</time>
      </trkpt>
      <trkpt lat="44.15386" lon="3.23073">
        <ele>768</ele>
        <time>2019-11-12T12:16:03Z</time>
      </trkpt>
      <trkpt lat="44.15313" lon="3.2307">
        <ele>764</ele>
        <time>2019-11-12T12:16:20Z</time>
      </trkpt>
      <trkpt lat="44.153" lon="3.23074">
        <ele>764</ele>
        <time>2019-11-12T12:16:23Z</time>
      </trkpt>
      <trkpt lat="44.15272" lon="3.231">
        <ele>763</ele>
        <time>2019-11-12T12:16:31Z</time>
      </trkpt>
      <trkpt lat="44.1524" lon="3.23123">
        <ele>761</ele>
        <time>2019-11-12T12:16:39Z</time>
      </trkpt>
      <trkpt lat="44.15191" lon="3.23164">
        <ele>758</ele>
        <time>2019-11-12T12:16:53Z</time>
      </trkpt>
      <trkpt lat="44.15168" lon="3.23187">
        <ele>757</ele>
        <time>2019-11-12T12:16:59Z</time>
      </trkpt>
      <trkpt lat="44.15135" lon="3.23241">
        <ele>757</ele>
        <time>2019-11-12T12:17:11Z</time>
      </trkpt>
      <trkpt lat="44.15095" lon="3.2332">
        <ele>754</ele>
        <time>2019-11-12T12:17:27Z</time>
      </trkpt>
      <trkpt lat="44.15084" lon="3.23355">
        <ele>753</ele>
        <time>2019-11-12T12:17:34Z</time>
      </trkpt>
      <trkpt lat="44.15076" lon="3.23396">
        <ele>756</ele>
        <time>2019-11-12T12:17:41Z</time>
      </trkpt>
      <trkpt lat="44.15077" lon="3.23411">
        <ele>756</ele>
        <time>2019-11-12T12:17:44Z</time>
      </trkpt>
      <trkpt lat="44.15086" lon="3.23447">
        <ele>760</ele>
        <time>2019-11-12T12:17:50Z</time>
      </trkpt>
      <trkpt lat="44.15088" lon="3.23466">
        <ele>763</ele>
        <time>2019-11-12T12:17:53Z</time>
      </trkpt>
      <trkpt lat="44.1508" lon="3.23506">
        <ele>766</ele>
        <time>2019-11-12T12:18:00Z</time>
      </trkpt>
      <trkpt lat="44.15078" lon="3.23573">
        <ele>769</ele>
        <time>2019-11-12T12:18:11Z</time>
      </trkpt>
      <trkpt lat="44.15044" lon="3.23703">
        <ele>778</ele>
        <time>2019-11-12T12:18:35Z</time>
      </trkpt>
      <trkpt lat="44.15042" lon="3.23718">
        <ele>779</ele>
        <time>2019-11-12T12:18:37Z</time>
      </trkpt>
      <trkpt lat="44.15042" lon="3.23756">
        <ele>779</ele>
        <time>2019-11-12T12:18:43Z</time>
      </trkpt>
      <trkpt lat="44.15044" lon="3.23765">
        <ele>779</ele>
        <time>2019-11-12T12:18:45Z</time>
      </trkpt>
      <trkpt lat="44.15053" lon="3.23781">
        <ele>778</ele>
        <time>2019-11-12T12:18:48Z</time>
      </trkpt>
      <trkpt lat="44.15053" lon="3.23795">
        <ele>778</ele>
        <time>2019-11-12T12:18:51Z</time>
      </trkpt>
      <trkpt lat="44.15045" lon="3.23809">
        <ele>778</ele>
        <time>2019-11-12T12:18:54Z</time>
      </trkpt>
      <trkpt lat="44.15028" lon="3.23822">
        <ele>778</ele>
        <time>2019-11-12T12:18:58Z</time>
      </trkpt>
      <trkpt lat="44.15001" lon="3.23832">
        <ele>779</ele>
        <time>2019-11-12T12:19:05Z</time>
      </trkpt>
      <trkpt lat="44.14962" lon="3.23842">
        <ele>783</ele>
        <time>2019-11-12T12:19:14Z</time>
      </trkpt>
      <trkpt lat="44.1495" lon="3.23855">
        <ele>784</ele>
        <time>2019-11-12T12:19:18Z</time>
      </trkpt>
      <trkpt lat="44.14913" lon="3.23919">
        <ele>785</ele>
        <time>2019-11-12T12:19:31Z</time>
      </trkpt>
      <trkpt lat="44.14885" lon="3.23942">
        <ele>787</ele>
        <time>2019-11-12T12:19:39Z</time>
      </trkpt>
      <trkpt lat="44.14822" lon="3.24003">
        <ele>791</ele>
        <time>2019-11-12T12:19:57Z</time>
      </trkpt>
      <trkpt lat="44.14817" lon="3.24015">
        <ele>793</ele>
        <time>2019-11-12T12:19:59Z</time>
      </trkpt>
      <trkpt lat="44.14818" lon="3.2402">
        <ele>793</ele>
        <time>2019-11-12T12:20:00Z</time>
      </trkpt>
      <trkpt lat="44.14825" lon="3.24029">
        <ele>793</ele>
        <time>2019-11-12T12:20:02Z</time>
      </trkpt>
      <trkpt lat="44.14831" lon="3.2403">
        <ele>792</ele>
        <time>2019-11-12T12:20:04Z</time>
      </trkpt>
      <trkpt lat="44.14854" lon="3.24026">
        <ele>790</ele>
        <time>2019-11-12T12:20:09Z</time>
      </trkpt>
      <trkpt lat="44.14882" lon="3.24038">
        <ele>791</ele>
        <time>2019-11-12T12:20:16Z</time>
      </trkpt>
      <trkpt lat="44.149" lon="3.24042">
        <ele>790</ele>
        <time>2019-11-12T12:20:20Z</time>
      </trkpt>
      <trkpt lat="44.14919" lon="3.24038">
        <ele>789</ele>
        <time>2019-11-12T12:20:25Z</time>
      </trkpt>
      <trkpt lat="44.14923" lon="3.24039">
        <ele>789</ele>
        <time>2019-11-12T12:20:26Z</time>
      </trkpt>
      <trkpt lat="44.14929" lon="3.24051">
        <ele>790</ele>
        <time>2019-11-12T12:20:28Z</time>
      </trkpt>
      <trkpt lat="44.14927" lon="3.24061">
        <ele>791</ele>
        <time>2019-11-12T12:20:30Z</time>
      </trkpt>
      <trkpt lat="44.14908" lon="3.24086">
        <ele>795</ele>
        <time>2019-11-12T12:20:36Z</time>
      </trkpt>
      <trkpt lat="44.14894" lon="3.24096">
        <ele>796</ele>
        <time>2019-11-12T12:20:40Z</time>
      </trkpt>
      <trkpt lat="44.14873" lon="3.24098">
        <ele>798</ele>
        <time>2019-11-12T12:20:45Z</time>
      </trkpt>
      <trkpt lat="44.1487" lon="3.241">
        <ele>798</ele>
        <time>2019-11-12T12:20:45Z</time>
      </trkpt>
      <trkpt lat="44.14867" lon="3.24108">
        <ele>799</ele>
        <time>2019-11-12T12:20:47Z</time>
      </trkpt>
      <trkpt lat="44.14864" lon="3.24137">
        <ele>802</ele>
        <time>2019-11-12T12:20:52Z</time>
      </trkpt>
      <trkpt lat="44.14858" lon="3.24162">
        <ele>806</ele>
        <time>2019-11-12T12:20:56Z</time>
      </trkpt>
      <trkpt lat="44.14855" lon="3.24166">
        <ele>806</ele>
        <time>2019-11-12T12:20:57Z</time>
      </trkpt>
      <trkpt lat="44.14837" lon="3.24287">
        <ele>818</ele>
        <time>2019-11-12T12:21:18Z</time>
      </trkpt>
      <trkpt lat="44.14833" lon="3.24363">
        <ele>821</ele>
        <time>2019-11-12T12:21:31Z</time>
      </trkpt>
      <trkpt lat="44.14845" lon="3.2443">
        <ele>823</ele>
        <time>2019-11-12T12:21:42Z</time>
      </trkpt>
      <trkpt lat="44.14845" lon="3.24446">
        <ele>824</ele>
        <time>2019-11-12T12:21:45Z</time>
      </trkpt>
      <trkpt lat="44.14842" lon="3.24457">
        <ele>824</ele>
        <time>2019-11-12T12:21:47Z</time>
      </trkpt>
      <trkpt lat="44.14828" lon="3.24428">
        <ele>823</ele>
        <time>2019-11-12T12:21:53Z</time>
      </trkpt>
      <trkpt lat="44.14795" lon="3.24382">
        <ele>823</ele>
        <time>2019-11-12T12:22:04Z</time>
      </trkpt>
      <trkpt lat="44.14784" lon="3.2437">
        <ele>824</ele>
        <time>2019-11-12T12:22:07Z</time>
      </trkpt>
      <trkpt lat="44.14762" lon="3.24358">
        <ele>825</ele>
        <time>2019-11-12T12:22:12Z</time>
      </trkpt>
      <trkpt lat="44.14744" lon="3.24355">
        <ele>825</ele>
        <time>2019-11-12T12:22:17Z</time>
      </trkpt>
      <trkpt lat="44.14616" lon="3.2432">
        <ele>826</ele>
        <time>2019-11-12T12:22:47Z</time>
      </trkpt>
      <trkpt lat="44.14588" lon="3.24308">
        <ele>828</ele>
        <time>2019-11-12T12:22:54Z</time>
      </trkpt>
      <trkpt lat="44.14499" lon="3.24233">
        <ele>835</ele>
        <time>2019-11-12T12:23:18Z</time>
      </trkpt>
      <trkpt lat="44.14501" lon="3.24114">
        <ele>836</ele>
        <time>2019-11-12T12:23:38Z</time>
      </trkpt>
      <trkpt lat="44.14515" lon="3.23994">
        <ele>838</ele>
        <time>2019-11-12T12:23:59Z</time>
      </trkpt>
      <trkpt lat="44.1453" lon="3.23898">
        <ele>839</ele>
        <time>2019-11-12T12:24:15Z</time>
      </trkpt>
      <trkpt lat="44.14549" lon="3.23839">
        <ele>840</ele>
        <time>2019-11-12T12:24:26Z</time>
      </trkpt>
      <trkpt lat="44.14559" lon="3.23819">
        <ele>840</ele>
        <time>2019-11-12T12:24:30Z</time>
      </trkpt>
      <trkpt lat="44.1457" lon="3.23786">
        <ele>840</ele>
        <time>2019-11-12T12:24:36Z</time>
      </trkpt>
      <trkpt lat="44.14586" lon="3.23758">
        <ele>840</ele>
        <time>2019-11-12T12:24:42Z</time>
      </trkpt>
      <trkpt lat="44.14605" lon="3.23713">
        <ele>837</ele>
        <time>2019-11-12T12:24:51Z</time>
      </trkpt>
      <trkpt lat="44.14613" lon="3.23701">
        <ele>837</ele>
        <time>2019-11-12T12:24:54Z</time>
      </trkpt>
      <trkpt lat="44.14648" lon="3.23665">
        <ele>837</ele>
        <time>2019-11-12T12:25:04Z</time>
      </trkpt>
      <trkpt lat="44.14649" lon="3.23651">
        <ele>837</ele>
        <time>2019-11-12T12:25:06Z</time>
      </trkpt>
      <trkpt lat="44.14645" lon="3.23642">
        <ele>837</ele>
        <time>2019-11-12T12:25:08Z</time>
      </trkpt>
      <trkpt lat="44.14633" lon="3.23627">
        <ele>836</ele>
        <time>2019-11-12T12:25:12Z</time>
      </trkpt>
      <trkpt lat="44.14623" lon="3.23597">
        <ele>835</ele>
        <time>2019-11-12T12:25:17Z</time>
      </trkpt>
      <trkpt lat="44.14618" lon="3.23592">
        <ele>835</ele>
        <time>2019-11-12T12:25:19Z</time>
      </trkpt>
      <trkpt lat="44.14598" lon="3.23581">
        <ele>834</ele>
        <time>2019-11-12T12:25:24Z</time>
      </trkpt>
      <trkpt lat="44.14584" lon="3.23576">
        <ele>833</ele>
        <time>2019-11-12T12:25:27Z</time>
      </trkpt>
      <trkpt lat="44.14522" lon="3.23566">
        <ele>825</ele>
        <time>2019-11-12T12:25:42Z</time>
      </trkpt>
      <trkpt lat="44.14486" lon="3.23548">
        <ele>821</ele>
        <time>2019-11-12T12:25:50Z</time>
      </trkpt>
      <trkpt lat="44.14435" lon="3.23547">
        <ele>818</ele>
        <time>2019-11-12T12:26:02Z</time>
      </trkpt>
      <trkpt lat="44.14387" lon="3.2353">
        <ele>818</ele>
        <time>2019-11-12T12:26:14Z</time>
      </trkpt>
      <trkpt lat="44.14337" lon="3.23529">
        <ele>819</ele>
        <time>2019-11-12T12:26:26Z</time>
      </trkpt>
      <trkpt lat="44.14307" lon="3.23519">
        <ele>821</ele>
        <time>2019-11-12T12:26:33Z</time>
      </trkpt>
      <trkpt lat="44.14273" lon="3.23501">
        <ele>823</ele>
        <time>2019-11-12T12:26:41Z</time>
      </trkpt>
      <trkpt lat="44.1425" lon="3.23495">
        <ele>824</ele>
        <time>2019-11-12T12:26:47Z</time>
      </trkpt>
      <trkpt lat="44.14233" lon="3.23493">
        <ele>825</ele>
        <time>2019-11-12T12:26:51Z</time>
      </trkpt>
      <trkpt lat="44.14218" lon="3.23495">
        <ele>827</ele>
        <time>2019-11-12T12:26:54Z</time>
      </trkpt>
      <trkpt lat="44.14182" lon="3.23509">
        <ele>830</ele>
        <time>2019-11-12T12:27:03Z</time>
      </trkpt>
      <trkpt lat="44.14169" lon="3.2351">
        <ele>831</ele>
        <time>2019-11-12T12:27:06Z</time>
      </trkpt>
      <trkpt lat="44.14148" lon="3.23494">
        <ele>830</ele>
        <time>2019-11-12T12:27:12Z</time>
      </trkpt>
      <trkpt lat="44.14102" lon="3.23469">
        <ele>829</ele>
        <time>2019-11-12T12:27:23Z</time>
      </trkpt>
      <trkpt lat="44.14073" lon="3.23469">
        <ele>830</ele>
        <time>2019-11-12T12:27:30Z</time>
      </trkpt>
      <trkpt lat="44.14049" lon="3.23462">
        <ele>830</ele>
        <time>2019-11-12T12:27:36Z</time>
      </trkpt>
      <trkpt lat="44.14022" lon="3.2346">
        <ele>831</ele>
        <time>2019-11-12T12:27:42Z</time>
      </trkpt>
      <trkpt lat="44.13999" lon="3.23455">
        <ele>831</ele>
        <time>2019-11-12T12:27:47Z</time>
      </trkpt>
      <trkpt lat="44.1395" lon="3.23458">
        <ele>828</ele>
        <time>2019-11-12T12:27:59Z</time>
      </trkpt>
      <trkpt lat="44.1394" lon="3.23456">
        <ele>828</ele>
        <time>2019-11-12T12:28:01Z</time>
      </trkpt>
      <trkpt lat="44.13936" lon="3.2345">
        <ele>828</ele>
        <time>2019-11-12T12:28:03Z</time>
      </trkpt>
      <trkpt lat="44.13934" lon="3.23426">
        <ele>832</ele>
        <time>2019-11-12T12:28:07Z</time>
      </trkpt>
      <trkpt lat="44.1394" lon="3.23375">
        <ele>834</ele>
        <time>2019-11-12T12:28:15Z</time>
      </trkpt>
      <trkpt lat="44.13932" lon="3.23362">
        <ele>834</ele>
        <time>2019-11-12T12:28:18Z</time>
      </trkpt>
      <trkpt lat="44.13919" lon="3.23353">
        <ele>835</ele>
        <time>2019-11-12T12:28:22Z</time>
      </trkpt>
      <trkpt lat="44.13918" lon="3.23348">
        <ele>835</ele>
        <time>2019-11-12T12:28:22Z</time>
      </trkpt>
      <trkpt lat="44.1393" lon="3.23311">
        <ele>835</ele>
        <time>2019-11-12T12:28:29Z</time>
      </trkpt>
      <trkpt lat="44.13934" lon="3.23258">
        <ele>835</ele>
        <time>2019-11-12T12:28:38Z</time>
      </trkpt>
      <trkpt lat="44.13961" lon="3.23213">
        <ele>833</ele>
        <time>2019-11-12T12:28:48Z</time>
      </trkpt>
      <trkpt lat="44.13992" lon="3.23172">
        <ele>832</ele>
        <time>2019-11-12T12:28:58Z</time>
      </trkpt>
      <trkpt lat="44.14005" lon="3.23143">
        <ele>830</ele>
        <time>2019-11-12T12:29:04Z</time>
      </trkpt>
      <trkpt lat="44.14005" lon="3.23128">
        <ele>830</ele>
        <time>2019-11-12T12:29:06Z</time>
      </trkpt>
      <trkpt lat="44.13992" lon="3.23066">
        <ele>832</ele>
        <time>2019-11-12T12:29:17Z</time>
      </trkpt>
      <trkpt lat="44.1398" lon="3.23029">
        <ele>833</ele>
        <time>2019-11-12T12:29:24Z</time>
      </trkpt>
      <trkpt lat="44.13982" lon="3.23014">
        <ele>833</ele>
        <time>2019-11-12T12:29:26Z</time>
      </trkpt>
      <trkpt lat="44.14001" lon="3.22978">
        <ele>832</ele>
        <time>2019-11-12T12:29:34Z</time>
      </trkpt>
      <trkpt lat="44.14005" lon="3.22975">
        <ele>832</ele>
        <time>2019-11-12T12:29:35Z</time>
      </trkpt>
      <trkpt lat="44.14004" lon="3.22969">
        <ele>833</ele>
        <time>2019-11-12T12:29:36Z</time>
      </trkpt>
      <trkpt lat="44.14" lon="3.22961">
        <ele>833</ele>
        <time>2019-11-12T12:29:38Z</time>
      </trkpt>
      <trkpt lat="44.13986" lon="3.22952">
        <ele>833</ele>
        <time>2019-11-12T12:29:41Z</time>
      </trkpt>
      <trkpt lat="44.13982" lon="3.22951">
        <ele>833</ele>
        <time>2019-11-12T12:29:42Z</time>
      </trkpt>
      <trkpt lat="44.13964" lon="3.22957">
        <ele>834</ele>
        <time>2019-11-12T12:29:47Z</time>
      </trkpt>
      <trkpt lat="44.13953" lon="3.22951">
        <ele>834</ele>
        <time>2019-11-12T12:29:49Z</time>
      </trkpt>
      <trkpt lat="44.13945" lon="3.22941">
        <ele>834</ele>
        <time>2019-11-12T12:29:52Z</time>
      </trkpt>
      <trkpt lat="44.13942" lon="3.22933">
        <ele>834</ele>
        <time>2019-11-12T12:29:53Z</time>
      </trkpt>
      <trkpt lat="44.1394" lon="3.22906">
        <ele>833</ele>
        <time>2019-11-12T12:29:58Z</time>
      </trkpt>
      <trkpt lat="44.13936" lon="3.22897">
        <ele>833</ele>
        <time>2019-11-12T12:30:00Z</time>
      </trkpt>
      <trkpt lat="44.13939" lon="3.22904">
        <ele>833</ele>
        <time>2019-11-12T12:30:01Z</time>
      </trkpt>
      <trkpt lat="44.13942" lon="3.22933">
        <ele>834</ele>
        <time>2019-11-12T12:30:06Z</time>
      </trkpt>
      <trkpt lat="44.13953" lon="3.22951">
        <ele>834</ele>
        <time>2019-11-12T12:30:10Z</time>
      </trkpt>
      <trkpt lat="44.13964" lon="3.22957">
        <ele>834</ele>
        <time>2019-11-12T12:30:13Z</time>
      </trkpt>
      <trkpt lat="44.13982" lon="3.22951">
        <ele>833</ele>
        <time>2019-11-12T12:30:17Z</time>
      </trkpt>
      <trkpt lat="44.13986" lon="3.22952">
        <ele>833</ele>
        <time>2019-11-12T12:30:18Z</time>
      </trkpt>
      <trkpt lat="44.14" lon="3.22961">
        <ele>833</ele>
        <time>2019-11-12T12:30:21Z</time>
      </trkpt>
      <trkpt lat="44.14005" lon="3.22975">
        <ele>832</ele>
        <time>2019-11-12T12:30:24Z</time>
      </trkpt>
      <trkpt lat="44.14002" lon="3.22976">
        <ele>832</ele>
        <time>2019-11-12T12:30:25Z</time>
      </trkpt>
      <trkpt lat="44.13988" lon="3.23001">
        <ele>832</ele>
        <time>2019-11-12T12:30:30Z</time>
      </trkpt>
      <trkpt lat="44.13981" lon="3.23018">
        <ele>833</ele>
        <time>2019-11-12T12:30:33Z</time>
      </trkpt>
      <trkpt lat="44.13974" lon="3.23023">
        <ele>833</ele>
        <time>2019-11-12T12:30:35Z</time>
      </trkpt>
      <trkpt lat="44.13964" lon="3.23062">
        <ele>834</ele>
        <time>2019-11-12T12:30:42Z</time>
      </trkpt>
      <trkpt lat="44.13928" lon="3.23148">
        <ele>841</ele>
        <time>2019-11-12T12:30:59Z</time>
      </trkpt>
      <trkpt lat="44.13918" lon="3.23161">
        <ele>844</ele>
        <time>2019-11-12T12:31:02Z</time>
      </trkpt>
      <trkpt lat="44.13895" lon="3.23183">
        <ele>843</ele>
        <time>2019-11-12T12:31:09Z</time>
      </trkpt>
      <trkpt lat="44.13883" lon="3.232">
        <ele>843</ele>
        <time>2019-11-12T12:31:13Z</time>
      </trkpt>
      <trkpt lat="44.13848" lon="3.23231">
        <ele>844</ele>
        <time>2019-11-12T12:31:22Z</time>
      </trkpt>
      <trkpt lat="44.13822" lon="3.2325">
        <ele>845</ele>
        <time>2019-11-12T12:31:29Z</time>
      </trkpt>
      <trkpt lat="44.13817" lon="3.2325">
        <ele>845</ele>
        <time>2019-11-12T12:31:30Z</time>
      </trkpt>
      <trkpt lat="44.13785" lon="3.23263">
        <ele>845</ele>
        <time>2019-11-12T12:31:38Z</time>
      </trkpt>
      <trkpt lat="44.13772" lon="3.23273">
        <ele>845</ele>
        <time>2019-11-12T12:31:42Z</time>
      </trkpt>
      <trkpt lat="44.13714" lon="3.23287">
        <ele>842</ele>
        <time>2019-11-12T12:31:55Z</time>
      </trkpt>
      <trkpt lat="44.1369" lon="3.23296">
        <ele>840</ele>
        <time>2019-11-12T12:32:01Z</time>
      </trkpt>
      <trkpt lat="44.13651" lon="3.23315">
        <ele>837</ele>
        <time>2019-11-12T12:32:11Z</time>
      </trkpt>
      <trkpt lat="44.13633" lon="3.23331">
        <ele>836</ele>
        <time>2019-11-12T12:32:16Z</time>
      </trkpt>
      <trkpt lat="44.1361" lon="3.23367">
        <ele>830</ele>
        <time>2019-11-12T12:32:24Z</time>
      </trkpt>
      <trkpt lat="44.13603" lon="3.23371">
        <ele>829</ele>
        <time>2019-11-12T12:32:26Z</time>
      </trkpt>
      <trkpt lat="44.13577" lon="3.23376">
        <ele>826</ele>
        <time>2019-11-12T12:32:32Z</time>
      </trkpt>
      <trkpt lat="44.1356" lon="3.23393">
        <ele>823</ele>
        <time>2019-11-12T12:32:37Z</time>
      </trkpt>
      <trkpt lat="44.13549" lon="3.23411">
        <ele>821</ele>
        <time>2019-11-12T12:32:41Z</time>
      </trkpt>
      <trkpt lat="44.13542" lon="3.23429">
        <ele>818</ele>
        <time>2019-11-12T12:32:44Z</time>
      </trkpt>
      <trkpt lat="44.13541" lon="3.23455">
        <ele>816</ele>
        <time>2019-11-12T12:32:48Z</time>
      </trkpt>
      <trkpt lat="44.13531" lon="3.23467">
        <ele>814</ele>
        <time>2019-11-12T12:32:51Z</time>
      </trkpt>
      <trkpt lat="44.13529" lon="3.23481">
        <ele>813</ele>
        <time>2019-11-12T12:32:54Z</time>
      </trkpt>
      <trkpt lat="44.13511" lon="3.23528">
        <ele>808</ele>
        <time>2019-11-12T12:33:03Z</time>
      </trkpt>
      <trkpt lat="44.13505" lon="3.23533">
        <ele>807</ele>
        <time>2019-11-12T12:33:04Z</time>
      </trkpt>
      <trkpt lat="44.13489" lon="3.23536">
        <ele>807</ele>
        <time>2019-11-12T12:33:08Z</time>
      </trkpt>
      <trkpt lat="44.1348" lon="3.23544">
        <ele>806</ele>
        <time>2019-11-12T12:33:11Z</time>
      </trkpt>
      <trkpt lat="44.13475" lon="3.23558">
        <ele>804</ele>
        <time>2019-11-12T12:33:13Z</time>
      </trkpt>
      <trkpt lat="44.13468" lon="3.23598">
        <ele>801</ele>
        <time>2019-11-12T12:33:20Z</time>
      </trkpt>
      <trkpt lat="44.13469" lon="3.23622">
        <ele>799</ele>
        <time>2019-11-12T12:33:24Z</time>
      </trkpt>
      <trkpt lat="44.13465" lon="3.23628">
        <ele>798</ele>
        <time>2019-11-12T12:33:26Z</time>
      </trkpt>
      <trkpt lat="44.13443" lon="3.23642">
        <ele>797</ele>
        <time>2019-11-12T12:33:31Z</time>
      </trkpt>
      <trkpt lat="44.13437" lon="3.2365">
        <ele>796</ele>
        <time>2019-11-12T12:33:33Z</time>
      </trkpt>
      <trkpt lat="44.13407" lon="3.23664">
        <ele>795</ele>
        <time>2019-11-12T12:33:41Z</time>
      </trkpt>
      <trkpt lat="44.13388" lon="3.23663">
        <ele>794</ele>
        <time>2019-11-12T12:33:45Z</time>
      </trkpt>
      <trkpt lat="44.13378" lon="3.23639">
        <ele>795</ele>
        <time>2019-11-12T12:33:50Z</time>
      </trkpt>
      <trkpt lat="44.13375" lon="3.23637">
        <ele>795</ele>
        <time>2019-11-12T12:33:50Z</time>
      </trkpt>
      <trkpt lat="44.13369" lon="3.23635">
        <ele>795</ele>
        <time>2019-11-12T12:33:52Z</time>
      </trkpt>
      <trkpt lat="44.13345" lon="3.23637">
        <ele>794</ele>
        <time>2019-11-12T12:33:57Z</time>
      </trkpt>
      <trkpt lat="44.13337" lon="3.23635">
        <ele>794</ele>
        <time>2019-11-12T12:33:59Z</time>
      </trkpt>
      <trkpt lat="44.13332" lon="3.23629">
        <ele>794</ele>
        <time>2019-11-12T12:34:01Z</time>
      </trkpt>
      <trkpt lat="44.13316" lon="3.23632">
        <ele>794</ele>
        <time>2019-11-12T12:34:05Z</time>
      </trkpt>
      <trkpt lat="44.13313" lon="3.23648">
        <ele>792</ele>
        <time>2019-11-12T12:34:07Z</time>
      </trkpt>
      <trkpt lat="44.13296" lon="3.23686">
        <ele>788</ele>
        <time>2019-11-12T12:34:15Z</time>
      </trkpt>
      <trkpt lat="44.13294" lon="3.23744">
        <ele>783</ele>
        <time>2019-11-12T12:34:25Z</time>
      </trkpt>
      <trkpt lat="44.133" lon="3.2376">
        <ele>782</ele>
        <time>2019-11-12T12:34:28Z</time>
      </trkpt>
      <trkpt lat="44.13324" lon="3.23789">
        <ele>781</ele>
        <time>2019-11-12T12:34:35Z</time>
      </trkpt>
      <trkpt lat="44.13334" lon="3.23806">
        <ele>781</ele>
        <time>2019-11-12T12:34:39Z</time>
      </trkpt>
      <trkpt lat="44.13341" lon="3.2382">
        <ele>780</ele>
        <time>2019-11-12T12:34:42Z</time>
      </trkpt>
      <trkpt lat="44.13354" lon="3.23864">
        <ele>776</ele>
        <time>2019-11-12T12:34:50Z</time>
      </trkpt>
      <trkpt lat="44.13356" lon="3.239">
        <ele>772</ele>
        <time>2019-11-12T12:34:56Z</time>
      </trkpt>
      <trkpt lat="44.13354" lon="3.23959">
        <ele>769</ele>
        <time>2019-11-12T12:35:06Z</time>
      </trkpt>
      <trkpt lat="44.13358" lon="3.23973">
        <ele>768</ele>
        <time>2019-11-12T12:35:08Z</time>
      </trkpt>
      <trkpt lat="44.13356" lon="3.2399">
        <ele>767</ele>
        <time>2019-11-12T12:35:11Z</time>
      </trkpt>
      <trkpt lat="44.13339" lon="3.2401">
        <ele>766</ele>
        <time>2019-11-12T12:35:16Z</time>
      </trkpt>
      <trkpt lat="44.1332" lon="3.24024">
        <ele>765</ele>
        <time>2019-11-12T12:35:21Z</time>
      </trkpt>
      <trkpt lat="44.13309" lon="3.24038">
        <ele>765</ele>
        <time>2019-11-12T12:35:25Z</time>
      </trkpt>
      <trkpt lat="44.13292" lon="3.2405">
        <ele>764</ele>
        <time>2019-11-12T12:35:29Z</time>
      </trkpt>
      <trkpt lat="44.13286" lon="3.24059">
        <ele>764</ele>
        <time>2019-11-12T12:35:31Z</time>
      </trkpt>
      <trkpt lat="44.13271" lon="3.24068">
        <ele>762</ele>
        <time>2019-11-12T12:35:35Z</time>
      </trkpt>
      <trkpt lat="44.13242" lon="3.24058">
        <ele>759</ele>
        <time>2019-11-12T12:35:42Z</time>
      </trkpt>
      <trkpt lat="44.13231" lon="3.2406">
        <ele>757</ele>
        <time>2019-11-12T12:35:45Z</time>
      </trkpt>
      <trkpt lat="44.13226" lon="3.24065">
        <ele>757</ele>
        <time>2019-11-12T12:35:46Z</time>
      </trkpt>
      <trkpt lat="44.13207" lon="3.24064">
        <ele>754</ele>
        <time>2019-11-12T12:35:50Z</time>
      </trkpt>
      <trkpt lat="44.13199" lon="3.24067">
        <ele>752</ele>
        <time>2019-11-12T12:35:52Z</time>
      </trkpt>
      <trkpt lat="44.13154" lon="3.24057">
        <ele>744</ele>
        <time>2019-11-12T12:36:03Z</time>
      </trkpt>
      <trkpt lat="44.13138" lon="3.24058">
        <ele>739</ele>
        <time>2019-11-12T12:36:07Z</time>
      </trkpt>
      <trkpt lat="44.13119" lon="3.24064">
        <ele>734</ele>
        <time>2019-11-12T12:36:11Z</time>
      </trkpt>
      <trkpt lat="44.13113" lon="3.24073">
        <ele>732</ele>
        <time>2019-11-12T12:36:13Z</time>
      </trkpt>
      <trkpt lat="44.13094" lon="3.24088">
        <ele>726</ele>
        <time>2019-11-12T12:36:19Z</time>
      </trkpt>
      <trkpt lat="44.13074" lon="3.24108">
        <ele>722</ele>
        <time>2019-11-12T12:36:24Z</time>
      </trkpt>
      <trkpt lat="44.13071" lon="3.24117">
        <ele>722</ele>
        <time>2019-11-12T12:36:26Z</time>
      </trkpt>
      <trkpt lat="44.13052" lon="3.24133">
        <ele>713</ele>
        <time>2019-11-12T12:36:31Z</time>
      </trkpt>
      <trkpt lat="44.13048" lon="3.24153">
        <ele>715</ele>
        <time>2019-11-12T12:36:35Z</time>
      </trkpt>
      <trkpt lat="44.1303" lon="3.24178">
        <ele>707</ele>
        <time>2019-11-12T12:36:41Z</time>
      </trkpt>
      <trkpt lat="44.13015" lon="3.24218">
        <ele>703</ele>
        <time>2019-11-12T12:36:48Z</time>
      </trkpt>
      <trkpt lat="44.13015" lon="3.24235">
        <ele>705</ele>
        <time>2019-11-12T12:36:51Z</time>
      </trkpt>
      <trkpt lat="44.13017" lon="3.24239">
        <ele>706</ele>
        <time>2019-11-12T12:36:52Z</time>
      </trkpt>
      <trkpt lat="44.13048" lon="3.2427">
        <ele>714</ele>
        <time>2019-11-12T12:37:01Z</time>
      </trkpt>
      <trkpt lat="44.13063" lon="3.24289">
        <ele>714</ele>
        <time>2019-11-12T12:37:05Z</time>
      </trkpt>
      <trkpt lat="44.13069" lon="3.24301">
        <ele>713</ele>
        <time>2019-11-12T12:37:08Z</time>
      </trkpt>
      <trkpt lat="44.13098" lon="3.24313">
        <ele>717</ele>
        <time>2019-11-12T12:37:15Z</time>
      </trkpt>
      <trkpt lat="44.13139" lon="3.24311">
        <ele>723</ele>
        <time>2019-11-12T12:37:24Z</time>
      </trkpt>
      <trkpt lat="44.13157" lon="3.24321">
        <ele>724</ele>
        <time>2019-11-12T12:37:29Z</time>
      </trkpt>
      <trkpt lat="44.1316" lon="3.24326">
        <ele>723</ele>
        <time>2019-11-12T12:37:30Z</time>
      </trkpt>
      <trkpt lat="44.13159" lon="3.24331">
        <ele>721</ele>
        <time>2019-11-12T12:37:31Z</time>
      </trkpt>
      <trkpt lat="44.13141" lon="3.24342">
        <ele>719</ele>
        <time>2019-11-12T12:37:36Z</time>
      </trkpt>
      <trkpt lat="44.13137" lon="3.24347">
        <ele>718</ele>
        <time>2019-11-12T12:37:37Z</time>
      </trkpt>
      <trkpt lat="44.13109" lon="3.24406">
        <ele>715</ele>
        <time>2019-11-12T12:37:49Z</time>
      </trkpt>
      <trkpt lat="44.13103" lon="3.24413">
        <ele>713</ele>
        <time>2019-11-12T12:37:51Z</time>
      </trkpt>
      <trkpt lat="44.13063" lon="3.24454">
        <ele>708</ele>
        <time>2019-11-12T12:38:02Z</time>
      </trkpt>
      <trkpt lat="44.13038" lon="3.24468">
        <ele>703</ele>
        <time>2019-11-12T12:38:08Z</time>
      </trkpt>
      <trkpt lat="44.13029" lon="3.24478">
        <ele>703</ele>
        <time>2019-11-12T12:38:11Z</time>
      </trkpt>
      <trkpt lat="44.13016" lon="3.24487">
        <ele>702</ele>
        <time>2019-11-12T12:38:14Z</time>
      </trkpt>
      <trkpt lat="44.12997" lon="3.24495">
        <ele>698</ele>
        <time>2019-11-12T12:38:19Z</time>
      </trkpt>
      <trkpt lat="44.12982" lon="3.24497">
        <ele>694</ele>
        <time>2019-11-12T12:38:23Z</time>
      </trkpt>
      <trkpt lat="44.12961" lon="3.24505">
        <ele>689</ele>
        <time>2019-11-12T12:38:28Z</time>
      </trkpt>
      <trkpt lat="44.12941" lon="3.24519">
        <ele>686</ele>
        <time>2019-11-12T12:38:33Z</time>
      </trkpt>
      <trkpt lat="44.12928" lon="3.24523">
        <ele>683</ele>
        <time>2019-11-12T12:38:36Z</time>
      </trkpt>
      <trkpt lat="44.12923" lon="3.24519">
        <ele>681</ele>
        <time>2019-11-12T12:38:37Z</time>
      </trkpt>
      <trkpt lat="44.12922" lon="3.24508">
        <ele>678</ele>
        <time>2019-11-12T12:38:39Z</time>
      </trkpt>
      <trkpt lat="44.12923" lon="3.24502">
        <ele>677</ele>
        <time>2019-11-12T12:38:40Z</time>
      </trkpt>
      <trkpt lat="44.1293" lon="3.245">
        <ele>678</ele>
        <time>2019-11-12T12:38:42Z</time>
      </trkpt>
      <trkpt lat="44.12932" lon="3.24497">
        <ele>678</ele>
        <time>2019-11-12T12:38:43Z</time>
      </trkpt>
      <trkpt lat="44.12926" lon="3.2449">
        <ele>673</ele>
        <time>2019-11-12T12:38:44Z</time>
      </trkpt>
      <trkpt lat="44.12915" lon="3.24489">
        <ele>669</ele>
        <time>2019-11-12T12:38:47Z</time>
      </trkpt>
      <trkpt lat="44.12886" lon="3.24496">
        <ele>663</ele>
        <time>2019-11-12T12:38:54Z</time>
      </trkpt>
      <trkpt lat="44.12875" lon="3.24495">
        <ele>660</ele>
        <time>2019-11-12T12:38:56Z</time>
      </trkpt>
      <trkpt lat="44.12871" lon="3.24487">
        <ele>655</ele>
        <time>2019-11-12T12:38:58Z</time>
      </trkpt>
      <trkpt lat="44.1288" lon="3.24479">
        <ele>655</ele>
        <time>2019-11-12T12:39:01Z</time>
      </trkpt>
      <trkpt lat="44.12895" lon="3.24473">
        <ele>657</ele>
        <time>2019-11-12T12:39:04Z</time>
      </trkpt>
      <trkpt lat="44.12915" lon="3.2447">
        <ele>661</ele>
        <time>2019-11-12T12:39:09Z</time>
      </trkpt>
      <trkpt lat="44.12942" lon="3.24458">
        <ele>664</ele>
        <time>2019-11-12T12:39:16Z</time>
      </trkpt>
      <trkpt lat="44.12951" lon="3.24451">
        <ele>664</ele>
        <time>2019-11-12T12:39:18Z</time>
      </trkpt>
      <trkpt lat="44.1299" lon="3.24409">
        <ele>664</ele>
        <time>2019-11-12T12:39:30Z</time>
      </trkpt>
      <trkpt lat="44.13008" lon="3.24384">
        <ele>675</ele>
        <time>2019-11-12T12:39:35Z</time>
      </trkpt>
      <trkpt lat="44.13008" lon="3.24378">
        <ele>675</ele>
        <time>2019-11-12T12:39:36Z</time>
      </trkpt>
      <trkpt lat="44.13003" lon="3.24372">
        <ele>674</ele>
        <time>2019-11-12T12:39:38Z</time>
      </trkpt>
      <trkpt lat="44.12979" lon="3.24369">
        <ele>663</ele>
        <time>2019-11-12T12:39:44Z</time>
      </trkpt>
      <trkpt lat="44.12966" lon="3.24363">
        <ele>657</ele>
        <time>2019-11-12T12:39:47Z</time>
      </trkpt>
      <trkpt lat="44.12934" lon="3.24323">
        <ele>642</ele>
        <time>2019-11-12T12:39:57Z</time>
      </trkpt>
      <trkpt lat="44.12911" lon="3.24289">
        <ele>635</ele>
        <time>2019-11-12T12:40:05Z</time>
      </trkpt>
      <trkpt lat="44.12907" lon="3.24266">
        <ele>636</ele>
        <time>2019-11-12T12:40:09Z</time>
      </trkpt>
      <trkpt lat="44.12908" lon="3.24242">
        <ele>639</ele>
        <time>2019-11-12T12:40:13Z</time>
      </trkpt>
      <trkpt lat="44.12927" lon="3.24118">
        <ele>653</ele>
        <time>2019-11-12T12:40:34Z</time>
      </trkpt>
      <trkpt lat="44.12938" lon="3.24103">
        <ele>659</ele>
        <time>2019-11-12T12:40:38Z</time>
      </trkpt>
      <trkpt lat="44.12939" lon="3.24096">
        <ele>661</ele>
        <time>2019-11-12T12:40:39Z</time>
      </trkpt>
      <trkpt lat="44.12935" lon="3.24089">
        <ele>661</ele>
        <time>2019-11-12T12:40:40Z</time>
      </trkpt>
      <trkpt lat="44.12929" lon="3.24088">
        <ele>659</ele>
        <time>2019-11-12T12:40:42Z</time>
      </trkpt>
      <trkpt lat="44.12911" lon="3.24067">
        <ele>664</ele>
        <time>2019-11-12T12:40:47Z</time>
      </trkpt>
      <trkpt lat="44.12904" lon="3.24063">
        <ele>666</ele>
        <time>2019-11-12T12:40:49Z</time>
      </trkpt>
      <trkpt lat="44.12898" lon="3.24064">
        <ele>666</ele>
        <time>2019-11-12T12:40:50Z</time>
      </trkpt>
      <trkpt lat="44.12872" lon="3.24091">
        <ele>653</ele>
        <time>2019-11-12T12:40:58Z</time>
      </trkpt>
      <trkpt lat="44.12861" lon="3.24098">
        <ele>649</ele>
        <time>2019-11-12T12:41:01Z</time>
      </trkpt>
      <trkpt lat="44.12832" lon="3.24105">
        <ele>643</ele>
        <time>2019-11-12T12:41:08Z</time>
      </trkpt>
      <trkpt lat="44.12786" lon="3.24129">
        <ele>635</ele>
        <time>2019-11-12T12:41:19Z</time>
      </trkpt>
      <trkpt lat="44.12745" lon="3.24176">
        <ele>615</ele>
        <time>2019-11-12T12:41:31Z</time>
      </trkpt>
      <trkpt lat="44.12689" lon="3.24169">
        <ele>611</ele>
        <time>2019-11-12T12:41:45Z</time>
      </trkpt>
      <trkpt lat="44.12656" lon="3.2416">
        <ele>607</ele>
        <time>2019-11-12T12:41:52Z</time>
      </trkpt>
      <trkpt lat="44.12648" lon="3.24153">
        <ele>606</ele>
        <time>2019-11-12T12:41:55Z</time>
      </trkpt>
      <trkpt lat="44.12646" lon="3.24145">
        <ele>608</ele>
        <time>2019-11-12T12:41:56Z</time>
      </trkpt>
      <trkpt lat="44.12644" lon="3.24128">
        <ele>614</ele>
        <time>2019-11-12T12:41:59Z</time>
      </trkpt>
      <trkpt lat="44.12645" lon="3.24091">
        <ele>627</ele>
        <time>2019-11-12T12:42:05Z</time>
      </trkpt>
      <trkpt lat="44.12643" lon="3.24086">
        <ele>628</ele>
        <time>2019-11-12T12:42:06Z</time>
      </trkpt>
      <trkpt lat="44.12633" lon="3.24081">
        <ele>627</ele>
        <time>2019-11-12T12:42:09Z</time>
      </trkpt>
      <trkpt lat="44.12605" lon="3.24074">
        <ele>623</ele>
        <time>2019-11-12T12:42:15Z</time>
      </trkpt>
      <trkpt lat="44.12591" lon="3.2408">
        <ele>617</ele>
        <time>2019-11-12T12:42:19Z</time>
      </trkpt>
      <trkpt lat="44.12572" lon="3.24077">
        <ele>616</ele>
        <time>2019-11-12T12:42:23Z</time>
      </trkpt>
      <trkpt lat="44.12488" lon="3.24098">
        <ele>603</ele>
        <time>2019-11-12T12:42:43Z</time>
      </trkpt>
      <trkpt lat="44.1247" lon="3.24097">
        <ele>602</ele>
        <time>2019-11-12T12:42:47Z</time>
      </trkpt>
      <trkpt lat="44.12407" lon="3.24102">
        <ele>593</ele>
        <time>2019-11-12T12:43:02Z</time>
      </trkpt>
      <trkpt lat="44.12394" lon="3.24098">
        <ele>591</ele>
        <time>2019-11-12T12:43:05Z</time>
      </trkpt>
      <trkpt lat="44.12389" lon="3.24094">
        <ele>592</ele>
        <time>2019-11-12T12:43:06Z</time>
      </trkpt>
      <trkpt lat="44.12345" lon="3.2405">
        <ele>590</ele>
        <time>2019-11-12T12:43:19Z</time>
      </trkpt>
      <trkpt lat="44.12337" lon="3.2404">
        <ele>589</ele>
        <time>2019-11-12T12:43:22Z</time>
      </trkpt>
      <trkpt lat="44.1233" lon="3.24021">
        <ele>590</ele>
        <time>2019-11-12T12:43:25Z</time>
      </trkpt>
      <trkpt lat="44.12325" lon="3.23961">
        <ele>595</ele>
        <time>2019-11-12T12:43:35Z</time>
      </trkpt>
      <trkpt lat="44.12316" lon="3.23901">
        <ele>594</ele>
        <time>2019-11-12T12:43:46Z</time>
      </trkpt>
      <trkpt lat="44.12313" lon="3.23856">
        <ele>593</ele>
        <time>2019-11-12T12:43:53Z</time>
      </trkpt>
      <trkpt lat="44.1231" lon="3.23845">
        <ele>591</ele>
        <time>2019-11-12T12:43:55Z</time>
      </trkpt>
      <trkpt lat="44.12315" lon="3.23793">
        <ele>591</ele>
        <time>2019-11-12T12:44:04Z</time>
      </trkpt>
      <trkpt lat="44.12318" lon="3.23784">
        <ele>592</ele>
        <time>2019-11-12T12:44:06Z</time>
      </trkpt>
      <trkpt lat="44.12313" lon="3.23755">
        <ele>589</ele>
        <time>2019-11-12T12:44:11Z</time>
      </trkpt>
      <trkpt lat="44.12296" lon="3.23698">
        <ele>581</ele>
        <time>2019-11-12T12:44:21Z</time>
      </trkpt>
      <trkpt lat="44.12294" lon="3.23679">
        <ele>580</ele>
        <time>2019-11-12T12:44:24Z</time>
      </trkpt>
      <trkpt lat="44.12293" lon="3.23566">
        <ele>575</ele>
        <time>2019-11-12T12:44:43Z</time>
      </trkpt>
      <trkpt lat="44.12299" lon="3.23554">
        <ele>576</ele>
        <time>2019-11-12T12:44:46Z</time>
      </trkpt>
      <trkpt lat="44.12311" lon="3.23506">
        <ele>576</ele>
        <time>2019-11-12T12:44:54Z</time>
      </trkpt>
      <trkpt lat="44.12322" lon="3.23447">
        <ele>575</ele>
        <time>2019-11-12T12:45:04Z</time>
      </trkpt>
      <trkpt lat="44.12323" lon="3.23415">
        <ele>574</ele>
        <time>2019-11-12T12:45:10Z</time>
      </trkpt>
      <trkpt lat="44.12335" lon="3.23365">
        <ele>575</ele>
        <time>2019-11-12T12:45:18Z</time>
      </trkpt>
      <trkpt lat="44.12341" lon="3.23351">
        <ele>576</ele>
        <time>2019-11-12T12:45:21Z</time>
      </trkpt>
      <trkpt lat="44.12356" lon="3.2333">
        <ele>576</ele>
        <time>2019-11-12T12:45:26Z</time>
      </trkpt>
      <trkpt lat="44.12376" lon="3.23289">
        <ele>568</ele>
        <time>2019-11-12T12:45:35Z</time>
      </trkpt>
      <trkpt lat="44.12391" lon="3.23273">
        <ele>564</ele>
        <time>2019-11-12T12:45:39Z</time>
      </trkpt>
      <trkpt lat="44.124" lon="3.23257">
        <ele>560</ele>
        <time>2019-11-12T12:45:42Z</time>
      </trkpt>
      <trkpt lat="44.12405" lon="3.23252">
        <ele>559</ele>
        <time>2019-11-12T12:45:44Z</time>
      </trkpt>
      <trkpt lat="44.12431" lon="3.23245">
        <ele>559</ele>
        <time>2019-11-12T12:45:50Z</time>
      </trkpt>
      <trkpt lat="44.12436" lon="3.23223">
        <ele>551</ele>
        <time>2019-11-12T12:45:54Z</time>
      </trkpt>
      <trkpt lat="44.12441" lon="3.23215">
        <ele>548</ele>
        <time>2019-11-12T12:45:56Z</time>
      </trkpt>
      <trkpt lat="44.12452" lon="3.23206">
        <ele>547</ele>
        <time>2019-11-12T12:45:59Z</time>
      </trkpt>
      <trkpt lat="44.12461" lon="3.23192">
        <ele>544</ele>
        <time>2019-11-12T12:46:02Z</time>
      </trkpt>
      <trkpt lat="44.12471" lon="3.23189">
        <ele>545</ele>
        <time>2019-11-12T12:46:04Z</time>
      </trkpt>
      <trkpt lat="44.12486" lon="3.23172">
        <ele>542</ele>
        <time>2019-11-12T12:46:09Z</time>
      </trkpt>
      <trkpt lat="44.12505" lon="3.23134">
        <ele>536</ele>
        <time>2019-11-12T12:46:16Z</time>
      </trkpt>
      <trkpt lat="44.12498" lon="3.23128">
        <ele>530</ele>
        <time>2019-11-12T12:46:18Z</time>
      </trkpt>
      <trkpt lat="44.12478" lon="3.23129">
        <ele>524</ele>
        <time>2019-11-12T12:46:23Z</time>
      </trkpt>
      <trkpt lat="44.12474" lon="3.23126">
        <ele>522</ele>
        <time>2019-11-12T12:46:24Z</time>
      </trkpt>
      <trkpt lat="44.12472" lon="3.23111">
        <ele>516</ele>
        <time>2019-11-12T12:46:27Z</time>
      </trkpt>
      <trkpt lat="44.12477" lon="3.2309">
        <ele>510</ele>
        <time>2019-11-12T12:46:30Z</time>
      </trkpt>
      <trkpt lat="44.12473" lon="3.23087">
        <ele>507</ele>
        <time>2019-11-12T12:46:31Z</time>
      </trkpt>
      <trkpt lat="44.12458" lon="3.23088">
        <ele>502</ele>
        <time>2019-11-12T12:46:35Z</time>
      </trkpt>
      <trkpt lat="44.12452" lon="3.23082">
        <ele>497</ele>
        <time>2019-11-12T12:46:37Z</time>
      </trkpt>
      <trkpt lat="44.12456" lon="3.23053">
        <ele>487</ele>
        <time>2019-11-12T12:46:42Z</time>
      </trkpt>
      <trkpt lat="44.12464" lon="3.23039">
        <ele>485</ele>
        <time>2019-11-12T12:46:45Z</time>
      </trkpt>
      <trkpt lat="44.12469" lon="3.23024">
        <ele>481</ele>
        <time>2019-11-12T12:46:47Z</time>
      </trkpt>
      <trkpt lat="44.12501" lon="3.22995">
        <ele>481</ele>
        <time>2019-11-12T12:46:56Z</time>
      </trkpt>
      <trkpt lat="44.12508" lon="3.22984">
        <ele>481</ele>
        <time>2019-11-12T12:46:59Z</time>
      </trkpt>
      <trkpt lat="44.12506" lon="3.22976">
        <ele>478</ele>
        <time>2019-11-12T12:47:00Z</time>
      </trkpt>
      <trkpt lat="44.12502" lon="3.22973">
        <ele>475</ele>
        <time>2019-11-12T12:47:01Z</time>
      </trkpt>
      <trkpt lat="44.12475" lon="3.22968">
        <ele>463</ele>
        <time>2019-11-12T12:47:08Z</time>
      </trkpt>
      <trkpt lat="44.12473" lon="3.22964">
        <ele>461</ele>
        <time>2019-11-12T12:47:08Z</time>
      </trkpt>
      <trkpt lat="44.12491" lon="3.22934">
        <ele>459</ele>
        <time>2019-11-12T12:47:15Z</time>
      </trkpt>
      <trkpt lat="44.12498" lon="3.22886">
        <ele>446</ele>
        <time>2019-11-12T12:47:23Z</time>
      </trkpt>
      <trkpt lat="44.12496" lon="3.22877">
        <ele>442</ele>
        <time>2019-11-12T12:47:25Z</time>
      </trkpt>
      <trkpt lat="44.12485" lon="3.22881">
        <ele>440</ele>
        <time>2019-11-12T12:47:27Z</time>
      </trkpt>
      <trkpt lat="44.12459" lon="3.229">
        <ele>436</ele>
        <time>2019-11-12T12:47:34Z</time>
      </trkpt>
      <trkpt lat="44.12448" lon="3.22907">
        <ele>433</ele>
        <time>2019-11-12T12:47:37Z</time>
      </trkpt>
      <trkpt lat="44.12446" lon="3.22906">
        <ele>432</ele>
        <time>2019-11-12T12:47:38Z</time>
      </trkpt>
      <trkpt lat="44.1245" lon="3.22898">
        <ele>432</ele>
        <time>2019-11-12T12:47:39Z</time>
      </trkpt>
      <trkpt lat="44.12462" lon="3.22886">
        <ele>433</ele>
        <time>2019-11-12T12:47:43Z</time>
      </trkpt>
      <trkpt lat="44.12488" lon="3.22845">
        <ele>430</ele>
        <time>2019-11-12T12:47:52Z</time>
      </trkpt>
      <trkpt lat="44.12492" lon="3.2284">
        <ele>429</ele>
        <time>2019-11-12T12:47:53Z</time>
      </trkpt>
      <trkpt lat="44.12499" lon="3.22837">
        <ele>430</ele>
        <time>2019-11-12T12:47:55Z</time>
      </trkpt>
      <trkpt lat="44.12502" lon="3.22827">
        <ele>429</ele>
        <time>2019-11-12T12:47:57Z</time>
      </trkpt>
      <trkpt lat="44.125" lon="3.22816">
        <ele>425</ele>
        <time>2019-11-12T12:47:58Z</time>
      </trkpt>
      <trkpt lat="44.12496" lon="3.22811">
        <ele>423</ele>
        <time>2019-11-12T12:48:00Z</time>
      </trkpt>
      <trkpt lat="44.12499" lon="3.22779">
        <ele>417</ele>
        <time>2019-11-12T12:48:05Z</time>
      </trkpt>
      <trkpt lat="44.1252" lon="3.22702">
        <ele>415</ele>
        <time>2019-11-12T12:48:19Z</time>
      </trkpt>
      <trkpt lat="44.12517" lon="3.22689">
        <ele>413</ele>
        <time>2019-11-12T12:48:21Z</time>
      </trkpt>
      <trkpt lat="44.1252" lon="3.22672">
        <ele>413</ele>
        <time>2019-11-12T12:48:24Z</time>
      </trkpt>
      <trkpt lat="44.12519" lon="3.22601">
        <ele>414</ele>
        <time>2019-11-12T12:48:36Z</time>
      </trkpt>
      <trkpt lat="44.12509" lon="3.22429">
        <ele>413</ele>
        <time>2019-11-12T12:49:05Z</time>
      </trkpt>
      <trkpt lat="44.12502" lon="3.22399">
        <ele>412</ele>
        <time>2019-11-12T12:49:10Z</time>
      </trkpt>
      <trkpt lat="44.12489" lon="3.22369">
        <ele>411</ele>
        <time>2019-11-12T12:49:16Z</time>
      </trkpt>
      <trkpt lat="44.12449" lon="3.22312">
        <ele>409</ele>
        <time>2019-11-12T12:49:30Z</time>
      </trkpt>
      <trkpt lat="44.1244" lon="3.22288">
        <ele>409</ele>
        <time>2019-11-12T12:49:34Z</time>
      </trkpt>
      <trkpt lat="44.12423" lon="3.2228">
        <ele>407</ele>
        <time>2019-11-12T12:49:38Z</time>
      </trkpt>
      <trkpt lat="44.12407" lon="3.22282">
        <ele>406</ele>
        <time>2019-11-12T12:49:42Z</time>
      </trkpt>
      <trkpt lat="44.12394" lon="3.22291">
        <ele>406</ele>
        <time>2019-11-12T12:49:45Z</time>
      </trkpt>
      <trkpt lat="44.12387" lon="3.22292">
        <ele>406</ele>
        <time>2019-11-12T12:49:47Z</time>
      </trkpt>
      <trkpt lat="44.12374" lon="3.22281">
        <ele>405</ele>
        <time>2019-11-12T12:49:51Z</time>
      </trkpt>
      <trkpt lat="44.12324" lon="3.22219">
        <ele>405</ele>
        <time>2019-11-12T12:50:06Z</time>
      </trkpt>
      <trkpt lat="44.12312" lon="3.22191">
        <ele>408</ele>
        <time>2019-11-12T12:50:12Z</time>
      </trkpt>
      <trkpt lat="44.12302" lon="3.22153">
        <ele>409</ele>
        <time>2019-11-12T12:50:18Z</time>
      </trkpt>
      <trkpt lat="44.12306" lon="3.22095">
        <ele>410</ele>
        <time>2019-11-12T12:50:28Z</time>
      </trkpt>
      <trkpt lat="44.12308" lon="3.22087">
        <ele>410</ele>
        <time>2019-11-12T12:50:30Z</time>
      </trkpt>
      <trkpt lat="44.12312" lon="3.22086">
        <ele>410</ele>
        <time>2019-11-12T12:50:31Z</time>
      </trkpt>
      <trkpt lat="44.1233" lon="3.22168">
        <ele>404</ele>
        <time>2019-11-12T12:50:45Z</time>
      </trkpt>
      <trkpt lat="44.12306" lon="3.2217">
        <ele>408</ele>
        <time>2019-11-12T12:50:51Z</time>
      </trkpt>
      <trkpt lat="44.1225" lon="3.22167">
        <ele>417</ele>
        <time>2019-11-12T12:51:04Z</time>
      </trkpt>
      <trkpt lat="44.12247" lon="3.22163">
        <ele>419</ele>
        <time>2019-11-12T12:51:05Z</time>
      </trkpt>
      <trkpt lat="44.12241" lon="3.22135">
        <ele>422</ele>
        <time>2019-11-12T12:51:10Z</time>
      </trkpt>
      <trkpt lat="44.12224" lon="3.21992">
        <ele>414</ele>
        <time>2019-11-12T12:51:34Z</time>
      </trkpt>
      <trkpt lat="44.12219" lon="3.21979">
        <ele>416</ele>
        <time>2019-11-12T12:51:36Z</time>
      </trkpt>
      <trkpt lat="44.12201" lon="3.21953">
        <ele>420</ele>
        <time>2019-11-12T12:51:42Z</time>
      </trkpt>
      <trkpt lat="44.12145" lon="3.21853">
        <ele>418</ele>
        <time>2019-11-12T12:52:04Z</time>
      </trkpt>
      <trkpt lat="44.12053" lon="3.21751">
        <ele>416</ele>
        <time>2019-11-12T12:52:31Z</time>
      </trkpt>
      <trkpt lat="44.12039" lon="3.2175">
        <ele>419</ele>
        <time>2019-11-12T12:52:34Z</time>
      </trkpt>
      <trkpt lat="44.11997" lon="3.21779">
        <ele>436</ele>
        <time>2019-11-12T12:52:45Z</time>
      </trkpt>
      <trkpt lat="44.11983" lon="3.2178">
        <ele>439</ele>
        <time>2019-11-12T12:52:49Z</time>
      </trkpt>
      <trkpt lat="44.11973" lon="3.21774">
        <ele>440</ele>
        <time>2019-11-12T12:52:51Z</time>
      </trkpt>
      <trkpt lat="44.11968" lon="3.21756">
        <ele>438</ele>
        <time>2019-11-12T12:52:54Z</time>
      </trkpt>
      <trkpt lat="44.11984" lon="3.21718">
        <ele>427</ele>
        <time>2019-11-12T12:53:02Z</time>
      </trkpt>
      <trkpt lat="44.11986" lon="3.21708">
        <ele>425</ele>
        <time>2019-11-12T12:53:04Z</time>
      </trkpt>
      <trkpt lat="44.11984" lon="3.21698">
        <ele>424</ele>
        <time>2019-11-12T12:53:05Z</time>
      </trkpt>
      <trkpt lat="44.11981" lon="3.21691">
        <ele>424</ele>
        <time>2019-11-12T12:53:07Z</time>
      </trkpt>
      <trkpt lat="44.11962" lon="3.21669">
        <ele>428</ele>
        <time>2019-11-12T12:53:12Z</time>
      </trkpt>
      <trkpt lat="44.11936" lon="3.21672">
        <ele>439</ele>
        <time>2019-11-12T12:53:18Z</time>
      </trkpt>
      <trkpt lat="44.11932" lon="3.21665">
        <ele>440</ele>
        <time>2019-11-12T12:53:20Z</time>
      </trkpt>
      <trkpt lat="44.11922" lon="3.2162">
        <ele>438</ele>
        <time>2019-11-12T12:53:28Z</time>
      </trkpt>
      <trkpt lat="44.11874" lon="3.21528">
        <ele>451</ele>
        <time>2019-11-12T12:53:47Z</time>
      </trkpt>
      <trkpt lat="44.1183" lon="3.21427">
        <ele>468</ele>
        <time>2019-11-12T12:54:07Z</time>
      </trkpt>
      <trkpt lat="44.1183" lon="3.21422">
        <ele>468</ele>
        <time>2019-11-12T12:54:08Z</time>
      </trkpt>
      <trkpt lat="44.11848" lon="3.21388">
        <ele>463</ele>
        <time>2019-11-12T12:54:15Z</time>
      </trkpt>
      <trkpt lat="44.11859" lon="3.21313">
        <ele>470</ele>
        <time>2019-11-12T12:54:28Z</time>
      </trkpt>
      <trkpt lat="44.1188" lon="3.21291">
        <ele>464</ele>
        <time>2019-11-12T12:54:34Z</time>
      </trkpt>
      <trkpt lat="44.11882" lon="3.21277">
        <ele>467</ele>
        <time>2019-11-12T12:54:36Z</time>
      </trkpt>
      <trkpt lat="44.11878" lon="3.21272">
        <ele>471</ele>
        <time>2019-11-12T12:54:37Z</time>
      </trkpt>
      <trkpt lat="44.11872" lon="3.21275">
        <ele>474</ele>
        <time>2019-11-12T12:54:39Z</time>
      </trkpt>
      <trkpt lat="44.1187" lon="3.21279">
        <ele>474</ele>
        <time>2019-11-12T12:54:40Z</time>
      </trkpt>
      <trkpt lat="44.11872" lon="3.21281">
        <ele>472</ele>
        <time>2019-11-12T12:54:40Z</time>
      </trkpt>
      <trkpt lat="44.1187" lon="3.21279">
        <ele>474</ele>
        <time>2019-11-12T12:54:41Z</time>
      </trkpt>
      <trkpt lat="44.11858" lon="3.213">
        <ele>475</ele>
        <time>2019-11-12T12:54:45Z</time>
      </trkpt>
      <trkpt lat="44.11846" lon="3.21307">
        <ele>480</ele>
        <time>2019-11-12T12:54:48Z</time>
      </trkpt>
      <trkpt lat="44.11828" lon="3.21361">
        <ele>478</ele>
        <time>2019-11-12T12:54:58Z</time>
      </trkpt>
      <trkpt lat="44.11811" lon="3.21385">
        <ele>484</ele>
        <time>2019-11-12T12:55:04Z</time>
      </trkpt>
      <trkpt lat="44.11786" lon="3.21414">
        <ele>493</ele>
        <time>2019-11-12T12:55:12Z</time>
      </trkpt>
      <trkpt lat="44.11786" lon="3.21437">
        <ele>493</ele>
        <time>2019-11-12T12:55:15Z</time>
      </trkpt>
      <trkpt lat="44.11792" lon="3.21463">
        <ele>491</ele>
        <time>2019-11-12T12:55:20Z</time>
      </trkpt>
      <trkpt lat="44.11798" lon="3.21477">
        <ele>488</ele>
        <time>2019-11-12T12:55:23Z</time>
      </trkpt>
      <trkpt lat="44.11805" lon="3.21557">
        <ele>494</ele>
        <time>2019-11-12T12:55:36Z</time>
      </trkpt>
      <trkpt lat="44.11813" lon="3.21612">
        <ele>497</ele>
        <time>2019-11-12T12:55:46Z</time>
      </trkpt>
      <trkpt lat="44.11828" lon="3.21658">
        <ele>494</ele>
        <time>2019-11-12T12:55:54Z</time>
      </trkpt>
      <trkpt lat="44.11834" lon="3.21695">
        <ele>492</ele>
        <time>2019-11-12T12:56:00Z</time>
      </trkpt>
      <trkpt lat="44.11831" lon="3.21711">
        <ele>494</ele>
        <time>2019-11-12T12:56:03Z</time>
      </trkpt>
      <trkpt lat="44.11817" lon="3.21737">
        <ele>503</ele>
        <time>2019-11-12T12:56:09Z</time>
      </trkpt>
      <trkpt lat="44.11813" lon="3.21749">
        <ele>506</ele>
        <time>2019-11-12T12:56:11Z</time>
      </trkpt>
      <trkpt lat="44.11812" lon="3.21761">
        <ele>506</ele>
        <time>2019-11-12T12:56:13Z</time>
      </trkpt>
      <trkpt lat="44.11822" lon="3.21788">
        <ele>500</ele>
        <time>2019-11-12T12:56:18Z</time>
      </trkpt>
      <trkpt lat="44.11823" lon="3.21802">
        <ele>499</ele>
        <time>2019-11-12T12:56:20Z</time>
      </trkpt>
      <trkpt lat="44.11819" lon="3.21829">
        <ele>502</ele>
        <time>2019-11-12T12:56:25Z</time>
      </trkpt>
      <trkpt lat="44.11801" lon="3.21887">
        <ele>509</ele>
        <time>2019-11-12T12:56:36Z</time>
      </trkpt>
      <trkpt lat="44.11797" lon="3.21897">
        <ele>510</ele>
        <time>2019-11-12T12:56:37Z</time>
      </trkpt>
      <trkpt lat="44.11789" lon="3.21905">
        <ele>513</ele>
        <time>2019-11-12T12:56:40Z</time>
      </trkpt>
      <trkpt lat="44.1176" lon="3.21921">
        <ele>525</ele>
        <time>2019-11-12T12:56:47Z</time>
      </trkpt>
      <trkpt lat="44.1175" lon="3.21935">
        <ele>530</ele>
        <time>2019-11-12T12:56:50Z</time>
      </trkpt>
      <trkpt lat="44.1175" lon="3.21948">
        <ele>529</ele>
        <time>2019-11-12T12:56:53Z</time>
      </trkpt>
      <trkpt lat="44.1176" lon="3.21984">
        <ele>525</ele>
        <time>2019-11-12T12:56:59Z</time>
      </trkpt>
      <trkpt lat="44.11754" lon="3.22062">
        <ele>536</ele>
        <time>2019-11-12T12:57:12Z</time>
      </trkpt>
      <trkpt lat="44.1176" lon="3.22091">
        <ele>541</ele>
        <time>2019-11-12T12:57:17Z</time>
      </trkpt>
      <trkpt lat="44.11774" lon="3.22098">
        <ele>543</ele>
        <time>2019-11-12T12:57:21Z</time>
      </trkpt>
      <trkpt lat="44.11797" lon="3.22095">
        <ele>543</ele>
        <time>2019-11-12T12:57:26Z</time>
      </trkpt>
      <trkpt lat="44.11829" lon="3.22075">
        <ele>535</ele>
        <time>2019-11-12T12:57:34Z</time>
      </trkpt>
      <trkpt lat="44.11844" lon="3.22071">
        <ele>535</ele>
        <time>2019-11-12T12:57:38Z</time>
      </trkpt>
      <trkpt lat="44.11859" lon="3.22072">
        <ele>537</ele>
        <time>2019-11-12T12:57:41Z</time>
      </trkpt>
      <trkpt lat="44.11878" lon="3.22079">
        <ele>543</ele>
        <time>2019-11-12T12:57:46Z</time>
      </trkpt>
      <trkpt lat="44.11884" lon="3.22078">
        <ele>544</ele>
        <time>2019-11-12T12:57:47Z</time>
      </trkpt>
      <trkpt lat="44.11921" lon="3.22054">
        <ele>537</ele>
        <time>2019-11-12T12:57:57Z</time>
      </trkpt>
      <trkpt lat="44.11938" lon="3.22049">
        <ele>535</ele>
        <time>2019-11-12T12:58:01Z</time>
      </trkpt>
      <trkpt lat="44.11944" lon="3.22051">
        <ele>536</ele>
        <time>2019-11-12T12:58:02Z</time>
      </trkpt>
      <trkpt lat="44.11947" lon="3.2206">
        <ele>540</ele>
        <time>2019-11-12T12:58:04Z</time>
      </trkpt>
      <trkpt lat="44.11944" lon="3.22066">
        <ele>542</ele>
        <time>2019-11-12T12:58:05Z</time>
      </trkpt>
      <trkpt lat="44.1192" lon="3.22069">
        <ele>544</ele>
        <time>2019-11-12T12:58:11Z</time>
      </trkpt>
      <trkpt lat="44.11907" lon="3.22077">
        <ele>547</ele>
        <time>2019-11-12T12:58:14Z</time>
      </trkpt>
      <trkpt lat="44.11882" lon="3.22098">
        <ele>552</ele>
        <time>2019-11-12T12:58:21Z</time>
      </trkpt>
      <trkpt lat="44.11877" lon="3.221">
        <ele>552</ele>
        <time>2019-11-12T12:58:22Z</time>
      </trkpt>
      <trkpt lat="44.11853" lon="3.221">
        <ele>548</ele>
        <time>2019-11-12T12:58:28Z</time>
      </trkpt>
      <trkpt lat="44.11837" lon="3.22109">
        <ele>549</ele>
        <time>2019-11-12T12:58:32Z</time>
      </trkpt>
      <trkpt lat="44.11785" lon="3.22154">
        <ele>562</ele>
        <time>2019-11-12T12:58:46Z</time>
      </trkpt>
      <trkpt lat="44.11747" lon="3.22182">
        <ele>568</ele>
        <time>2019-11-12T12:58:56Z</time>
      </trkpt>
      <trkpt lat="44.11736" lon="3.22186">
        <ele>572</ele>
        <time>2019-11-12T12:58:59Z</time>
      </trkpt>
      <trkpt lat="44.11726" lon="3.22185">
        <ele>573</ele>
        <time>2019-11-12T12:59:01Z</time>
      </trkpt>
      <trkpt lat="44.117" lon="3.22168">
        <ele>573</ele>
        <time>2019-11-12T12:59:08Z</time>
      </trkpt>
      <trkpt lat="44.11681" lon="3.22138">
        <ele>574</ele>
        <time>2019-11-12T12:59:15Z</time>
      </trkpt>
      <trkpt lat="44.11665" lon="3.22119">
        <ele>578</ele>
        <time>2019-11-12T12:59:20Z</time>
      </trkpt>
      <trkpt lat="44.11662" lon="3.2211">
        <ele>579</ele>
        <time>2019-11-12T12:59:21Z</time>
      </trkpt>
      <trkpt lat="44.11665" lon="3.22098">
        <ele>577</ele>
        <time>2019-11-12T12:59:23Z</time>
      </trkpt>
      <trkpt lat="44.11682" lon="3.22076">
        <ele>568</ele>
        <time>2019-11-12T12:59:29Z</time>
      </trkpt>
      <trkpt lat="44.11685" lon="3.22065">
        <ele>566</ele>
        <time>2019-11-12T12:59:31Z</time>
      </trkpt>
      <trkpt lat="44.11685" lon="3.22043">
        <ele>564</ele>
        <time>2019-11-12T12:59:34Z</time>
      </trkpt>
      <trkpt lat="44.1168" lon="3.2202">
        <ele>565</ele>
        <time>2019-11-12T12:59:38Z</time>
      </trkpt>
      <trkpt lat="44.11664" lon="3.2199">
        <ele>572</ele>
        <time>2019-11-12T12:59:45Z</time>
      </trkpt>
      <trkpt lat="44.11628" lon="3.21951">
        <ele>589</ele>
        <time>2019-11-12T12:59:55Z</time>
      </trkpt>
      <trkpt lat="44.11623" lon="3.2194">
        <ele>591</ele>
        <time>2019-11-12T12:59:58Z</time>
      </trkpt>
      <trkpt lat="44.11621" lon="3.21925">
        <ele>592</ele>
        <time>2019-11-12T13:00:00Z</time>
      </trkpt>
      <trkpt lat="44.11625" lon="3.21911">
        <ele>591</ele>
        <time>2019-11-12T13:00:03Z</time>
      </trkpt>
      <trkpt lat="44.11639" lon="3.21885">
        <ele>589</ele>
        <time>2019-11-12T13:00:08Z</time>
      </trkpt>
      <trkpt lat="44.11665" lon="3.21846">
        <ele>582</ele>
        <time>2019-11-12T13:00:17Z</time>
      </trkpt>
      <trkpt lat="44.11672" lon="3.21829">
        <ele>581</ele>
        <time>2019-11-12T13:00:20Z</time>
      </trkpt>
      <trkpt lat="44.11671" lon="3.21811">
        <ele>584</ele>
        <time>2019-11-12T13:00:23Z</time>
      </trkpt>
      <trkpt lat="44.11663" lon="3.21787">
        <ele>593</ele>
        <time>2019-11-12T13:00:28Z</time>
      </trkpt>
      <trkpt lat="44.11662" lon="3.21775">
        <ele>596</ele>
        <time>2019-11-12T13:00:30Z</time>
      </trkpt>
      <trkpt lat="44.11673" lon="3.21716">
        <ele>591</ele>
        <time>2019-11-12T13:00:40Z</time>
      </trkpt>
      <trkpt lat="44.11673" lon="3.21701">
        <ele>591</ele>
        <time>2019-11-12T13:00:43Z</time>
      </trkpt>
      <trkpt lat="44.11645" lon="3.2158">
        <ele>607</ele>
        <time>2019-11-12T13:01:04Z</time>
      </trkpt>
      <trkpt lat="44.11627" lon="3.2148">
        <ele>612</ele>
        <time>2019-11-12T13:01:21Z</time>
      </trkpt>
      <trkpt lat="44.11588" lon="3.21418">
        <ele>630</ele>
        <time>2019-11-12T13:01:35Z</time>
      </trkpt>
      <trkpt lat="44.11579" lon="3.21397">
        <ele>633</ele>
        <time>2019-11-12T13:01:39Z</time>
      </trkpt>
      <trkpt lat="44.1158" lon="3.21365">
        <ele>628</ele>
        <time>2019-11-12T13:01:44Z</time>
      </trkpt>
      <trkpt lat="44.11588" lon="3.21323">
        <ele>621</ele>
        <time>2019-11-12T13:01:52Z</time>
      </trkpt>
      <trkpt lat="44.11601" lon="3.21292">
        <ele>618</ele>
        <time>2019-11-12T13:01:58Z</time>
      </trkpt>
      <trkpt lat="44.11643" lon="3.21225">
        <ele>611</ele>
        <time>2019-11-12T13:02:13Z</time>
      </trkpt>
      <trkpt lat="44.1165" lon="3.21207">
        <ele>612</ele>
        <time>2019-11-12T13:02:16Z</time>
      </trkpt>
      <trkpt lat="44.11653" lon="3.21185">
        <ele>615</ele>
        <time>2019-11-12T13:02:20Z</time>
      </trkpt>
      <trkpt lat="44.11672" lon="3.21134">
        <ele>609</ele>
        <time>2019-11-12T13:02:29Z</time>
      </trkpt>
      <trkpt lat="44.11672" lon="3.2113">
        <ele>609</ele>
        <time>2019-11-12T13:02:30Z</time>
      </trkpt>
      <trkpt lat="44.11666" lon="3.21122">
        <ele>609</ele>
        <time>2019-11-12T13:02:32Z</time>
      </trkpt>
      <trkpt lat="44.11661" lon="3.21123">
        <ele>609</ele>
        <time>2019-11-12T13:02:33Z</time>
      </trkpt>
      <trkpt lat="44.11656" lon="3.21129">
        <ele>610</ele>
        <time>2019-11-12T13:02:35Z</time>
      </trkpt>
      <trkpt lat="44.11639" lon="3.21158">
        <ele>616</ele>
        <time>2019-11-12T13:02:41Z</time>
      </trkpt>
      <trkpt lat="44.11605" lon="3.21185">
        <ele>619</ele>
        <time>2019-11-12T13:02:50Z</time>
      </trkpt>
      <trkpt lat="44.11598" lon="3.21197">
        <ele>621</ele>
        <time>2019-11-12T13:02:53Z</time>
      </trkpt>
      <trkpt lat="44.11579" lon="3.21249">
        <ele>629</ele>
        <time>2019-11-12T13:03:03Z</time>
      </trkpt>
      <trkpt lat="44.1157" lon="3.21262">
        <ele>629</ele>
        <time>2019-11-12T13:03:06Z</time>
      </trkpt>
      <trkpt lat="44.11555" lon="3.21273">
        <ele>631</ele>
        <time>2019-11-12T13:03:10Z</time>
      </trkpt>
      <trkpt lat="44.11539" lon="3.21279">
        <ele>634</ele>
        <time>2019-11-12T13:03:13Z</time>
      </trkpt>
      <trkpt lat="44.11531" lon="3.21279">
        <ele>636</ele>
        <time>2019-11-12T13:03:15Z</time>
      </trkpt>
      <trkpt lat="44.11507" lon="3.21272">
        <ele>638</ele>
        <time>2019-11-12T13:03:21Z</time>
      </trkpt>
      <trkpt lat="44.11499" lon="3.21273">
        <ele>639</ele>
        <time>2019-11-12T13:03:23Z</time>
      </trkpt>
      <trkpt lat="44.11474" lon="3.213">
        <ele>645</ele>
        <time>2019-11-12T13:03:30Z</time>
      </trkpt>
      <trkpt lat="44.11425" lon="3.2133">
        <ele>652</ele>
        <time>2019-11-12T13:03:43Z</time>
      </trkpt>
      <trkpt lat="44.11394" lon="3.21344">
        <ele>656</ele>
        <time>2019-11-12T13:03:50Z</time>
      </trkpt>
      <trkpt lat="44.11344" lon="3.2135">
        <ele>654</ele>
        <time>2019-11-12T13:04:02Z</time>
      </trkpt>
      <trkpt lat="44.11307" lon="3.21364">
        <ele>657</ele>
        <time>2019-11-12T13:04:11Z</time>
      </trkpt>
      <trkpt lat="44.11295" lon="3.21364">
        <ele>657</ele>
        <time>2019-11-12T13:04:14Z</time>
      </trkpt>
      <trkpt lat="44.11241" lon="3.21374">
        <ele>658</ele>
        <time>2019-11-12T13:04:27Z</time>
      </trkpt>
      <trkpt lat="44.11207" lon="3.21384">
        <ele>660</ele>
        <time>2019-11-12T13:04:35Z</time>
      </trkpt>
      <trkpt lat="44.11196" lon="3.21391">
        <ele>662</ele>
        <time>2019-11-12T13:04:38Z</time>
      </trkpt>
      <trkpt lat="44.11143" lon="3.21405">
        <ele>663</ele>
        <time>2019-11-12T13:04:50Z</time>
      </trkpt>
      <trkpt lat="44.11123" lon="3.21416">
        <ele>664</ele>
        <time>2019-11-12T13:04:55Z</time>
      </trkpt>
      <trkpt lat="44.11108" lon="3.21416">
        <ele>663</ele>
        <time>2019-11-12T13:04:59Z</time>
      </trkpt>
      <trkpt lat="44.11104" lon="3.21413">
        <ele>663</ele>
        <time>2019-11-12T13:05:00Z</time>
      </trkpt>
      <trkpt lat="44.11086" lon="3.2141">
        <ele>662</ele>
        <time>2019-11-12T13:05:04Z</time>
      </trkpt>
      <trkpt lat="44.11058" lon="3.2142">
        <ele>662</ele>
        <time>2019-11-12T13:05:11Z</time>
      </trkpt>
      <trkpt lat="44.11034" lon="3.2145">
        <ele>665</ele>
        <time>2019-11-12T13:05:18Z</time>
      </trkpt>
      <trkpt lat="44.11008" lon="3.21497">
        <ele>669</ele>
        <time>2019-11-12T13:05:28Z</time>
      </trkpt>
      <trkpt lat="44.10989" lon="3.21518">
        <ele>672</ele>
        <time>2019-11-12T13:05:34Z</time>
      </trkpt>
      <trkpt lat="44.10966" lon="3.21552">
        <ele>676</ele>
        <time>2019-11-12T13:05:42Z</time>
      </trkpt>
      <trkpt lat="44.10888" lon="3.21642">
        <ele>685</ele>
        <time>2019-11-12T13:06:05Z</time>
      </trkpt>
      <trkpt lat="44.10807" lon="3.21704">
        <ele>690</ele>
        <time>2019-11-12T13:06:27Z</time>
      </trkpt>
      <trkpt lat="44.10796" lon="3.21711">
        <ele>690</ele>
        <time>2019-11-12T13:06:30Z</time>
      </trkpt>
      <trkpt lat="44.10782" lon="3.21713">
        <ele>690</ele>
        <time>2019-11-12T13:06:33Z</time>
      </trkpt>
      <trkpt lat="44.10784" lon="3.21748">
        <ele>692</ele>
        <time>2019-11-12T13:06:39Z</time>
      </trkpt>
      <trkpt lat="44.10797" lon="3.21752">
        <ele>692</ele>
        <time>2019-11-12T13:06:42Z</time>
      </trkpt>
      <trkpt lat="44.108" lon="3.21789">
        <ele>691</ele>
        <time>2019-11-12T13:06:48Z</time>
      </trkpt>
      <trkpt lat="44.10826" lon="3.21824">
        <ele>689</ele>
        <time>2019-11-12T13:06:57Z</time>
      </trkpt>
      <trkpt lat="44.10835" lon="3.21863">
        <ele>686</ele>
        <time>2019-11-12T13:07:04Z</time>
      </trkpt>
      <trkpt lat="44.10918" lon="3.21938">
        <ele>691</ele>
        <time>2019-11-12T13:07:27Z</time>
      </trkpt>
      <trkpt lat="44.10934" lon="3.21963">
        <ele>693</ele>
        <time>2019-11-12T13:07:32Z</time>
      </trkpt>
      <trkpt lat="44.10958" lon="3.21994">
        <ele>695</ele>
        <time>2019-11-12T13:07:40Z</time>
      </trkpt>
      <trkpt lat="44.10969" lon="3.22022">
        <ele>696</ele>
        <time>2019-11-12T13:07:45Z</time>
      </trkpt>
      <trkpt lat="44.10982" lon="3.22036">
        <ele>697</ele>
        <time>2019-11-12T13:07:49Z</time>
      </trkpt>
      <trkpt lat="44.11006" lon="3.22049">
        <ele>700</ele>
        <time>2019-11-12T13:07:55Z</time>
      </trkpt>
      <trkpt lat="44.11025" lon="3.22069">
        <ele>701</ele>
        <time>2019-11-12T13:08:01Z</time>
      </trkpt>
      <trkpt lat="44.1103" lon="3.22093">
        <ele>701</ele>
        <time>2019-11-12T13:08:05Z</time>
      </trkpt>
      <trkpt lat="44.11021" lon="3.22132">
        <ele>701</ele>
        <time>2019-11-12T13:08:12Z</time>
      </trkpt>
      <trkpt lat="44.11012" lon="3.22215">
        <ele>706</ele>
        <time>2019-11-12T13:08:26Z</time>
      </trkpt>
      <trkpt lat="44.11009" lon="3.2227">
        <ele>711</ele>
        <time>2019-11-12T13:08:35Z</time>
      </trkpt>
      <trkpt lat="44.11006" lon="3.22279">
        <ele>712</ele>
        <time>2019-11-12T13:08:37Z</time>
      </trkpt>
      <trkpt lat="44.11001" lon="3.22341">
        <ele>716</ele>
        <time>2019-11-12T13:08:47Z</time>
      </trkpt>
      <trkpt lat="44.10995" lon="3.22374">
        <ele>718</ele>
        <time>2019-11-12T13:08:53Z</time>
      </trkpt>
      <trkpt lat="44.10995" lon="3.22395">
        <ele>719</ele>
        <time>2019-11-12T13:08:56Z</time>
      </trkpt>
      <trkpt lat="44.10989" lon="3.2243">
        <ele>722</ele>
        <time>2019-11-12T13:09:03Z</time>
      </trkpt>
      <trkpt lat="44.10984" lon="3.2251">
        <ele>731</ele>
        <time>2019-11-12T13:09:16Z</time>
      </trkpt>
      <trkpt lat="44.10985" lon="3.2253">
        <ele>732</ele>
        <time>2019-11-12T13:09:19Z</time>
      </trkpt>
      <trkpt lat="44.10989" lon="3.22537">
        <ele>732</ele>
        <time>2019-11-12T13:09:21Z</time>
      </trkpt>
      <trkpt lat="44.10987" lon="3.22539">
        <ele>732</ele>
        <time>2019-11-12T13:09:21Z</time>
      </trkpt>
      <trkpt lat="44.10979" lon="3.22585">
        <ele>735</ele>
        <time>2019-11-12T13:09:29Z</time>
      </trkpt>
      <trkpt lat="44.10969" lon="3.22612">
        <ele>737</ele>
        <time>2019-11-12T13:09:34Z</time>
      </trkpt>
      <trkpt lat="44.10966" lon="3.22627">
        <ele>738</ele>
        <time>2019-11-12T13:09:37Z</time>
      </trkpt>
      <trkpt lat="44.10965" lon="3.22675">
        <ele>738</ele>
        <time>2019-11-12T13:09:45Z</time>
      </trkpt>
      <trkpt lat="44.10962" lon="3.22694">
        <ele>737</ele>
        <time>2019-11-12T13:09:48Z</time>
      </trkpt>
      <trkpt lat="44.10946" lon="3.22721">
        <ele>739</ele>
        <time>2019-11-12T13:09:54Z</time>
      </trkpt>
      <trkpt lat="44.10922" lon="3.22752">
        <ele>742</ele>
        <time>2019-11-12T13:10:02Z</time>
      </trkpt>
      <trkpt lat="44.10893" lon="3.22779">
        <ele>742</ele>
        <time>2019-11-12T13:10:10Z</time>
      </trkpt>
      <trkpt lat="44.10868" lon="3.22825">
        <ele>741</ele>
        <time>2019-11-12T13:10:20Z</time>
      </trkpt>
      <trkpt lat="44.10852" lon="3.22865">
        <ele>741</ele>
        <time>2019-11-12T13:10:27Z</time>
      </trkpt>
      <trkpt lat="44.10847" lon="3.22894">
        <ele>740</ele>
        <time>2019-11-12T13:10:32Z</time>
      </trkpt>
      <trkpt lat="44.10857" lon="3.22928">
        <ele>738</ele>
        <time>2019-11-12T13:10:39Z</time>
      </trkpt>
      <trkpt lat="44.10859" lon="3.23001">
        <ele>737</ele>
        <time>2019-11-12T13:10:51Z</time>
      </trkpt>
      <trkpt lat="44.10857" lon="3.23006">
        <ele>738</ele>
        <time>2019-11-12T13:10:52Z</time>
      </trkpt>
      <trkpt lat="44.10842" lon="3.23017">
        <ele>740</ele>
        <time>2019-11-12T13:10:56Z</time>
      </trkpt>
      <trkpt lat="44.10835" lon="3.23056">
        <ele>741</ele>
        <time>2019-11-12T13:11:02Z</time>
      </trkpt>
      <trkpt lat="44.1082" lon="3.23106">
        <ele>745</ele>
        <time>2019-11-12T13:11:12Z</time>
      </trkpt>
      <trkpt lat="44.10795" lon="3.2327">
        <ele>762</ele>
        <time>2019-11-12T13:11:40Z</time>
      </trkpt>
      <trkpt lat="44.10799" lon="3.2332">
        <ele>768</ele>
        <time>2019-11-12T13:11:48Z</time>
      </trkpt>
      <trkpt lat="44.10801" lon="3.23395">
        <ele>774</ele>
        <time>2019-11-12T13:12:01Z</time>
      </trkpt>
      <trkpt lat="44.10799" lon="3.23474">
        <ele>778</ele>
        <time>2019-11-12T13:12:14Z</time>
      </trkpt>
      <trkpt lat="44.10804" lon="3.23493">
        <ele>778</ele>
        <time>2019-11-12T13:12:17Z</time>
      </trkpt>
      <trkpt lat="44.10818" lon="3.23493">
        <ele>778</ele>
        <time>2019-11-12T13:12:21Z</time>
      </trkpt>
      <trkpt lat="44.1083" lon="3.23497">
        <ele>777</ele>
        <time>2019-11-12T13:12:23Z</time>
      </trkpt>
      <trkpt lat="44.10852" lon="3.23532">
        <ele>775</ele>
        <time>2019-11-12T13:12:31Z</time>
      </trkpt>
      <trkpt lat="44.10857" lon="3.23534">
        <ele>774</ele>
        <time>2019-11-12T13:12:32Z</time>
      </trkpt>
      <trkpt lat="44.10873" lon="3.23533">
        <ele>774</ele>
        <time>2019-11-12T13:12:36Z</time>
      </trkpt>
      <trkpt lat="44.10897" lon="3.23522">
        <ele>773</ele>
        <time>2019-11-12T13:12:42Z</time>
      </trkpt>
      <trkpt lat="44.10928" lon="3.23533">
        <ele>770</ele>
        <time>2019-11-12T13:12:50Z</time>
      </trkpt>
      <trkpt lat="44.10947" lon="3.23594">
        <ele>766</ele>
        <time>2019-11-12T13:13:01Z</time>
      </trkpt>
      <trkpt lat="44.10963" lon="3.23687">
        <ele>765</ele>
        <time>2019-11-12T13:13:17Z</time>
      </trkpt>
      <trkpt lat="44.10953" lon="3.2374">
        <ele>767</ele>
        <time>2019-11-12T13:13:26Z</time>
      </trkpt>
      <trkpt lat="44.10948" lon="3.2379">
        <ele>768</ele>
        <time>2019-11-12T13:13:34Z</time>
      </trkpt>
      <trkpt lat="44.10933" lon="3.23847">
        <ele>769</ele>
        <time>2019-11-12T13:13:45Z</time>
      </trkpt>
      <trkpt lat="44.1093" lon="3.23869">
        <ele>770</ele>
        <time>2019-11-12T13:13:48Z</time>
      </trkpt>
      <trkpt lat="44.10929" lon="3.23911">
        <ele>771</ele>
        <time>2019-11-12T13:13:55Z</time>
      </trkpt>
      <trkpt lat="44.10898" lon="3.24003">
        <ele>773</ele>
        <time>2019-11-12T13:14:12Z</time>
      </trkpt>
      <trkpt lat="44.10926" lon="3.24094">
        <ele>770</ele>
        <time>2019-11-12T13:14:29Z</time>
      </trkpt>
      <trkpt lat="44.1092" lon="3.24144">
        <ele>769</ele>
        <time>2019-11-12T13:14:38Z</time>
      </trkpt>
      <trkpt lat="44.10906" lon="3.24166">
        <ele>768</ele>
        <time>2019-11-12T13:14:42Z</time>
      </trkpt>
      <trkpt lat="44.10905" lon="3.24221">
        <ele>768</ele>
        <time>2019-11-12T13:14:52Z</time>
      </trkpt>
      <trkpt lat="44.10913" lon="3.24234">
        <ele>768</ele>
        <time>2019-11-12T13:14:55Z</time>
      </trkpt>
      <trkpt lat="44.10906" lon="3.24281">
        <ele>765</ele>
        <time>2019-11-12T13:15:03Z</time>
      </trkpt>
      <trkpt lat="44.10933" lon="3.24283">
        <ele>765</ele>
        <time>2019-11-12T13:15:09Z</time>
      </trkpt>
      <trkpt lat="44.10971" lon="3.24313">
        <ele>758</ele>
        <time>2019-11-12T13:15:19Z</time>
      </trkpt>
      <trkpt lat="44.10999" lon="3.24291">
        <ele>761</ele>
        <time>2019-11-12T13:15:27Z</time>
      </trkpt>
      <trkpt lat="44.1108" lon="3.24256">
        <ele>766</ele>
        <time>2019-11-12T13:15:46Z</time>
      </trkpt>
      <trkpt lat="44.11107" lon="3.24267">
        <ele>761</ele>
        <time>2019-11-12T13:15:53Z</time>
      </trkpt>
      <trkpt lat="44.11131" lon="3.24283">
        <ele>754</ele>
        <time>2019-11-12T13:15:59Z</time>
      </trkpt>
      <trkpt lat="44.11147" lon="3.24281">
        <ele>753</ele>
        <time>2019-11-12T13:16:03Z</time>
      </trkpt>
      <trkpt lat="44.11192" lon="3.24305">
        <ele>739</ele>
        <time>2019-11-12T13:16:14Z</time>
      </trkpt>
      <trkpt lat="44.11208" lon="3.24329">
        <ele>729</ele>
        <time>2019-11-12T13:16:20Z</time>
      </trkpt>
      <trkpt lat="44.11238" lon="3.24303">
        <ele>731</ele>
        <time>2019-11-12T13:16:28Z</time>
      </trkpt>
      <trkpt lat="44.11275" lon="3.2425">
        <ele>735</ele>
        <time>2019-11-12T13:16:40Z</time>
      </trkpt>
      <trkpt lat="44.11304" lon="3.24234">
        <ele>724</ele>
        <time>2019-11-12T13:16:48Z</time>
      </trkpt>
      <trkpt lat="44.11332" lon="3.24209">
        <ele>717</ele>
        <time>2019-11-12T13:16:55Z</time>
      </trkpt>
      <trkpt lat="44.11345" lon="3.24205">
        <ele>709</ele>
        <time>2019-11-12T13:16:59Z</time>
      </trkpt>
      <trkpt lat="44.11352" lon="3.24199">
        <ele>705</ele>
        <time>2019-11-12T13:17:00Z</time>
      </trkpt>
      <trkpt lat="44.11363" lon="3.24183">
        <ele>699</ele>
        <time>2019-11-12T13:17:04Z</time>
      </trkpt>
      <trkpt lat="44.11374" lon="3.24188">
        <ele>691</ele>
        <time>2019-11-12T13:17:07Z</time>
      </trkpt>
      <trkpt lat="44.1138" lon="3.24186">
        <ele>687</ele>
        <time>2019-11-12T13:17:08Z</time>
      </trkpt>
      <trkpt lat="44.11386" lon="3.2417">
        <ele>684</ele>
        <time>2019-11-12T13:17:11Z</time>
      </trkpt>
      <trkpt lat="44.11393" lon="3.24169">
        <ele>679</ele>
        <time>2019-11-12T13:17:13Z</time>
      </trkpt>
      <trkpt lat="44.11398" lon="3.24173">
        <ele>675</ele>
        <time>2019-11-12T13:17:14Z</time>
      </trkpt>
      <trkpt lat="44.11408" lon="3.24196">
        <ele>667</ele>
        <time>2019-11-12T13:17:19Z</time>
      </trkpt>
      <trkpt lat="44.11412" lon="3.24199">
        <ele>665</ele>
        <time>2019-11-12T13:17:20Z</time>
      </trkpt>
      <trkpt lat="44.11417" lon="3.24196">
        <ele>661</ele>
        <time>2019-11-12T13:17:21Z</time>
      </trkpt>
      <trkpt lat="44.1143" lon="3.24174">
        <ele>652</ele>
        <time>2019-11-12T13:17:26Z</time>
      </trkpt>
      <trkpt lat="44.11452" lon="3.24181">
        <ele>638</ele>
        <time>2019-11-12T13:17:31Z</time>
      </trkpt>
      <trkpt lat="44.11454" lon="3.24188">
        <ele>637</ele>
        <time>2019-11-12T13:17:32Z</time>
      </trkpt>
      <trkpt lat="44.11447" lon="3.24234">
        <ele>643</ele>
        <time>2019-11-12T13:17:40Z</time>
      </trkpt>
      <trkpt lat="44.11448" lon="3.24262">
        <ele>641</ele>
        <time>2019-11-12T13:17:45Z</time>
      </trkpt>
      <trkpt lat="44.11452" lon="3.24274">
        <ele>636</ele>
        <time>2019-11-12T13:17:47Z</time>
      </trkpt>
      <trkpt lat="44.11462" lon="3.24273">
        <ele>631</ele>
        <time>2019-11-12T13:17:50Z</time>
      </trkpt>
      <trkpt lat="44.11473" lon="3.24257">
        <ele>627</ele>
        <time>2019-11-12T13:17:53Z</time>
      </trkpt>
      <trkpt lat="44.11487" lon="3.24244">
        <ele>620</ele>
        <time>2019-11-12T13:17:57Z</time>
      </trkpt>
      <trkpt lat="44.11495" lon="3.24252">
        <ele>616</ele>
        <time>2019-11-12T13:18:00Z</time>
      </trkpt>
      <trkpt lat="44.11498" lon="3.24262">
        <ele>612</ele>
        <time>2019-11-12T13:18:01Z</time>
      </trkpt>
      <trkpt lat="44.11504" lon="3.24264">
        <ele>609</ele>
        <time>2019-11-12T13:18:03Z</time>
      </trkpt>
      <trkpt lat="44.11507" lon="3.24261">
        <ele>608</ele>
        <time>2019-11-12T13:18:04Z</time>
      </trkpt>
      <trkpt lat="44.11508" lon="3.24245">
        <ele>609</ele>
        <time>2019-11-12T13:18:06Z</time>
      </trkpt>
      <trkpt lat="44.11511" lon="3.24243">
        <ele>607</ele>
        <time>2019-11-12T13:18:07Z</time>
      </trkpt>
      <trkpt lat="44.11517" lon="3.24245">
        <ele>605</ele>
        <time>2019-11-12T13:18:09Z</time>
      </trkpt>
      <trkpt lat="44.11526" lon="3.24283">
        <ele>596</ele>
        <time>2019-11-12T13:18:15Z</time>
      </trkpt>
      <trkpt lat="44.11534" lon="3.24287">
        <ele>592</ele>
        <time>2019-11-12T13:18:17Z</time>
      </trkpt>
      <trkpt lat="44.11548" lon="3.24285">
        <ele>586</ele>
        <time>2019-11-12T13:18:21Z</time>
      </trkpt>
      <trkpt lat="44.11575" lon="3.2427">
        <ele>577</ele>
        <time>2019-11-12T13:18:27Z</time>
      </trkpt>
      <trkpt lat="44.11589" lon="3.24265">
        <ele>571</ele>
        <time>2019-11-12T13:18:31Z</time>
      </trkpt>
      <trkpt lat="44.11599" lon="3.24267">
        <ele>566</ele>
        <time>2019-11-12T13:18:33Z</time>
      </trkpt>
      <trkpt lat="44.11604" lon="3.24273">
        <ele>564</ele>
        <time>2019-11-12T13:18:35Z</time>
      </trkpt>
      <trkpt lat="44.11614" lon="3.24302">
        <ele>560</ele>
        <time>2019-11-12T13:18:40Z</time>
      </trkpt>
      <trkpt lat="44.11625" lon="3.24323">
        <ele>556</ele>
        <time>2019-11-12T13:18:44Z</time>
      </trkpt>
      <trkpt lat="44.11665" lon="3.24338">
        <ele>545</ele>
        <time>2019-11-12T13:18:54Z</time>
      </trkpt>
      <trkpt lat="44.11674" lon="3.24346">
        <ele>538</ele>
        <time>2019-11-12T13:18:57Z</time>
      </trkpt>
      <trkpt lat="44.11678" lon="3.24353">
        <ele>534</ele>
        <time>2019-11-12T13:18:58Z</time>
      </trkpt>
      <trkpt lat="44.11685" lon="3.24378">
        <ele>522</ele>
        <time>2019-11-12T13:19:03Z</time>
      </trkpt>
      <trkpt lat="44.11688" lon="3.24381">
        <ele>520</ele>
        <time>2019-11-12T13:19:03Z</time>
      </trkpt>
      <trkpt lat="44.11716" lon="3.2438">
        <ele>511</ele>
        <time>2019-11-12T13:19:10Z</time>
      </trkpt>
      <trkpt lat="44.11723" lon="3.24387">
        <ele>507</ele>
        <time>2019-11-12T13:19:12Z</time>
      </trkpt>
      <trkpt lat="44.11728" lon="3.24399">
        <ele>502</ele>
        <time>2019-11-12T13:19:14Z</time>
      </trkpt>
      <trkpt lat="44.11736" lon="3.24397">
        <ele>500</ele>
        <time>2019-11-12T13:19:16Z</time>
      </trkpt>
      <trkpt lat="44.11742" lon="3.24387">
        <ele>500</ele>
        <time>2019-11-12T13:19:18Z</time>
      </trkpt>
      <trkpt lat="44.11746" lon="3.24386">
        <ele>499</ele>
        <time>2019-11-12T13:19:19Z</time>
      </trkpt>
      <trkpt lat="44.11749" lon="3.2439">
        <ele>497</ele>
        <time>2019-11-12T13:19:20Z</time>
      </trkpt>
      <trkpt lat="44.1175" lon="3.24401">
        <ele>495</ele>
        <time>2019-11-12T13:19:22Z</time>
      </trkpt>
      <trkpt lat="44.11759" lon="3.24402">
        <ele>492</ele>
        <time>2019-11-12T13:19:24Z</time>
      </trkpt>
      <trkpt lat="44.11757" lon="3.24415">
        <ele>489</ele>
        <time>2019-11-12T13:19:27Z</time>
      </trkpt>
      <trkpt lat="44.11759" lon="3.24431">
        <ele>482</ele>
        <time>2019-11-12T13:19:29Z</time>
      </trkpt>
      <trkpt lat="44.11769" lon="3.24424">
        <ele>482</ele>
        <time>2019-11-12T13:19:32Z</time>
      </trkpt>
      <trkpt lat="44.11782" lon="3.24424">
        <ele>479</ele>
        <time>2019-11-12T13:19:35Z</time>
      </trkpt>
      <trkpt lat="44.11786" lon="3.24428">
        <ele>476</ele>
        <time>2019-11-12T13:19:36Z</time>
      </trkpt>
      <trkpt lat="44.11786" lon="3.24447">
        <ele>468</ele>
        <time>2019-11-12T13:19:39Z</time>
      </trkpt>
      <trkpt lat="44.11797" lon="3.24435">
        <ele>470</ele>
        <time>2019-11-12T13:19:42Z</time>
      </trkpt>
      <trkpt lat="44.11804" lon="3.24414">
        <ele>477</ele>
        <time>2019-11-12T13:19:46Z</time>
      </trkpt>
      <trkpt lat="44.11801" lon="3.24381">
        <ele>483</ele>
        <time>2019-11-12T13:19:52Z</time>
      </trkpt>
      <trkpt lat="44.11807" lon="3.24374">
        <ele>482</ele>
        <time>2019-11-12T13:19:54Z</time>
      </trkpt>
      <trkpt lat="44.11812" lon="3.24375">
        <ele>480</ele>
        <time>2019-11-12T13:19:55Z</time>
      </trkpt>
      <trkpt lat="44.11834" lon="3.24399">
        <ele>470</ele>
        <time>2019-11-12T13:20:01Z</time>
      </trkpt>
      <trkpt lat="44.11849" lon="3.24411">
        <ele>460</ele>
        <time>2019-11-12T13:20:06Z</time>
      </trkpt>
      <trkpt lat="44.11851" lon="3.24421">
        <ele>457</ele>
        <time>2019-11-12T13:20:07Z</time>
      </trkpt>
      <trkpt lat="44.11848" lon="3.24436">
        <ele>453</ele>
        <time>2019-11-12T13:20:10Z</time>
      </trkpt>
      <trkpt lat="44.11851" lon="3.24454">
        <ele>446</ele>
        <time>2019-11-12T13:20:13Z</time>
      </trkpt>
      <trkpt lat="44.11855" lon="3.24457">
        <ele>444</ele>
        <time>2019-11-12T13:20:14Z</time>
      </trkpt>
      <trkpt lat="44.1187" lon="3.24446">
        <ele>440</ele>
        <time>2019-11-12T13:20:18Z</time>
      </trkpt>
      <trkpt lat="44.11875" lon="3.24445">
        <ele>438</ele>
        <time>2019-11-12T13:20:19Z</time>
      </trkpt>
      <trkpt lat="44.11872" lon="3.24466">
        <ele>434</ele>
        <time>2019-11-12T13:20:23Z</time>
      </trkpt>
      <trkpt lat="44.11872" lon="3.2447">
        <ele>433</ele>
        <time>2019-11-12T13:20:23Z</time>
      </trkpt>
      <trkpt lat="44.11875" lon="3.24471">
        <ele>432</ele>
        <time>2019-11-12T13:20:24Z</time>
      </trkpt>
      <trkpt lat="44.11888" lon="3.24464">
        <ele>429</ele>
        <time>2019-11-12T13:20:27Z</time>
      </trkpt>
      <trkpt lat="44.11892" lon="3.24458">
        <ele>428</ele>
        <time>2019-11-12T13:20:29Z</time>
      </trkpt>
      <trkpt lat="44.11895" lon="3.24459">
        <ele>427</ele>
        <time>2019-11-12T13:20:29Z</time>
      </trkpt>
      <trkpt lat="44.11896" lon="3.24464">
        <ele>425</ele>
        <time>2019-11-12T13:20:30Z</time>
      </trkpt>
      <trkpt lat="44.11888" lon="3.24478">
        <ele>426</ele>
        <time>2019-11-12T13:20:33Z</time>
      </trkpt>
      <trkpt lat="44.11871" lon="3.24499">
        <ele>426</ele>
        <time>2019-11-12T13:20:39Z</time>
      </trkpt>
      <trkpt lat="44.11867" lon="3.24515">
        <ele>425</ele>
        <time>2019-11-12T13:20:41Z</time>
      </trkpt>
      <trkpt lat="44.11871" lon="3.24514">
        <ele>424</ele>
        <time>2019-11-12T13:20:42Z</time>
      </trkpt>
      <trkpt lat="44.11904" lon="3.24475">
        <ele>421</ele>
        <time>2019-11-12T13:20:53Z</time>
      </trkpt>
      <trkpt lat="44.11907" lon="3.24474">
        <ele>420</ele>
        <time>2019-11-12T13:20:53Z</time>
      </trkpt>
      <trkpt lat="44.11931" lon="3.24493">
        <ele>418</ele>
        <time>2019-11-12T13:21:00Z</time>
      </trkpt>
      <trkpt lat="44.1195" lon="3.24499">
        <ele>423</ele>
        <time>2019-11-12T13:21:04Z</time>
      </trkpt>
      <trkpt lat="44.11952" lon="3.24504">
        <ele>424</ele>
        <time>2019-11-12T13:21:05Z</time>
      </trkpt>
      <trkpt lat="44.1195" lon="3.24538">
        <ele>426</ele>
        <time>2019-11-12T13:21:11Z</time>
      </trkpt>
      <trkpt lat="44.1196" lon="3.24549">
        <ele>430</ele>
        <time>2019-11-12T13:21:14Z</time>
      </trkpt>
      <trkpt lat="44.11958" lon="3.24555">
        <ele>430</ele>
        <time>2019-11-12T13:21:15Z</time>
      </trkpt>
      <trkpt lat="44.11962" lon="3.24559">
        <ele>431</ele>
        <time>2019-11-12T13:21:16Z</time>
      </trkpt>
      <trkpt lat="44.11958" lon="3.24555">
        <ele>430</ele>
        <time>2019-11-12T13:21:17Z</time>
      </trkpt>
      <trkpt lat="44.11951" lon="3.24566">
        <ele>428</ele>
        <time>2019-11-12T13:21:20Z</time>
      </trkpt>
      <trkpt lat="44.11938" lon="3.24578">
        <ele>425</ele>
        <time>2019-11-12T13:21:23Z</time>
      </trkpt>
      <trkpt lat="44.11902" lon="3.24595">
        <ele>421</ele>
        <time>2019-11-12T13:21:32Z</time>
      </trkpt>
      <trkpt lat="44.11858" lon="3.2461">
        <ele>423</ele>
        <time>2019-11-12T13:21:43Z</time>
      </trkpt>
      <trkpt lat="44.11806" lon="3.24616">
        <ele>423</ele>
        <time>2019-11-12T13:21:55Z</time>
      </trkpt>
      <trkpt lat="44.11771" lon="3.24624">
        <ele>424</ele>
        <time>2019-11-12T13:22:03Z</time>
      </trkpt>
      <trkpt lat="44.11754" lon="3.24632">
        <ele>424</ele>
        <time>2019-11-12T13:22:08Z</time>
      </trkpt>
      <trkpt lat="44.11724" lon="3.24652">
        <ele>423</ele>
        <time>2019-11-12T13:22:15Z</time>
      </trkpt>
      <trkpt lat="44.11662" lon="3.24707">
        <ele>423</ele>
        <time>2019-11-12T13:22:32Z</time>
      </trkpt>
      <trkpt lat="44.11554" lon="3.24841">
        <ele>431</ele>
        <time>2019-11-12T13:23:06Z</time>
      </trkpt>
      <trkpt lat="44.115" lon="3.24922">
        <ele>436</ele>
        <time>2019-11-12T13:23:25Z</time>
      </trkpt>
      <trkpt lat="44.11488" lon="3.24938">
        <ele>442</ele>
        <time>2019-11-12T13:23:29Z</time>
      </trkpt>
      <trkpt lat="44.11474" lon="3.24951">
        <ele>446</ele>
        <time>2019-11-12T13:23:33Z</time>
      </trkpt>
      <trkpt lat="44.11449" lon="3.2496">
        <ele>443</ele>
        <time>2019-11-12T13:23:39Z</time>
      </trkpt>
      <trkpt lat="44.11425" lon="3.24964">
        <ele>438</ele>
        <time>2019-11-12T13:23:44Z</time>
      </trkpt>
      <trkpt lat="44.1139" lon="3.24962">
        <ele>434</ele>
        <time>2019-11-12T13:23:52Z</time>
      </trkpt>
      <trkpt lat="44.11388" lon="3.24969">
        <ele>435</ele>
        <time>2019-11-12T13:23:54Z</time>
      </trkpt>
      <trkpt lat="44.11383" lon="3.24972">
        <ele>436</ele>
        <time>2019-11-12T13:23:55Z</time>
      </trkpt>
      <trkpt lat="44.11295" lon="3.24988">
        <ele>431</ele>
        <time>2019-11-12T13:24:16Z</time>
      </trkpt>
      <trkpt lat="44.11238" lon="3.25006">
        <ele>427</ele>
        <time>2019-11-12T13:24:29Z</time>
      </trkpt>
      <trkpt lat="44.11214" lon="3.25021">
        <ele>427</ele>
        <time>2019-11-12T13:24:36Z</time>
      </trkpt>
      <trkpt lat="44.11211" lon="3.25025">
        <ele>427</ele>
        <time>2019-11-12T13:24:36Z</time>
      </trkpt>
      <trkpt lat="44.11212" lon="3.25034">
        <ele>428</ele>
        <time>2019-11-12T13:24:38Z</time>
      </trkpt>
      <trkpt lat="44.11213" lon="3.2503">
        <ele>428</ele>
        <time>2019-11-12T13:24:39Z</time>
      </trkpt>
      <trkpt lat="44.11219" lon="3.25031">
        <ele>429</ele>
        <time>2019-11-12T13:24:40Z</time>
      </trkpt>
      <trkpt lat="44.11231" lon="3.25026">
        <ele>430</ele>
        <time>2019-11-12T13:24:43Z</time>
      </trkpt>
      <trkpt lat="44.11262" lon="3.25026">
        <ele>434</ele>
        <time>2019-11-12T13:24:50Z</time>
      </trkpt>
      <trkpt lat="44.11291" lon="3.25022">
        <ele>439</ele>
        <time>2019-11-12T13:24:57Z</time>
      </trkpt>
      <trkpt lat="44.11314" lon="3.25022">
        <ele>442</ele>
        <time>2019-11-12T13:25:02Z</time>
      </trkpt>
      <trkpt lat="44.11352" lon="3.25033">
        <ele>453</ele>
        <time>2019-11-12T13:25:12Z</time>
      </trkpt>
      <trkpt lat="44.11364" lon="3.25024">
        <ele>451</ele>
        <time>2019-11-12T13:25:15Z</time>
      </trkpt>
      <trkpt lat="44.11369" lon="3.25023">
        <ele>451</ele>
        <time>2019-11-12T13:25:16Z</time>
      </trkpt>
      <trkpt lat="44.11371" lon="3.25026">
        <ele>452</ele>
        <time>2019-11-12T13:25:17Z</time>
      </trkpt>
      <trkpt lat="44.1137" lon="3.25031">
        <ele>455</ele>
        <time>2019-11-12T13:25:17Z</time>
      </trkpt>
      <trkpt lat="44.11362" lon="3.25039">
        <ele>458</ele>
        <time>2019-11-12T13:25:20Z</time>
      </trkpt>
      <trkpt lat="44.11318" lon="3.25042">
        <ele>451</ele>
        <time>2019-11-12T13:25:30Z</time>
      </trkpt>
      <trkpt lat="44.11307" lon="3.25044">
        <ele>449</ele>
        <time>2019-11-12T13:25:33Z</time>
      </trkpt>
      <trkpt lat="44.11283" lon="3.25054">
        <ele>447</ele>
        <time>2019-11-12T13:25:38Z</time>
      </trkpt>
      <trkpt lat="44.11257" lon="3.25055">
        <ele>440</ele>
        <time>2019-11-12T13:25:45Z</time>
      </trkpt>
      <trkpt lat="44.11242" lon="3.2506">
        <ele>438</ele>
        <time>2019-11-12T13:25:48Z</time>
      </trkpt>
      <trkpt lat="44.11216" lon="3.25083">
        <ele>435</ele>
        <time>2019-11-12T13:25:55Z</time>
      </trkpt>
      <trkpt lat="44.11213" lon="3.25101">
        <ele>435</ele>
        <time>2019-11-12T13:25:58Z</time>
      </trkpt>
      <trkpt lat="44.11216" lon="3.25129">
        <ele>435</ele>
        <time>2019-11-12T13:26:03Z</time>
      </trkpt>
      <trkpt lat="44.1122" lon="3.25135">
        <ele>436</ele>
        <time>2019-11-12T13:26:05Z</time>
      </trkpt>
      <trkpt lat="44.1124" lon="3.25153">
        <ele>440</ele>
        <time>2019-11-12T13:26:10Z</time>
      </trkpt>
      <trkpt lat="44.11258" lon="3.2515">
        <ele>446</ele>
        <time>2019-11-12T13:26:14Z</time>
      </trkpt>
      <trkpt lat="44.1127" lon="3.25154">
        <ele>452</ele>
        <time>2019-11-12T13:26:17Z</time>
      </trkpt>
      <trkpt lat="44.11282" lon="3.2517">
        <ele>458</ele>
        <time>2019-11-12T13:26:21Z</time>
      </trkpt>
      <trkpt lat="44.11288" lon="3.25193">
        <ele>461</ele>
        <time>2019-11-12T13:26:25Z</time>
      </trkpt>
      <trkpt lat="44.11283" lon="3.25234">
        <ele>455</ele>
        <time>2019-11-12T13:26:32Z</time>
      </trkpt>
      <trkpt lat="44.11288" lon="3.25244">
        <ele>458</ele>
        <time>2019-11-12T13:26:34Z</time>
      </trkpt>
      <trkpt lat="44.11295" lon="3.25248">
        <ele>462</ele>
        <time>2019-11-12T13:26:36Z</time>
      </trkpt>
      <trkpt lat="44.11303" lon="3.25262">
        <ele>466</ele>
        <time>2019-11-12T13:26:39Z</time>
      </trkpt>
      <trkpt lat="44.11308" lon="3.25283">
        <ele>468</ele>
        <time>2019-11-12T13:26:43Z</time>
      </trkpt>
      <trkpt lat="44.1131" lon="3.25301">
        <ele>468</ele>
        <time>2019-11-12T13:26:46Z</time>
      </trkpt>
      <trkpt lat="44.11307" lon="3.25312">
        <ele>466</ele>
        <time>2019-11-12T13:26:48Z</time>
      </trkpt>
      <trkpt lat="44.11298" lon="3.25329">
        <ele>460</ele>
        <time>2019-11-12T13:26:51Z</time>
      </trkpt>
      <trkpt lat="44.11298" lon="3.25344">
        <ele>459</ele>
        <time>2019-11-12T13:26:54Z</time>
      </trkpt>
      <trkpt lat="44.11306" lon="3.25385">
        <ele>463</ele>
        <time>2019-11-12T13:27:01Z</time>
      </trkpt>
      <trkpt lat="44.11317" lon="3.25407">
        <ele>469</ele>
        <time>2019-11-12T13:27:05Z</time>
      </trkpt>
      <trkpt lat="44.11319" lon="3.25421">
        <ele>470</ele>
        <time>2019-11-12T13:27:08Z</time>
      </trkpt>
      <trkpt lat="44.11302" lon="3.25521">
        <ele>473</ele>
        <time>2019-11-12T13:27:25Z</time>
      </trkpt>
      <trkpt lat="44.11284" lon="3.25557">
        <ele>467</ele>
        <time>2019-11-12T13:27:32Z</time>
      </trkpt>
      <trkpt lat="44.11284" lon="3.25582">
        <ele>468</ele>
        <time>2019-11-12T13:27:37Z</time>
      </trkpt>
      <trkpt lat="44.1129" lon="3.25599">
        <ele>470</ele>
        <time>2019-11-12T13:27:40Z</time>
      </trkpt>
      <trkpt lat="44.11316" lon="3.25653">
        <ele>479</ele>
        <time>2019-11-12T13:27:51Z</time>
      </trkpt>
      <trkpt lat="44.11319" lon="3.25666">
        <ele>479</ele>
        <time>2019-11-12T13:27:53Z</time>
      </trkpt>
      <trkpt lat="44.1132" lon="3.25702">
        <ele>480</ele>
        <time>2019-11-12T13:27:59Z</time>
      </trkpt>
      <trkpt lat="44.11326" lon="3.25728">
        <ele>483</ele>
        <time>2019-11-12T13:28:04Z</time>
      </trkpt>
      <trkpt lat="44.11325" lon="3.25756">
        <ele>484</ele>
        <time>2019-11-12T13:28:08Z</time>
      </trkpt>
      <trkpt lat="44.11321" lon="3.25776">
        <ele>482</ele>
        <time>2019-11-12T13:28:12Z</time>
      </trkpt>
      <trkpt lat="44.11322" lon="3.25794">
        <ele>483</ele>
        <time>2019-11-12T13:28:15Z</time>
      </trkpt>
      <trkpt lat="44.11326" lon="3.25808">
        <ele>484</ele>
        <time>2019-11-12T13:28:17Z</time>
      </trkpt>
      <trkpt lat="44.11334" lon="3.25824">
        <ele>487</ele>
        <time>2019-11-12T13:28:21Z</time>
      </trkpt>
      <trkpt lat="44.11342" lon="3.25834">
        <ele>490</ele>
        <time>2019-11-12T13:28:23Z</time>
      </trkpt>
      <trkpt lat="44.11373" lon="3.25863">
        <ele>504</ele>
        <time>2019-11-12T13:28:32Z</time>
      </trkpt>
      <trkpt lat="44.11378" lon="3.25873">
        <ele>507</ele>
        <time>2019-11-12T13:28:34Z</time>
      </trkpt>
      <trkpt lat="44.11377" lon="3.25886">
        <ele>507</ele>
        <time>2019-11-12T13:28:36Z</time>
      </trkpt>
      <trkpt lat="44.1134" lon="3.25926">
        <ele>498</ele>
        <time>2019-11-12T13:28:47Z</time>
      </trkpt>
      <trkpt lat="44.11312" lon="3.2595">
        <ele>500</ele>
        <time>2019-11-12T13:28:55Z</time>
      </trkpt>
      <trkpt lat="44.1128" lon="3.25962">
        <ele>499</ele>
        <time>2019-11-12T13:29:02Z</time>
      </trkpt>
      <trkpt lat="44.11249" lon="3.25982">
        <ele>501</ele>
        <time>2019-11-12T13:29:10Z</time>
      </trkpt>
      <trkpt lat="44.11223" lon="3.26004">
        <ele>505</ele>
        <time>2019-11-12T13:29:17Z</time>
      </trkpt>
      <trkpt lat="44.11205" lon="3.26016">
        <ele>508</ele>
        <time>2019-11-12T13:29:22Z</time>
      </trkpt>
      <trkpt lat="44.11179" lon="3.26023">
        <ele>507</ele>
        <time>2019-11-12T13:29:28Z</time>
      </trkpt>
      <trkpt lat="44.1116" lon="3.26031">
        <ele>507</ele>
        <time>2019-11-12T13:29:33Z</time>
      </trkpt>
      <trkpt lat="44.11093" lon="3.26067">
        <ele>506</ele>
        <time>2019-11-12T13:29:50Z</time>
      </trkpt>
      <trkpt lat="44.11078" lon="3.26079">
        <ele>507</ele>
        <time>2019-11-12T13:29:54Z</time>
      </trkpt>
      <trkpt lat="44.11063" lon="3.26099">
        <ele>508</ele>
        <time>2019-11-12T13:29:59Z</time>
      </trkpt>
      <trkpt lat="44.1105" lon="3.26126">
        <ele>510</ele>
        <time>2019-11-12T13:30:04Z</time>
      </trkpt>
      <trkpt lat="44.11043" lon="3.2615">
        <ele>513</ele>
        <time>2019-11-12T13:30:08Z</time>
      </trkpt>
      <trkpt lat="44.11035" lon="3.26196">
        <ele>520</ele>
        <time>2019-11-12T13:30:16Z</time>
      </trkpt>
      <trkpt lat="44.11019" lon="3.26252">
        <ele>527</ele>
        <time>2019-11-12T13:30:26Z</time>
      </trkpt>
      <trkpt lat="44.10955" lon="3.26331">
        <ele>532</ele>
        <time>2019-11-12T13:30:46Z</time>
      </trkpt>
      <trkpt lat="44.10944" lon="3.26342">
        <ele>533</ele>
        <time>2019-11-12T13:30:50Z</time>
      </trkpt>
      <trkpt lat="44.10918" lon="3.2636">
        <ele>531</ele>
        <time>2019-11-12T13:30:56Z</time>
      </trkpt>
      <trkpt lat="44.10893" lon="3.26384">
        <ele>534</ele>
        <time>2019-11-12T13:31:03Z</time>
      </trkpt>
      <trkpt lat="44.10847" lon="3.26445">
        <ele>546</ele>
        <time>2019-11-12T13:31:18Z</time>
      </trkpt>
      <trkpt lat="44.10832" lon="3.26449">
        <ele>544</ele>
        <time>2019-11-12T13:31:22Z</time>
      </trkpt>
      <trkpt lat="44.10749" lon="3.26448">
        <ele>536</ele>
        <time>2019-11-12T13:31:41Z</time>
      </trkpt>
      <trkpt lat="44.1073" lon="3.26461">
        <ele>533</ele>
        <time>2019-11-12T13:31:46Z</time>
      </trkpt>
      <trkpt lat="44.10721" lon="3.26472">
        <ele>535</ele>
        <time>2019-11-12T13:31:49Z</time>
      </trkpt>
      <trkpt lat="44.10733" lon="3.26478">
        <ele>542</ele>
        <time>2019-11-12T13:31:52Z</time>
      </trkpt>
      <trkpt lat="44.10748" lon="3.2648">
        <ele>548</ele>
        <time>2019-11-12T13:31:55Z</time>
      </trkpt>
      <trkpt lat="44.10766" lon="3.26488">
        <ele>553</ele>
        <time>2019-11-12T13:32:00Z</time>
      </trkpt>
      <trkpt lat="44.10776" lon="3.26487">
        <ele>553</ele>
        <time>2019-11-12T13:32:02Z</time>
      </trkpt>
      <trkpt lat="44.10784" lon="3.26481">
        <ele>552</ele>
        <time>2019-11-12T13:32:04Z</time>
      </trkpt>
      <trkpt lat="44.10821" lon="3.26493">
        <ele>558</ele>
        <time>2019-11-12T13:32:13Z</time>
      </trkpt>
      <trkpt lat="44.10834" lon="3.26508">
        <ele>563</ele>
        <time>2019-11-12T13:32:17Z</time>
      </trkpt>
      <trkpt lat="44.10836" lon="3.26523">
        <ele>568</ele>
        <time>2019-11-12T13:32:20Z</time>
      </trkpt>
      <trkpt lat="44.10833" lon="3.26532">
        <ele>570</ele>
        <time>2019-11-12T13:32:21Z</time>
      </trkpt>
      <trkpt lat="44.10826" lon="3.26542">
        <ele>572</ele>
        <time>2019-11-12T13:32:24Z</time>
      </trkpt>
      <trkpt lat="44.10796" lon="3.26566">
        <ele>576</ele>
        <time>2019-11-12T13:32:32Z</time>
      </trkpt>
      <trkpt lat="44.1079" lon="3.26588">
        <ele>580</ele>
        <time>2019-11-12T13:32:36Z</time>
      </trkpt>
      <trkpt lat="44.10783" lon="3.26602">
        <ele>579</ele>
        <time>2019-11-12T13:32:39Z</time>
      </trkpt>
      <trkpt lat="44.10782" lon="3.26614">
        <ele>579</ele>
        <time>2019-11-12T13:32:41Z</time>
      </trkpt>
      <trkpt lat="44.10795" lon="3.26632">
        <ele>581</ele>
        <time>2019-11-12T13:32:45Z</time>
      </trkpt>
      <trkpt lat="44.10791" lon="3.26644">
        <ele>580</ele>
        <time>2019-11-12T13:32:47Z</time>
      </trkpt>
      <trkpt lat="44.10791" lon="3.26652">
        <ele>580</ele>
        <time>2019-11-12T13:32:48Z</time>
      </trkpt>
      <trkpt lat="44.10804" lon="3.26671">
        <ele>584</ele>
        <time>2019-11-12T13:32:53Z</time>
      </trkpt>
      <trkpt lat="44.10828" lon="3.2668">
        <ele>591</ele>
        <time>2019-11-12T13:32:59Z</time>
      </trkpt>
      <trkpt lat="44.10847" lon="3.26694">
        <ele>596</ele>
        <time>2019-11-12T13:33:04Z</time>
      </trkpt>
      <trkpt lat="44.10857" lon="3.26724">
        <ele>600</ele>
        <time>2019-11-12T13:33:09Z</time>
      </trkpt>
      <trkpt lat="44.10859" lon="3.26764">
        <ele>601</ele>
        <time>2019-11-12T13:33:16Z</time>
      </trkpt>
      <trkpt lat="44.10862" lon="3.26765">
        <ele>601</ele>
        <time>2019-11-12T13:33:17Z</time>
      </trkpt>
      <trkpt lat="44.1087" lon="3.26758">
        <ele>604</ele>
        <time>2019-11-12T13:33:19Z</time>
      </trkpt>
      <trkpt lat="44.10876" lon="3.26759">
        <ele>605</ele>
        <time>2019-11-12T13:33:20Z</time>
      </trkpt>
      <trkpt lat="44.10895" lon="3.2677">
        <ele>610</ele>
        <time>2019-11-12T13:33:25Z</time>
      </trkpt>
      <trkpt lat="44.10907" lon="3.26805">
        <ele>611</ele>
        <time>2019-11-12T13:33:32Z</time>
      </trkpt>
      <trkpt lat="44.10921" lon="3.26819">
        <ele>615</ele>
        <time>2019-11-12T13:33:36Z</time>
      </trkpt>
      <trkpt lat="44.10936" lon="3.26866">
        <ele>619</ele>
        <time>2019-11-12T13:33:44Z</time>
      </trkpt>
      <trkpt lat="44.10956" lon="3.26899">
        <ele>624</ele>
        <time>2019-11-12T13:33:52Z</time>
      </trkpt>
      <trkpt lat="44.10956" lon="3.26909">
        <ele>623</ele>
        <time>2019-11-12T13:33:53Z</time>
      </trkpt>
      <trkpt lat="44.10949" lon="3.26924">
        <ele>620</ele>
        <time>2019-11-12T13:33:56Z</time>
      </trkpt>
      <trkpt lat="44.10933" lon="3.26931">
        <ele>613</ele>
        <time>2019-11-12T13:34:00Z</time>
      </trkpt>
      <trkpt lat="44.10925" lon="3.26938">
        <ele>610</ele>
        <time>2019-11-12T13:34:02Z</time>
      </trkpt>
      <trkpt lat="44.10934" lon="3.26953">
        <ele>614</ele>
        <time>2019-11-12T13:34:06Z</time>
      </trkpt>
      <trkpt lat="44.10937" lon="3.26964">
        <ele>616</ele>
        <time>2019-11-12T13:34:08Z</time>
      </trkpt>
      <trkpt lat="44.10936" lon="3.26984">
        <ele>616</ele>
        <time>2019-11-12T13:34:11Z</time>
      </trkpt>
      <trkpt lat="44.10946" lon="3.27015">
        <ele>620</ele>
        <time>2019-11-12T13:34:17Z</time>
      </trkpt>
      <trkpt lat="44.1094" lon="3.27164">
        <ele>597</ele>
        <time>2019-11-12T13:34:42Z</time>
      </trkpt>
      <trkpt lat="44.10946" lon="3.27182">
        <ele>598</ele>
        <time>2019-11-12T13:34:45Z</time>
      </trkpt>
      <trkpt lat="44.10979" lon="3.27206">
        <ele>615</ele>
        <time>2019-11-12T13:34:54Z</time>
      </trkpt>
      <trkpt lat="44.10969" lon="3.27262">
        <ele>603</ele>
        <time>2019-11-12T13:35:03Z</time>
      </trkpt>
      <trkpt lat="44.10967" lon="3.27301">
        <ele>601</ele>
        <time>2019-11-12T13:35:10Z</time>
      </trkpt>
      <trkpt lat="44.10972" lon="3.27307">
        <ele>604</ele>
        <time>2019-11-12T13:35:11Z</time>
      </trkpt>
      <trkpt lat="44.10974" lon="3.27322">
        <ele>605</ele>
        <time>2019-11-12T13:35:14Z</time>
      </trkpt>
      <trkpt lat="44.10987" lon="3.2735">
        <ele>613</ele>
        <time>2019-11-12T13:35:20Z</time>
      </trkpt>
      <trkpt lat="44.10981" lon="3.274">
        <ele>614</ele>
        <time>2019-11-12T13:35:28Z</time>
      </trkpt>
      <trkpt lat="44.10982" lon="3.27417">
        <ele>616</ele>
        <time>2019-11-12T13:35:31Z</time>
      </trkpt>
      <trkpt lat="44.1099" lon="3.27433">
        <ele>618</ele>
        <time>2019-11-12T13:35:34Z</time>
      </trkpt>
      <trkpt lat="44.10998" lon="3.27442">
        <ele>620</ele>
        <time>2019-11-12T13:35:37Z</time>
      </trkpt>
      <trkpt lat="44.11011" lon="3.27446">
        <ele>625</ele>
        <time>2019-11-12T13:35:40Z</time>
      </trkpt>
      <trkpt lat="44.11021" lon="3.27456">
        <ele>629</ele>
        <time>2019-11-12T13:35:43Z</time>
      </trkpt>
      <trkpt lat="44.11048" lon="3.2747">
        <ele>640</ele>
        <time>2019-11-12T13:35:49Z</time>
      </trkpt>
      <trkpt lat="44.11049" lon="3.27474">
        <ele>640</ele>
        <time>2019-11-12T13:35:50Z</time>
      </trkpt>
      <trkpt lat="44.1105" lon="3.27487">
        <ele>639</ele>
        <time>2019-11-12T13:35:52Z</time>
      </trkpt>
      <trkpt lat="44.11043" lon="3.27511">
        <ele>636</ele>
        <time>2019-11-12T13:35:57Z</time>
      </trkpt>
      <trkpt lat="44.11052" lon="3.27526">
        <ele>640</ele>
        <time>2019-11-12T13:36:00Z</time>
      </trkpt>
      <trkpt lat="44.1105" lon="3.27542">
        <ele>641</ele>
        <time>2019-11-12T13:36:03Z</time>
      </trkpt>
      <trkpt lat="44.11053" lon="3.27552">
        <ele>642</ele>
        <time>2019-11-12T13:36:04Z</time>
      </trkpt>
      <trkpt lat="44.1105" lon="3.27564">
        <ele>642</ele>
        <time>2019-11-12T13:36:07Z</time>
      </trkpt>
      <trkpt lat="44.11054" lon="3.27577">
        <ele>644</ele>
        <time>2019-11-12T13:36:09Z</time>
      </trkpt>
      <trkpt lat="44.11051" lon="3.27598">
        <ele>645</ele>
        <time>2019-11-12T13:36:13Z</time>
      </trkpt>
      <trkpt lat="44.11054" lon="3.27602">
        <ele>646</ele>
        <time>2019-11-12T13:36:13Z</time>
      </trkpt>
      <trkpt lat="44.11057" lon="3.27631">
        <ele>649</ele>
        <time>2019-11-12T13:36:18Z</time>
      </trkpt>
      <trkpt lat="44.11045" lon="3.27685">
        <ele>654</ele>
        <time>2019-11-12T13:36:28Z</time>
      </trkpt>
      <trkpt lat="44.11057" lon="3.2769">
        <ele>654</ele>
        <time>2019-11-12T13:36:31Z</time>
      </trkpt>
      <trkpt lat="44.11071" lon="3.27711">
        <ele>654</ele>
        <time>2019-11-12T13:36:36Z</time>
      </trkpt>
      <trkpt lat="44.11076" lon="3.27733">
        <ele>653</ele>
        <time>2019-11-12T13:36:39Z</time>
      </trkpt>
      <trkpt lat="44.11079" lon="3.27764">
        <ele>655</ele>
        <time>2019-11-12T13:36:45Z</time>
      </trkpt>
      <trkpt lat="44.11087" lon="3.27793">
        <ele>658</ele>
        <time>2019-11-12T13:36:50Z</time>
      </trkpt>
      <trkpt lat="44.11089" lon="3.27823">
        <ele>661</ele>
        <time>2019-11-12T13:36:55Z</time>
      </trkpt>
      <trkpt lat="44.11093" lon="3.27829">
        <ele>662</ele>
        <time>2019-11-12T13:36:56Z</time>
      </trkpt>
      <trkpt lat="44.1113" lon="3.27849">
        <ele>667</ele>
        <time>2019-11-12T13:37:06Z</time>
      </trkpt>
      <trkpt lat="44.11161" lon="3.27845">
        <ele>667</ele>
        <time>2019-11-12T13:37:13Z</time>
      </trkpt>
      <trkpt lat="44.11191" lon="3.27859">
        <ele>673</ele>
        <time>2019-11-12T13:37:20Z</time>
      </trkpt>
      <trkpt lat="44.11211" lon="3.27854">
        <ele>676</ele>
        <time>2019-11-12T13:37:25Z</time>
      </trkpt>
      <trkpt lat="44.11225" lon="3.27846">
        <ele>677</ele>
        <time>2019-11-12T13:37:29Z</time>
      </trkpt>
      <trkpt lat="44.11233" lon="3.27846">
        <ele>678</ele>
        <time>2019-11-12T13:37:30Z</time>
      </trkpt>
      <trkpt lat="44.11246" lon="3.2785">
        <ele>681</ele>
        <time>2019-11-12T13:37:34Z</time>
      </trkpt>
      <trkpt lat="44.11271" lon="3.27866">
        <ele>687</ele>
        <time>2019-11-12T13:37:40Z</time>
      </trkpt>
      <trkpt lat="44.11306" lon="3.27876">
        <ele>693</ele>
        <time>2019-11-12T13:37:48Z</time>
      </trkpt>
      <trkpt lat="44.11359" lon="3.27914">
        <ele>701</ele>
        <time>2019-11-12T13:38:02Z</time>
      </trkpt>
      <trkpt lat="44.11374" lon="3.27921">
        <ele>703</ele>
        <time>2019-11-12T13:38:06Z</time>
      </trkpt>
      <trkpt lat="44.11382" lon="3.27938">
        <ele>707</ele>
        <time>2019-11-12T13:38:09Z</time>
      </trkpt>
      <trkpt lat="44.11388" lon="3.27945">
        <ele>708</ele>
        <time>2019-11-12T13:38:11Z</time>
      </trkpt>
      <trkpt lat="44.11403" lon="3.27954">
        <ele>710</ele>
        <time>2019-11-12T13:38:15Z</time>
      </trkpt>
      <trkpt lat="44.11412" lon="3.27956">
        <ele>710</ele>
        <time>2019-11-12T13:38:17Z</time>
      </trkpt>
      <trkpt lat="44.11426" lon="3.27967">
        <ele>712</ele>
        <time>2019-11-12T13:38:21Z</time>
      </trkpt>
      <trkpt lat="44.11443" lon="3.2797">
        <ele>715</ele>
        <time>2019-11-12T13:38:25Z</time>
      </trkpt>
      <trkpt lat="44.11459" lon="3.27979">
        <ele>718</ele>
        <time>2019-11-12T13:38:29Z</time>
      </trkpt>
      <trkpt lat="44.1149" lon="3.28049">
        <ele>719</ele>
        <time>2019-11-12T13:38:43Z</time>
      </trkpt>
      <trkpt lat="44.11498" lon="3.28056">
        <ele>718</ele>
        <time>2019-11-12T13:38:45Z</time>
      </trkpt>
      <trkpt lat="44.11521" lon="3.28066">
        <ele>720</ele>
        <time>2019-11-12T13:38:50Z</time>
      </trkpt>
      <trkpt lat="44.11554" lon="3.28073">
        <ele>723</ele>
        <time>2019-11-12T13:38:58Z</time>
      </trkpt>
      <trkpt lat="44.11613" lon="3.28075">
        <ele>728</ele>
        <time>2019-11-12T13:39:12Z</time>
      </trkpt>
      <trkpt lat="44.11627" lon="3.28082">
        <ele>727</ele>
        <time>2019-11-12T13:39:16Z</time>
      </trkpt>
      <trkpt lat="44.11654" lon="3.28107">
        <ele>731</ele>
        <time>2019-11-12T13:39:23Z</time>
      </trkpt>
      <trkpt lat="44.11678" lon="3.28125">
        <ele>735</ele>
        <time>2019-11-12T13:39:29Z</time>
      </trkpt>
      <trkpt lat="44.11694" lon="3.28144">
        <ele>738</ele>
        <time>2019-11-12T13:39:34Z</time>
      </trkpt>
      <trkpt lat="44.11703" lon="3.28197">
        <ele>743</ele>
        <time>2019-11-12T13:39:44Z</time>
      </trkpt>
      <trkpt lat="44.11688" lon="3.28249">
        <ele>748</ele>
        <time>2019-11-12T13:39:53Z</time>
      </trkpt>
      <trkpt lat="44.1168" lon="3.28296">
        <ele>750</ele>
        <time>2019-11-12T13:40:01Z</time>
      </trkpt>
      <trkpt lat="44.11673" lon="3.28321">
        <ele>750</ele>
        <time>2019-11-12T13:40:06Z</time>
      </trkpt>
      <trkpt lat="44.11637" lon="3.28377">
        <ele>754</ele>
        <time>2019-11-12T13:40:18Z</time>
      </trkpt>
      <trkpt lat="44.1161" lon="3.28413">
        <ele>757</ele>
        <time>2019-11-12T13:40:27Z</time>
      </trkpt>
      <trkpt lat="44.11575" lon="3.28477">
        <ele>763</ele>
        <time>2019-11-12T13:40:40Z</time>
      </trkpt>
      <trkpt lat="44.11553" lon="3.28508">
        <ele>768</ele>
        <time>2019-11-12T13:40:48Z</time>
      </trkpt>
      <trkpt lat="44.11519" lon="3.28624">
        <ele>784</ele>
        <time>2019-11-12T13:41:09Z</time>
      </trkpt>
      <trkpt lat="44.11505" lon="3.28651">
        <ele>789</ele>
        <time>2019-11-12T13:41:14Z</time>
      </trkpt>
      <trkpt lat="44.11496" lon="3.28675">
        <ele>792</ele>
        <time>2019-11-12T13:41:19Z</time>
      </trkpt>
      <trkpt lat="44.11479" lon="3.28698">
        <ele>793</ele>
        <time>2019-11-12T13:41:24Z</time>
      </trkpt>
      <trkpt lat="44.11472" lon="3.28716">
        <ele>794</ele>
        <time>2019-11-12T13:41:28Z</time>
      </trkpt>
      <trkpt lat="44.11457" lon="3.28803">
        <ele>795</ele>
        <time>2019-11-12T13:41:43Z</time>
      </trkpt>
      <trkpt lat="44.11448" lon="3.2884">
        <ele>794</ele>
        <time>2019-11-12T13:41:49Z</time>
      </trkpt>
      <trkpt lat="44.11431" lon="3.28868">
        <ele>792</ele>
        <time>2019-11-12T13:41:55Z</time>
      </trkpt>
      <trkpt lat="44.11402" lon="3.28903">
        <ele>791</ele>
        <time>2019-11-12T13:42:04Z</time>
      </trkpt>
      <trkpt lat="44.11393" lon="3.28924">
        <ele>791</ele>
        <time>2019-11-12T13:42:09Z</time>
      </trkpt>
      <trkpt lat="44.11388" lon="3.28972">
        <ele>791</ele>
        <time>2019-11-12T13:42:17Z</time>
      </trkpt>
      <trkpt lat="44.11389" lon="3.2901">
        <ele>792</ele>
        <time>2019-11-12T13:42:23Z</time>
      </trkpt>
      <trkpt lat="44.11387" lon="3.29039">
        <ele>792</ele>
        <time>2019-11-12T13:42:28Z</time>
      </trkpt>
      <trkpt lat="44.11383" lon="3.29052">
        <ele>792</ele>
        <time>2019-11-12T13:42:30Z</time>
      </trkpt>
      <trkpt lat="44.11377" lon="3.29058">
        <ele>792</ele>
        <time>2019-11-12T13:42:32Z</time>
      </trkpt>
      <trkpt lat="44.11372" lon="3.29073">
        <ele>792</ele>
        <time>2019-11-12T13:42:35Z</time>
      </trkpt>
      <trkpt lat="44.11374" lon="3.29063">
        <ele>792</ele>
        <time>2019-11-12T13:42:37Z</time>
      </trkpt>
      <trkpt lat="44.11383" lon="3.29052">
        <ele>792</ele>
        <time>2019-11-12T13:42:39Z</time>
      </trkpt>
      <trkpt lat="44.11387" lon="3.29039">
        <ele>792</ele>
        <time>2019-11-12T13:42:42Z</time>
      </trkpt>
      <trkpt lat="44.11389" lon="3.2901">
        <ele>792</ele>
        <time>2019-11-12T13:42:47Z</time>
      </trkpt>
      <trkpt lat="44.11388" lon="3.28972">
        <ele>791</ele>
        <time>2019-11-12T13:42:53Z</time>
      </trkpt>
      <trkpt lat="44.11393" lon="3.28924">
        <ele>791</ele>
        <time>2019-11-12T13:43:01Z</time>
      </trkpt>
      <trkpt lat="44.11402" lon="3.28903">
        <ele>791</ele>
        <time>2019-11-12T13:43:05Z</time>
      </trkpt>
      <trkpt lat="44.11431" lon="3.28868">
        <ele>792</ele>
        <time>2019-11-12T13:43:14Z</time>
      </trkpt>
      <trkpt lat="44.11448" lon="3.2884">
        <ele>794</ele>
        <time>2019-11-12T13:43:20Z</time>
      </trkpt>
      <trkpt lat="44.11457" lon="3.28803">
        <ele>795</ele>
        <time>2019-11-12T13:43:27Z</time>
      </trkpt>
      <trkpt lat="44.11472" lon="3.28716">
        <ele>794</ele>
        <time>2019-11-12T13:43:42Z</time>
      </trkpt>
      <trkpt lat="44.11479" lon="3.28698">
        <ele>793</ele>
        <time>2019-11-12T13:43:45Z</time>
      </trkpt>
      <trkpt lat="44.11496" lon="3.28675">
        <ele>792</ele>
        <time>2019-11-12T13:43:51Z</time>
      </trkpt>
      <trkpt lat="44.11505" lon="3.28651">
        <ele>789</ele>
        <time>2019-11-12T13:43:55Z</time>
      </trkpt>
      <trkpt lat="44.11519" lon="3.28624">
        <ele>784</ele>
        <time>2019-11-12T13:44:01Z</time>
      </trkpt>
      <trkpt lat="44.1155" lon="3.28515">
        <ele>769</ele>
        <time>2019-11-12T13:44:21Z</time>
      </trkpt>
      <trkpt lat="44.11556" lon="3.28502">
        <ele>767</ele>
        <time>2019-11-12T13:44:23Z</time>
      </trkpt>
      <trkpt lat="44.11571" lon="3.28483">
        <ele>764</ele>
        <time>2019-11-12T13:44:28Z</time>
      </trkpt>
      <trkpt lat="44.1161" lon="3.28413">
        <ele>757</ele>
        <time>2019-11-12T13:44:43Z</time>
      </trkpt>
      <trkpt lat="44.11637" lon="3.28377">
        <ele>754</ele>
        <time>2019-11-12T13:44:51Z</time>
      </trkpt>
      <trkpt lat="44.11673" lon="3.28321">
        <ele>750</ele>
        <time>2019-11-12T13:45:04Z</time>
      </trkpt>
      <trkpt lat="44.1168" lon="3.28296">
        <ele>750</ele>
        <time>2019-11-12T13:45:09Z</time>
      </trkpt>
      <trkpt lat="44.11688" lon="3.28249">
        <ele>748</ele>
        <time>2019-11-12T13:45:17Z</time>
      </trkpt>
      <trkpt lat="44.11703" lon="3.28197">
        <ele>743</ele>
        <time>2019-11-12T13:45:26Z</time>
      </trkpt>
      <trkpt lat="44.11694" lon="3.28144">
        <ele>738</ele>
        <time>2019-11-12T13:45:35Z</time>
      </trkpt>
      <trkpt lat="44.11703" lon="3.28202">
        <ele>743</ele>
        <time>2019-11-12T13:45:45Z</time>
      </trkpt>
      <trkpt lat="44.11691" lon="3.28237">
        <ele>747</ele>
        <time>2019-11-12T13:45:52Z</time>
      </trkpt>
      <trkpt lat="44.1168" lon="3.28296">
        <ele>750</ele>
        <time>2019-11-12T13:46:02Z</time>
      </trkpt>
      <trkpt lat="44.11673" lon="3.28321">
        <ele>750</ele>
        <time>2019-11-12T13:46:06Z</time>
      </trkpt>
      <trkpt lat="44.11637" lon="3.28377">
        <ele>754</ele>
        <time>2019-11-12T13:46:19Z</time>
      </trkpt>
      <trkpt lat="44.1161" lon="3.28413">
        <ele>757</ele>
        <time>2019-11-12T13:46:28Z</time>
      </trkpt>
      <trkpt lat="44.11575" lon="3.28477">
        <ele>763</ele>
        <time>2019-11-12T13:46:41Z</time>
      </trkpt>
      <trkpt lat="44.1155" lon="3.28515">
        <ele>769</ele>
        <time>2019-11-12T13:46:50Z</time>
      </trkpt>
      <trkpt lat="44.11519" lon="3.28624">
        <ele>784</ele>
        <time>2019-11-12T13:47:10Z</time>
      </trkpt>
      <trkpt lat="44.11496" lon="3.28674">
        <ele>792</ele>
        <time>2019-11-12T13:47:19Z</time>
      </trkpt>
      <trkpt lat="44.11479" lon="3.28698">
        <ele>793</ele>
        <time>2019-11-12T13:47:25Z</time>
      </trkpt>
      <trkpt lat="44.11472" lon="3.28716">
        <ele>794</ele>
        <time>2019-11-12T13:47:29Z</time>
      </trkpt>
      <trkpt lat="44.11457" lon="3.28803">
        <ele>795</ele>
        <time>2019-11-12T13:47:44Z</time>
      </trkpt>
      <trkpt lat="44.11448" lon="3.2884">
        <ele>794</ele>
        <time>2019-11-12T13:47:50Z</time>
      </trkpt>
      <trkpt lat="44.11436" lon="3.28861">
        <ele>793</ele>
        <time>2019-11-12T13:47:55Z</time>
      </trkpt>
      <trkpt lat="44.11402" lon="3.28903">
        <ele>791</ele>
        <time>2019-11-12T13:48:05Z</time>
      </trkpt>
      <trkpt lat="44.11396" lon="3.28914">
        <ele>791</ele>
        <time>2019-11-12T13:48:08Z</time>
      </trkpt>
      <trkpt lat="44.11393" lon="3.28924">
        <ele>791</ele>
        <time>2019-11-12T13:48:09Z</time>
      </trkpt>
      <trkpt lat="44.11388" lon="3.28972">
        <ele>791</ele>
        <time>2019-11-12T13:48:17Z</time>
      </trkpt>
      <trkpt lat="44.11389" lon="3.2901">
        <ele>792</ele>
        <time>2019-11-12T13:48:24Z</time>
      </trkpt>
      <trkpt lat="44.11387" lon="3.29039">
        <ele>792</ele>
        <time>2019-11-12T13:48:29Z</time>
      </trkpt>
      <trkpt lat="44.11383" lon="3.29052">
        <ele>792</ele>
        <time>2019-11-12T13:48:31Z</time>
      </trkpt>
      <trkpt lat="44.11377" lon="3.29058">
        <ele>792</ele>
        <time>2019-11-12T13:48:33Z</time>
      </trkpt>
      <trkpt lat="44.11372" lon="3.29073">
        <ele>792</ele>
        <time>2019-11-12T13:48:36Z</time>
      </trkpt>
      <trkpt lat="44.11379" lon="3.29148">
        <ele>794</ele>
        <time>2019-11-12T13:48:48Z</time>
      </trkpt>
      <trkpt lat="44.1139" lon="3.29189">
        <ele>796</ele>
        <time>2019-11-12T13:48:56Z</time>
      </trkpt>
      <trkpt lat="44.1141" lon="3.29237">
        <ele>798</ele>
        <time>2019-11-12T13:49:05Z</time>
      </trkpt>
      <trkpt lat="44.11424" lon="3.29252">
        <ele>799</ele>
        <time>2019-11-12T13:49:09Z</time>
      </trkpt>
      <trkpt lat="44.11428" lon="3.29262">
        <ele>799</ele>
        <time>2019-11-12T13:49:11Z</time>
      </trkpt>
      <trkpt lat="44.11448" lon="3.29262">
        <ele>801</ele>
        <time>2019-11-12T13:49:16Z</time>
      </trkpt>
      <trkpt lat="44.11453" lon="3.29284">
        <ele>802</ele>
        <time>2019-11-12T13:49:20Z</time>
      </trkpt>
      <trkpt lat="44.11495" lon="3.29417">
        <ele>806</ele>
        <time>2019-11-12T13:49:44Z</time>
      </trkpt>
      <trkpt lat="44.11496" lon="3.29461">
        <ele>806</ele>
        <time>2019-11-12T13:49:51Z</time>
      </trkpt>
      <trkpt lat="44.11509" lon="3.29515">
        <ele>807</ele>
        <time>2019-11-12T13:50:01Z</time>
      </trkpt>
      <trkpt lat="44.11492" lon="3.29509">
        <ele>806</ele>
        <time>2019-11-12T13:50:05Z</time>
      </trkpt>
      <trkpt lat="44.11484" lon="3.29509">
        <ele>806</ele>
        <time>2019-11-12T13:50:07Z</time>
      </trkpt>
      <trkpt lat="44.11475" lon="3.29514">
        <ele>807</ele>
        <time>2019-11-12T13:50:09Z</time>
      </trkpt>
      <trkpt lat="44.11455" lon="3.29534">
        <ele>808</ele>
        <time>2019-11-12T13:50:15Z</time>
      </trkpt>
      <trkpt lat="44.11444" lon="3.29539">
        <ele>809</ele>
        <time>2019-11-12T13:50:17Z</time>
      </trkpt>
      <trkpt lat="44.1142" lon="3.29561">
        <ele>811</ele>
        <time>2019-11-12T13:50:24Z</time>
      </trkpt>
      <trkpt lat="44.11409" lon="3.29567">
        <ele>812</ele>
        <time>2019-11-12T13:50:27Z</time>
      </trkpt>
      <trkpt lat="44.11399" lon="3.29569">
        <ele>813</ele>
        <time>2019-11-12T13:50:29Z</time>
      </trkpt>
      <trkpt lat="44.11394" lon="3.29569">
        <ele>814</ele>
        <time>2019-11-12T13:50:30Z</time>
      </trkpt>
      <trkpt lat="44.11382" lon="3.29562">
        <ele>815</ele>
        <time>2019-11-12T13:50:34Z</time>
      </trkpt>
      <trkpt lat="44.11354" lon="3.29537">
        <ele>817</ele>
        <time>2019-11-12T13:50:41Z</time>
      </trkpt>
      <trkpt lat="44.11308" lon="3.2951">
        <ele>820</ele>
        <time>2019-11-12T13:50:53Z</time>
      </trkpt>
      <trkpt lat="44.11299" lon="3.29508">
        <ele>820</ele>
        <time>2019-11-12T13:50:55Z</time>
      </trkpt>
      <trkpt lat="44.1129" lon="3.29516">
        <ele>821</ele>
        <time>2019-11-12T13:50:58Z</time>
      </trkpt>
      <trkpt lat="44.11283" lon="3.29531">
        <ele>823</ele>
        <time>2019-11-12T13:51:01Z</time>
      </trkpt>
      <trkpt lat="44.11267" lon="3.29638">
        <ele>830</ele>
        <time>2019-11-12T13:51:19Z</time>
      </trkpt>
      <trkpt lat="44.11281" lon="3.29688">
        <ele>835</ele>
        <time>2019-11-12T13:51:28Z</time>
      </trkpt>
      <trkpt lat="44.1126" lon="3.29734">
        <ele>839</ele>
        <time>2019-11-12T13:51:37Z</time>
      </trkpt>
      <trkpt lat="44.11256" lon="3.29762">
        <ele>841</ele>
        <time>2019-11-12T13:51:42Z</time>
      </trkpt>
      <trkpt lat="44.11253" lon="3.29768">
        <ele>842</ele>
        <time>2019-11-12T13:51:43Z</time>
      </trkpt>
      <trkpt lat="44.11242" lon="3.29785">
        <ele>843</ele>
        <time>2019-11-12T13:51:47Z</time>
      </trkpt>
      <trkpt lat="44.11231" lon="3.29797">
        <ele>844</ele>
        <time>2019-11-12T13:51:50Z</time>
      </trkpt>
      <trkpt lat="44.11214" lon="3.2981">
        <ele>844</ele>
        <time>2019-11-12T13:51:55Z</time>
      </trkpt>
      <trkpt lat="44.11209" lon="3.29811">
        <ele>844</ele>
        <time>2019-11-12T13:51:56Z</time>
      </trkpt>
      <trkpt lat="44.11075" lon="3.29959">
        <ele>846</ele>
        <time>2019-11-12T13:52:36Z</time>
      </trkpt>
      <trkpt lat="44.11054" lon="3.29985">
        <ele>844</ele>
        <time>2019-11-12T13:52:42Z</time>
      </trkpt>
      <trkpt lat="44.11042" lon="3.30006">
        <ele>843</ele>
        <time>2019-11-12T13:52:47Z</time>
      </trkpt>
      <trkpt lat="44.11036" lon="3.30034">
        <ele>841</ele>
        <time>2019-11-12T13:52:52Z</time>
      </trkpt>
      <trkpt lat="44.11035" lon="3.30074">
        <ele>839</ele>
        <time>2019-11-12T13:52:58Z</time>
      </trkpt>
      <trkpt lat="44.11039" lon="3.30161">
        <ele>832</ele>
        <time>2019-11-12T13:53:13Z</time>
      </trkpt>
      <trkpt lat="44.11052" lon="3.3023">
        <ele>834</ele>
        <time>2019-11-12T13:53:25Z</time>
      </trkpt>
      <trkpt lat="44.11052" lon="3.30235">
        <ele>834</ele>
        <time>2019-11-12T13:53:26Z</time>
      </trkpt>
      <trkpt lat="44.11046" lon="3.30249">
        <ele>833</ele>
        <time>2019-11-12T13:53:29Z</time>
      </trkpt>
      <trkpt lat="44.11037" lon="3.30259">
        <ele>832</ele>
        <time>2019-11-12T13:53:31Z</time>
      </trkpt>
      <trkpt lat="44.11025" lon="3.30266">
        <ele>831</ele>
        <time>2019-11-12T13:53:34Z</time>
      </trkpt>
      <trkpt lat="44.11019" lon="3.30267">
        <ele>831</ele>
        <time>2019-11-12T13:53:36Z</time>
      </trkpt>
      <trkpt lat="44.10969" lon="3.30265">
        <ele>828</ele>
        <time>2019-11-12T13:53:47Z</time>
      </trkpt>
      <trkpt lat="44.10961" lon="3.30262">
        <ele>827</ele>
        <time>2019-11-12T13:53:49Z</time>
      </trkpt>
      <trkpt lat="44.10958" lon="3.30257">
        <ele>827</ele>
        <time>2019-11-12T13:53:50Z</time>
      </trkpt>
      <trkpt lat="44.10949" lon="3.30264">
        <ele>827</ele>
        <time>2019-11-12T13:53:53Z</time>
      </trkpt>
      <trkpt lat="44.10924" lon="3.30289">
        <ele>831</ele>
        <time>2019-11-12T13:54:00Z</time>
      </trkpt>
      <trkpt lat="44.10898" lon="3.30339">
        <ele>837</ele>
        <time>2019-11-12T13:54:10Z</time>
      </trkpt>
      <trkpt lat="44.10888" lon="3.30375">
        <ele>838</ele>
        <time>2019-11-12T13:54:17Z</time>
      </trkpt>
      <trkpt lat="44.10893" lon="3.30394">
        <ele>839</ele>
        <time>2019-11-12T13:54:20Z</time>
      </trkpt>
      <trkpt lat="44.10907" lon="3.30424">
        <ele>841</ele>
        <time>2019-11-12T13:54:26Z</time>
      </trkpt>
      <trkpt lat="44.10921" lon="3.30464">
        <ele>843</ele>
        <time>2019-11-12T13:54:34Z</time>
      </trkpt>
      <trkpt lat="44.10946" lon="3.30495">
        <ele>846</ele>
        <time>2019-11-12T13:54:42Z</time>
      </trkpt>
      <trkpt lat="44.10963" lon="3.30507">
        <ele>847</ele>
        <time>2019-11-12T13:54:46Z</time>
      </trkpt>
      <trkpt lat="44.1097" lon="3.30515">
        <ele>848</ele>
        <time>2019-11-12T13:54:48Z</time>
      </trkpt>
      <trkpt lat="44.10985" lon="3.3054">
        <ele>850</ele>
        <time>2019-11-12T13:54:54Z</time>
      </trkpt>
      <trkpt lat="44.11028" lon="3.30665">
        <ele>857</ele>
        <time>2019-11-12T13:55:17Z</time>
      </trkpt>
      <trkpt lat="44.1104" lon="3.30722">
        <ele>861</ele>
        <time>2019-11-12T13:55:27Z</time>
      </trkpt>
      <trkpt lat="44.11072" lon="3.30833">
        <ele>865</ele>
        <time>2019-11-12T13:55:47Z</time>
      </trkpt>
      <trkpt lat="44.11092" lon="3.30881">
        <ele>867</ele>
        <time>2019-11-12T13:55:56Z</time>
      </trkpt>
      <trkpt lat="44.11121" lon="3.30996">
        <ele>869</ele>
        <time>2019-11-12T13:56:17Z</time>
      </trkpt>
      <trkpt lat="44.11135" lon="3.31042">
        <ele>869</ele>
        <time>2019-11-12T13:56:25Z</time>
      </trkpt>
      <trkpt lat="44.11153" lon="3.31169">
        <ele>868</ele>
        <time>2019-11-12T13:56:47Z</time>
      </trkpt>
      <trkpt lat="44.11162" lon="3.3121">
        <ele>869</ele>
        <time>2019-11-12T13:56:54Z</time>
      </trkpt>
      <trkpt lat="44.11169" lon="3.3128">
        <ele>871</ele>
        <time>2019-11-12T13:57:06Z</time>
      </trkpt>
      <trkpt lat="44.11164" lon="3.31315">
        <ele>871</ele>
        <time>2019-11-12T13:57:12Z</time>
      </trkpt>
      <trkpt lat="44.11164" lon="3.31349">
        <ele>872</ele>
        <time>2019-11-12T13:57:17Z</time>
      </trkpt>
      <trkpt lat="44.11172" lon="3.3142">
        <ele>877</ele>
        <time>2019-11-12T13:57:29Z</time>
      </trkpt>
      <trkpt lat="44.11174" lon="3.3151">
        <ele>878</ele>
        <time>2019-11-12T13:57:45Z</time>
      </trkpt>
      <trkpt lat="44.11214" lon="3.31611">
        <ele>880</ele>
        <time>2019-11-12T13:58:04Z</time>
      </trkpt>
      <trkpt lat="44.11229" lon="3.31671">
        <ele>879</ele>
        <time>2019-11-12T13:58:15Z</time>
      </trkpt>
      <trkpt lat="44.11268" lon="3.31776">
        <ele>876</ele>
        <time>2019-11-12T13:58:34Z</time>
      </trkpt>
      <trkpt lat="44.11275" lon="3.31828">
        <ele>874</ele>
        <time>2019-11-12T13:58:43Z</time>
      </trkpt>
      <trkpt lat="44.1131" lon="3.31955">
        <ele>875</ele>
        <time>2019-11-12T13:59:06Z</time>
      </trkpt>
      <trkpt lat="44.11327" lon="3.32071">
        <ele>874</ele>
        <time>2019-11-12T13:59:26Z</time>
      </trkpt>
      <trkpt lat="44.11331" lon="3.32121">
        <ele>875</ele>
        <time>2019-11-12T13:59:34Z</time>
      </trkpt>
      <trkpt lat="44.11331" lon="3.32188">
        <ele>875</ele>
        <time>2019-11-12T13:59:46Z</time>
      </trkpt>
      <trkpt lat="44.11326" lon="3.32255">
        <ele>874</ele>
        <time>2019-11-12T13:59:57Z</time>
      </trkpt>
      <trkpt lat="44.11326" lon="3.32326">
        <ele>872</ele>
        <time>2019-11-12T14:00:09Z</time>
      </trkpt>
      <trkpt lat="44.11315" lon="3.3245">
        <ele>869</ele>
        <time>2019-11-12T14:00:30Z</time>
      </trkpt>
      <trkpt lat="44.11318" lon="3.32482">
        <ele>868</ele>
        <time>2019-11-12T14:00:35Z</time>
      </trkpt>
      <trkpt lat="44.11314" lon="3.32526">
        <ele>866</ele>
        <time>2019-11-12T14:00:43Z</time>
      </trkpt>
      <trkpt lat="44.11304" lon="3.32577">
        <ele>863</ele>
        <time>2019-11-12T14:00:51Z</time>
      </trkpt>
      <trkpt lat="44.11286" lon="3.32623">
        <ele>858</ele>
        <time>2019-11-12T14:01:00Z</time>
      </trkpt>
      <trkpt lat="44.11285" lon="3.32655">
        <ele>854</ele>
        <time>2019-11-12T14:01:06Z</time>
      </trkpt>
      <trkpt lat="44.1129" lon="3.32703">
        <ele>851</ele>
        <time>2019-11-12T14:01:14Z</time>
      </trkpt>
      <trkpt lat="44.1129" lon="3.32794">
        <ele>845</ele>
        <time>2019-11-12T14:01:29Z</time>
      </trkpt>
      <trkpt lat="44.11292" lon="3.32813">
        <ele>844</ele>
        <time>2019-11-12T14:01:32Z</time>
      </trkpt>
      <trkpt lat="44.11287" lon="3.32863">
        <ele>842</ele>
        <time>2019-11-12T14:01:41Z</time>
      </trkpt>
      <trkpt lat="44.11279" lon="3.3291">
        <ele>840</ele>
        <time>2019-11-12T14:01:49Z</time>
      </trkpt>
      <trkpt lat="44.11277" lon="3.32952">
        <ele>841</ele>
        <time>2019-11-12T14:01:56Z</time>
      </trkpt>
      <trkpt lat="44.11262" lon="3.33008">
        <ele>840</ele>
        <time>2019-11-12T14:02:06Z</time>
      </trkpt>
      <trkpt lat="44.1126" lon="3.33032">
        <ele>842</ele>
        <time>2019-11-12T14:02:10Z</time>
      </trkpt>
      <trkpt lat="44.11261" lon="3.33057">
        <ele>845</ele>
        <time>2019-11-12T14:02:14Z</time>
      </trkpt>
      <trkpt lat="44.11243" lon="3.33105">
        <ele>844</ele>
        <time>2019-11-12T14:02:23Z</time>
      </trkpt>
      <trkpt lat="44.11243" lon="3.33144">
        <ele>845</ele>
        <time>2019-11-12T14:02:30Z</time>
      </trkpt>
      <trkpt lat="44.11256" lon="3.33234">
        <ele>846</ele>
        <time>2019-11-12T14:02:45Z</time>
      </trkpt>
      <trkpt lat="44.11256" lon="3.3325">
        <ele>845</ele>
        <time>2019-11-12T14:02:48Z</time>
      </trkpt>
      <trkpt lat="44.11224" lon="3.33403">
        <ele>846</ele>
        <time>2019-11-12T14:03:14Z</time>
      </trkpt>
      <trkpt lat="44.11227" lon="3.33438">
        <ele>850</ele>
        <time>2019-11-12T14:03:20Z</time>
      </trkpt>
      <trkpt lat="44.11239" lon="3.33462">
        <ele>856</ele>
        <time>2019-11-12T14:03:25Z</time>
      </trkpt>
      <trkpt lat="44.11264" lon="3.33627">
        <ele>862</ele>
        <time>2019-11-12T14:03:54Z</time>
      </trkpt>
      <trkpt lat="44.11275" lon="3.33719">
        <ele>864</ele>
        <time>2019-11-12T14:04:09Z</time>
      </trkpt>
      <trkpt lat="44.11275" lon="3.33738">
        <ele>864</ele>
        <time>2019-11-12T14:04:12Z</time>
      </trkpt>
      <trkpt lat="44.1125" lon="3.33842">
        <ele>858</ele>
        <time>2019-11-12T14:04:31Z</time>
      </trkpt>
      <trkpt lat="44.11252" lon="3.33859">
        <ele>856</ele>
        <time>2019-11-12T14:04:34Z</time>
      </trkpt>
      <trkpt lat="44.11283" lon="3.33942">
        <ele>854</ele>
        <time>2019-11-12T14:04:49Z</time>
      </trkpt>
      <trkpt lat="44.11291" lon="3.33985">
        <ele>853</ele>
        <time>2019-11-12T14:04:57Z</time>
      </trkpt>
      <trkpt lat="44.11321" lon="3.34012">
        <ele>860</ele>
        <time>2019-11-12T14:05:05Z</time>
      </trkpt>
      <trkpt lat="44.11378" lon="3.34007">
        <ele>865</ele>
        <time>2019-11-12T14:05:18Z</time>
      </trkpt>
      <trkpt lat="44.11395" lon="3.34048">
        <ele>866</ele>
        <time>2019-11-12T14:05:26Z</time>
      </trkpt>
      <trkpt lat="44.11409" lon="3.34106">
        <ele>867</ele>
        <time>2019-11-12T14:05:37Z</time>
      </trkpt>
      <trkpt lat="44.11418" lon="3.34173">
        <ele>868</ele>
        <time>2019-11-12T14:05:48Z</time>
      </trkpt>
      <trkpt lat="44.11428" lon="3.34211">
        <ele>865</ele>
        <time>2019-11-12T14:05:55Z</time>
      </trkpt>
      <trkpt lat="44.11454" lon="3.34287">
        <ele>863</ele>
        <time>2019-11-12T14:06:09Z</time>
      </trkpt>
      <trkpt lat="44.11466" lon="3.34373">
        <ele>863</ele>
        <time>2019-11-12T14:06:24Z</time>
      </trkpt>
      <trkpt lat="44.11467" lon="3.34403">
        <ele>863</ele>
        <time>2019-11-12T14:06:29Z</time>
      </trkpt>
      <trkpt lat="44.11477" lon="3.34434">
        <ele>865</ele>
        <time>2019-11-12T14:06:34Z</time>
      </trkpt>
      <trkpt lat="44.11476" lon="3.34447">
        <ele>865</ele>
        <time>2019-11-12T14:06:37Z</time>
      </trkpt>
      <trkpt lat="44.11467" lon="3.34483">
        <ele>863</ele>
        <time>2019-11-12T14:06:43Z</time>
      </trkpt>
      <trkpt lat="44.11472" lon="3.34501">
        <ele>865</ele>
        <time>2019-11-12T14:06:46Z</time>
      </trkpt>
      <trkpt lat="44.11473" lon="3.34522">
        <ele>864</ele>
        <time>2019-11-12T14:06:50Z</time>
      </trkpt>
      <trkpt lat="44.11464" lon="3.34551">
        <ele>861</ele>
        <time>2019-11-12T14:06:55Z</time>
      </trkpt>
      <trkpt lat="44.11465" lon="3.34583">
        <ele>860</ele>
        <time>2019-11-12T14:07:00Z</time>
      </trkpt>
      <trkpt lat="44.11462" lon="3.34622">
        <ele>860</ele>
        <time>2019-11-12T14:07:07Z</time>
      </trkpt>
      <trkpt lat="44.11465" lon="3.34652">
        <ele>861</ele>
        <time>2019-11-12T14:07:12Z</time>
      </trkpt>
      <trkpt lat="44.11477" lon="3.34679">
        <ele>864</ele>
        <time>2019-11-12T14:07:17Z</time>
      </trkpt>
      <trkpt lat="44.11517" lon="3.34636">
        <ele>870</ele>
        <time>2019-11-12T14:07:29Z</time>
      </trkpt>
      <trkpt lat="44.1156" lon="3.3464">
        <ele>872</ele>
        <time>2019-11-12T14:07:39Z</time>
      </trkpt>
      <trkpt lat="44.11593" lon="3.34761">
        <ele>875</ele>
        <time>2019-11-12T14:08:01Z</time>
      </trkpt>
      <trkpt lat="44.11657" lon="3.34808">
        <ele>876</ele>
        <time>2019-11-12T14:08:18Z</time>
      </trkpt>
      <trkpt lat="44.11684" lon="3.3487">
        <ele>877</ele>
        <time>2019-11-12T14:08:30Z</time>
      </trkpt>
      <trkpt lat="44.11763" lon="3.34944">
        <ele>880</ele>
        <time>2019-11-12T14:08:52Z</time>
      </trkpt>
      <trkpt lat="44.11776" lon="3.34983">
        <ele>880</ele>
        <time>2019-11-12T14:08:59Z</time>
      </trkpt>
      <trkpt lat="44.11738" lon="3.35139">
        <ele>878</ele>
        <time>2019-11-12T14:09:27Z</time>
      </trkpt>
      <trkpt lat="44.11757" lon="3.35307">
        <ele>872</ele>
        <time>2019-11-12T14:09:56Z</time>
      </trkpt>
      <trkpt lat="44.118" lon="3.35494">
        <ele>873</ele>
        <time>2019-11-12T14:10:29Z</time>
      </trkpt>
      <trkpt lat="44.11857" lon="3.35584">
        <ele>877</ele>
        <time>2019-11-12T14:10:49Z</time>
      </trkpt>
      <trkpt lat="44.11887" lon="3.35603">
        <ele>879</ele>
        <time>2019-11-12T14:10:56Z</time>
      </trkpt>
      <trkpt lat="44.11922" lon="3.35864">
        <ele>884</ele>
        <time>2019-11-12T14:11:41Z</time>
      </trkpt>
      <trkpt lat="44.12002" lon="3.36125">
        <ele>890</ele>
        <time>2019-11-12T14:12:28Z</time>
      </trkpt>
      <trkpt lat="44.11986" lon="3.3634">
        <ele>889</ele>
        <time>2019-11-12T14:13:05Z</time>
      </trkpt>
      <trkpt lat="44.11946" lon="3.36465">
        <ele>882</ele>
        <time>2019-11-12T14:13:28Z</time>
      </trkpt>
      <trkpt lat="44.11984" lon="3.36609">
        <ele>884</ele>
        <time>2019-11-12T14:13:53Z</time>
      </trkpt>
      <trkpt lat="44.11967" lon="3.36792">
        <ele>884</ele>
        <time>2019-11-12T14:14:24Z</time>
      </trkpt>
      <trkpt lat="44.11989" lon="3.36843">
        <ele>885</ele>
        <time>2019-11-12T14:14:34Z</time>
      </trkpt>
      <trkpt lat="44.12013" lon="3.37003">
        <ele>880</ele>
        <time>2019-11-12T14:15:02Z</time>
      </trkpt>
      <trkpt lat="44.12043" lon="3.371">
        <ele>883</ele>
        <time>2019-11-12T14:15:19Z</time>
      </trkpt>
      <trkpt lat="44.12183" lon="3.37162">
        <ele>885</ele>
        <time>2019-11-12T14:15:54Z</time>
      </trkpt>
      <trkpt lat="44.12323" lon="3.3731">
        <ele>886</ele>
        <time>2019-11-12T14:16:35Z</time>
      </trkpt>
      <trkpt lat="44.12377" lon="3.37372">
        <ele>888</ele>
        <time>2019-11-12T14:16:51Z</time>
      </trkpt>
      <trkpt lat="44.12393" lon="3.37462">
        <ele>887</ele>
        <time>2019-11-12T14:17:07Z</time>
      </trkpt>
      <trkpt lat="44.12361" lon="3.3754">
        <ele>890</ele>
        <time>2019-11-12T14:17:22Z</time>
      </trkpt>
      <trkpt lat="44.1239" lon="3.37563">
        <ele>889</ele>
        <time>2019-11-12T14:17:29Z</time>
      </trkpt>
      <trkpt lat="44.12266" lon="3.37996">
        <ele>929</ele>
        <time>2019-11-12T14:18:48Z</time>
      </trkpt>
      <trkpt lat="44.12196" lon="3.3823">
        <ele>932</ele>
        <time>2019-11-12T14:19:30Z</time>
      </trkpt>
      <trkpt lat="44.12215" lon="3.38282">
        <ele>927</ele>
        <time>2019-11-12T14:19:40Z</time>
      </trkpt>
      <trkpt lat="44.12169" lon="3.3834">
        <ele>930</ele>
        <time>2019-11-12T14:19:54Z</time>
      </trkpt>
      <trkpt lat="44.12129" lon="3.38535">
        <ele>929</ele>
        <time>2019-11-12T14:20:28Z</time>
      </trkpt>
      <trkpt lat="44.12312" lon="3.39012">
        <ele>942</ele>
        <time>2019-11-12T14:21:59Z</time>
      </trkpt>
      <trkpt lat="44.12326" lon="3.39197">
        <ele>944</ele>
        <time>2019-11-12T14:22:30Z</time>
      </trkpt>
      <trkpt lat="44.12343" lon="3.39198">
        <ele>944</ele>
        <time>2019-11-12T14:22:34Z</time>
      </trkpt>
      <trkpt lat="44.12317" lon="3.39255">
        <ele>940</ele>
        <time>2019-11-12T14:22:46Z</time>
      </trkpt>
      <trkpt lat="44.12308" lon="3.39307">
        <ele>936</ele>
        <time>2019-11-12T14:22:54Z</time>
      </trkpt>
      <trkpt lat="44.12307" lon="3.39331">
        <ele>934</ele>
        <time>2019-11-12T14:22:59Z</time>
      </trkpt>
      <trkpt lat="44.12294" lon="3.39385">
        <ele>929</ele>
        <time>2019-11-12T14:23:08Z</time>
      </trkpt>
      <trkpt lat="44.12297" lon="3.39404">
        <ele>927</ele>
        <time>2019-11-12T14:23:11Z</time>
      </trkpt>
      <trkpt lat="44.12285" lon="3.39411">
        <ele>926</ele>
        <time>2019-11-12T14:23:14Z</time>
      </trkpt>
      <trkpt lat="44.12256" lon="3.39409">
        <ele>925</ele>
        <time>2019-11-12T14:23:21Z</time>
      </trkpt>
      <trkpt lat="44.12229" lon="3.39413">
        <ele>926</ele>
        <time>2019-11-12T14:23:27Z</time>
      </trkpt>
      <trkpt lat="44.12215" lon="3.3943">
        <ele>924</ele>
        <time>2019-11-12T14:23:32Z</time>
      </trkpt>
      <trkpt lat="44.12183" lon="3.39497">
        <ele>915</ele>
        <time>2019-11-12T14:23:45Z</time>
      </trkpt>
      <trkpt lat="44.12173" lon="3.39503">
        <ele>914</ele>
        <time>2019-11-12T14:23:48Z</time>
      </trkpt>
      <trkpt lat="44.12163" lon="3.39507">
        <ele>914</ele>
        <time>2019-11-12T14:23:50Z</time>
      </trkpt>
      <trkpt lat="44.12141" lon="3.39504">
        <ele>915</ele>
        <time>2019-11-12T14:23:55Z</time>
      </trkpt>
      <trkpt lat="44.12116" lon="3.39505">
        <ele>915</ele>
        <time>2019-11-12T14:24:01Z</time>
      </trkpt>
      <trkpt lat="44.12093" lon="3.39524">
        <ele>910</ele>
        <time>2019-11-12T14:24:08Z</time>
      </trkpt>
      <trkpt lat="44.12055" lon="3.39538">
        <ele>907</ele>
        <time>2019-11-12T14:24:17Z</time>
      </trkpt>
      <trkpt lat="44.11956" lon="3.39621">
        <ele>894</ele>
        <time>2019-11-12T14:24:44Z</time>
      </trkpt>
      <trkpt lat="44.119" lon="3.39679">
        <ele>884</ele>
        <time>2019-11-12T14:25:00Z</time>
      </trkpt>
      <trkpt lat="44.11905" lon="3.39675">
        <ele>883</ele>
        <time>2019-11-12T14:25:01Z</time>
      </trkpt>
      <trkpt lat="44.11959" lon="3.39665">
        <ele>880</ele>
        <time>2019-11-12T14:25:14Z</time>
      </trkpt>
      <trkpt lat="44.11961" lon="3.39669">
        <ele>880</ele>
        <time>2019-11-12T14:25:15Z</time>
      </trkpt>
      <trkpt lat="44.11951" lon="3.39684">
        <ele>881</ele>
        <time>2019-11-12T14:25:18Z</time>
      </trkpt>
      <trkpt lat="44.11902" lon="3.39726">
        <ele>880</ele>
        <time>2019-11-12T14:25:32Z</time>
      </trkpt>
      <trkpt lat="44.11895" lon="3.39736">
        <ele>879</ele>
        <time>2019-11-12T14:25:34Z</time>
      </trkpt>
      <trkpt lat="44.11831" lon="3.39753">
        <ele>876</ele>
        <time>2019-11-12T14:25:49Z</time>
      </trkpt>
      <trkpt lat="44.11732" lon="3.39871">
        <ele>876</ele>
        <time>2019-11-12T14:26:20Z</time>
      </trkpt>
      <trkpt lat="44.11699" lon="3.39959">
        <ele>864</ele>
        <time>2019-11-12T14:26:36Z</time>
      </trkpt>
      <trkpt lat="44.11654" lon="3.40157">
        <ele>823</ele>
        <time>2019-11-12T14:27:11Z</time>
      </trkpt>
      <trkpt lat="44.11616" lon="3.40245">
        <ele>811</ele>
        <time>2019-11-12T14:27:28Z</time>
      </trkpt>
      <trkpt lat="44.11573" lon="3.403">
        <ele>800</ele>
        <time>2019-11-12T14:27:42Z</time>
      </trkpt>
      <trkpt lat="44.11511" lon="3.40333">
        <ele>792</ele>
        <time>2019-11-12T14:27:58Z</time>
      </trkpt>
      <trkpt lat="44.11416" lon="3.40347">
        <ele>785</ele>
        <time>2019-11-12T14:28:20Z</time>
      </trkpt>
      <trkpt lat="44.11381" lon="3.40311">
        <ele>781</ele>
        <time>2019-11-12T14:28:30Z</time>
      </trkpt>
      <trkpt lat="44.11357" lon="3.4027">
        <ele>781</ele>
        <time>2019-11-12T14:28:39Z</time>
      </trkpt>
      <trkpt lat="44.11309" lon="3.40248">
        <ele>768</ele>
        <time>2019-11-12T14:28:51Z</time>
      </trkpt>
      <trkpt lat="44.11225" lon="3.40226">
        <ele>747</ele>
        <time>2019-11-12T14:29:11Z</time>
      </trkpt>
      <trkpt lat="44.11195" lon="3.40223">
        <ele>739</ele>
        <time>2019-11-12T14:29:18Z</time>
      </trkpt>
      <trkpt lat="44.11187" lon="3.40186">
        <ele>749</ele>
        <time>2019-11-12T14:29:24Z</time>
      </trkpt>
      <trkpt lat="44.11131" lon="3.40193">
        <ele>738</ele>
        <time>2019-11-12T14:29:37Z</time>
      </trkpt>
      <trkpt lat="44.11063" lon="3.4019">
        <ele>733</ele>
        <time>2019-11-12T14:29:53Z</time>
      </trkpt>
      <trkpt lat="44.10999" lon="3.40219">
        <ele>718</ele>
        <time>2019-11-12T14:30:09Z</time>
      </trkpt>
      <trkpt lat="44.11166" lon="3.40245">
        <ele>724</ele>
        <time>2019-11-12T14:30:48Z</time>
      </trkpt>
      <trkpt lat="44.11255" lon="3.40318">
        <ele>731</ele>
        <time>2019-11-12T14:31:12Z</time>
      </trkpt>
      <trkpt lat="44.11357" lon="3.40582">
        <ele>725</ele>
        <time>2019-11-12T14:32:03Z</time>
      </trkpt>
      <trkpt lat="44.1143" lon="3.40593">
        <ele>735</ele>
        <time>2019-11-12T14:32:20Z</time>
      </trkpt>
      <trkpt lat="44.11435" lon="3.40644">
        <ele>729</ele>
        <time>2019-11-12T14:32:28Z</time>
      </trkpt>
      <trkpt lat="44.11546" lon="3.40736">
        <ele>739</ele>
        <time>2019-11-12T14:32:58Z</time>
      </trkpt>
      <trkpt lat="44.11554" lon="3.41151">
        <ele>731</ele>
        <time>2019-11-12T14:34:08Z</time>
      </trkpt>
      <trkpt lat="44.11559" lon="3.4116">
        <ele>731</ele>
        <time>2019-11-12T14:34:10Z</time>
      </trkpt>
      <trkpt lat="44.11562" lon="3.41187">
        <ele>732</ele>
        <time>2019-11-12T14:34:15Z</time>
      </trkpt>
      <trkpt lat="44.11565" lon="3.41193">
        <ele>732</ele>
        <time>2019-11-12T14:34:16Z</time>
      </trkpt>
      <trkpt lat="44.11567" lon="3.41191">
        <ele>733</ele>
        <time>2019-11-12T14:34:16Z</time>
      </trkpt>
      <trkpt lat="44.11582" lon="3.41203">
        <ele>734</ele>
        <time>2019-11-12T14:34:20Z</time>
      </trkpt>
    </trkseg>
  </trk>
</gpx>